PWSweather.com
Personal Weather Stations
Station Observations
001D0A0109D1
ArhipoOsipovkaRU 353485

ArhipoOsipovkaRU 353485

Lat: 44.36389, Lon: 38.52502

Elevation: 26.25

Station Type: Davis Vantage Vue2Pro

Latest ConditionsUpdated 1:24:49 PM GMT+03:03 Monday, Aug 26, 2019
Currently Today's Max Today's Min Today's Average
Temperature 90.3°F32.4°C 91.2°F32.9°C 71.2°F21.8°C 78.0°F25.6°C
Dew Point 62.1°F16.7°C 66.9°F19.4°C 61.3°F16.3°C 64.7°F18.2°C
Winds 11.4 mph NNE18.3 kmh NNE 11.6 mph -18.7 kmh - - 6.6 mph 10.6 kmh
Wind Gusts 21.9 mph35.2 kmh 25.1 mph40.4 kmh - -
Humidity 39% 86% 38% 65%
Pressure 30.04 in1017.3 mb 30.06 in1017.9 mb 30.03 in1016.9 mb -
Hour Temp Dew Point Humidity Winds Wind Gusts Pressure Precip Precip Rate Daily Precip Total
01:24 PM 90.3°F32.4°C 62.1°F16.7°C 39% 11.4 mph NNE18.3 kmh NNE 21.9 mph35.2 kmh 30.04 in1017.3 mb 0.00 in0.0 mm 0.00 in0.0 mm 0.00 in0.0 mm
01:23 PM 90.7°F32.6°C 62.2°F16.8°C 39% 11.2 mph NNW18.0 kmh NNW 21.9 mph35.2 kmh 30.04 in1017.3 mb 0.00 in0.0 mm 0.00 in0.0 mm 0.00 in0.0 mm
01:22 PM 90.7°F32.6°C 62.2°F16.8°C 39% 10.7 mph N17.2 kmh N 23.0 mph37.0 kmh 30.04 in1017.3 mb 0.00 in0.0 mm 0.00 in0.0 mm 0.00 in0.0 mm
01:21 PM 90.7°F32.6°C 62.2°F16.8°C 39% 10.3 mph N16.6 kmh N 15.0 mph24.1 kmh 30.04 in1017.3 mb 0.00 in0.0 mm 0.00 in0.0 mm 0.00 in0.0 mm
01:20 PM 90.7°F32.6°C 61.5°F16.4°C 38% 10.7 mph N17.2 kmh N 17.0 mph27.4 kmh 30.04 in1017.3 mb 0.00 in0.0 mm 0.00 in0.0 mm 0.00 in0.0 mm
01:19 PM 90.7°F32.6°C 62.2°F16.8°C 39% 10.7 mph N17.2 kmh N 17.0 mph27.4 kmh 30.04 in1017.3 mb 0.00 in0.0 mm 0.00 in0.0 mm 0.00 in0.0 mm
01:18 PM 90.5°F32.5°C 61.3°F16.3°C 38% 10.3 mph WNW16.6 kmh WNW 21.0 mph33.8 kmh 30.04 in1017.3 mb 0.00 in0.0 mm 0.00 in0.0 mm 0.00 in0.0 mm
01:17 PM 90.3°F32.4°C 62.1°F16.7°C 39% 11.0 mph NNW17.7 kmh NNW 16.1 mph25.9 kmh 30.05 in1017.6 mb 0.00 in0.0 mm 0.00 in0.0 mm 0.00 in0.0 mm
01:16 PM 90.1°F32.3°C 61.9°F16.6°C 39% 11.4 mph N18.3 kmh N 19.9 mph32.0 kmh 30.04 in1017.3 mb 0.00 in0.0 mm 0.00 in0.0 mm 0.00 in0.0 mm
01:15 PM 90.0°F32.2°C 61.7°F16.5°C 39% 11.6 mph NE18.7 kmh NE 15.0 mph24.1 kmh 30.04 in1017.3 mb 0.00 in0.0 mm 0.00 in0.0 mm 0.00 in0.0 mm
01:14 PM 90.0°F32.2°C 61.7°F16.5°C 39% 11.2 mph NNE18.0 kmh NNE 19.9 mph32.0 kmh 30.05 in1017.6 mb 0.00 in0.0 mm 0.00 in0.0 mm 0.00 in0.0 mm
01:13 PM 90.0°F32.2°C 61.7°F16.5°C 39% 11.2 mph NNE18.0 kmh NNE 16.1 mph25.9 kmh 30.05 in1017.6 mb 0.00 in0.0 mm 0.00 in0.0 mm 0.00 in0.0 mm
01:12 PM 90.0°F32.2°C 61.7°F16.5°C 39% 11.2 mph NNE18.0 kmh NNE 16.1 mph25.9 kmh 30.04 in1017.3 mb 0.00 in0.0 mm 0.00 in0.0 mm 0.00 in0.0 mm
01:11 PM 90.0°F32.2°C 61.7°F16.5°C 39% 11.4 mph NNW18.3 kmh NNW 21.9 mph35.2 kmh 30.04 in1017.3 mb 0.00 in0.0 mm 0.00 in0.0 mm 0.00 in0.0 mm
01:10 PM 90.1°F32.3°C 61.9°F16.6°C 39% 11.0 mph NW17.7 kmh NW 21.9 mph35.2 kmh 30.05 in1017.6 mb 0.00 in0.0 mm 0.00 in0.0 mm 0.00 in0.0 mm
01:09 PM 90.1°F32.3°C 61.9°F16.6°C 39% 11.2 mph N18.0 kmh N 15.0 mph24.1 kmh 30.04 in1017.3 mb 0.00 in0.0 mm 0.00 in0.0 mm 0.00 in0.0 mm
01:08 PM 90.1°F32.3°C 61.9°F16.6°C 39% 11.2 mph N18.0 kmh N 19.9 mph32.0 kmh 30.05 in1017.6 mb 0.00 in0.0 mm 0.00 in0.0 mm 0.00 in0.0 mm
01:07 PM 90.3°F32.4°C 62.1°F16.7°C 39% 10.7 mph N17.2 kmh N 19.9 mph32.0 kmh 30.04 in1017.3 mb 0.00 in0.0 mm 0.00 in0.0 mm 0.00 in0.0 mm
01:06 PM 90.3°F32.4°C 62.1°F16.7°C 39% 10.7 mph NNW17.2 kmh NNW 19.9 mph32.0 kmh 30.05 in1017.6 mb 0.00 in0.0 mm 0.00 in0.0 mm 0.00 in0.0 mm
01:05 PM 90.3°F32.4°C 62.1°F16.7°C 39% 10.5 mph N16.9 kmh N 19.0 mph30.6 kmh 30.05 in1017.6 mb 0.00 in0.0 mm 0.00 in0.0 mm 0.00 in0.0 mm
01:04 PM 90.3°F32.4°C 62.1°F16.7°C 39% 10.5 mph N16.9 kmh N 19.9 mph32.0 kmh 30.05 in1017.6 mb 0.00 in0.0 mm 0.00 in0.0 mm 0.00 in0.0 mm
01:03 PM 90.1°F32.3°C 62.6°F17.0°C 40% 10.5 mph N16.9 kmh N 19.9 mph32.0 kmh 30.04 in1017.3 mb 0.00 in0.0 mm 0.00 in0.0 mm 0.00 in0.0 mm
01:02 PM 90.1°F32.3°C 62.6°F17.0°C 40% 10.5 mph NNW16.9 kmh NNW 15.0 mph24.1 kmh 30.05 in1017.6 mb 0.00 in0.0 mm 0.00 in0.0 mm 0.00 in0.0 mm
01:01 PM 90.0°F32.2°C 62.4°F16.9°C 40% 10.3 mph NW16.6 kmh NW 17.9 mph28.8 kmh 30.05 in1017.6 mb 0.00 in0.0 mm 0.00 in0.0 mm 0.00 in0.0 mm
01:00 PM 90.1°F32.3°C 61.9°F16.6°C 39% 10.3 mph NNE16.6 kmh NNE 25.1 mph40.4 kmh 30.04 in1017.3 mb 0.00 in0.0 mm 0.00 in0.0 mm 0.00 in0.0 mm
12:59 PM 90.3°F32.4°C 62.1°F16.7°C 39% 10.3 mph NE16.6 kmh NE 19.0 mph30.6 kmh 30.05 in1017.6 mb 0.00 in0.0 mm 0.00 in0.0 mm 0.00 in0.0 mm
12:58 PM 90.7°F32.6°C 63.0°F17.2°C 40% 10.1 mph N16.3 kmh N 17.0 mph27.4 kmh 30.05 in1017.6 mb 0.00 in0.0 mm 0.00 in0.0 mm 0.00 in0.0 mm
12:57 PM 90.9°F32.7°C 62.4°F16.9°C 39% 9.8 mph NNW15.8 kmh NNW 16.1 mph25.9 kmh 30.05 in1017.6 mb 0.00 in0.0 mm 0.00 in0.0 mm 0.00 in0.0 mm
12:56 PM 90.9°F32.7°C 62.4°F16.9°C 39% 9.2 mph NNE14.8 kmh NNE 17.9 mph28.8 kmh 30.05 in1017.6 mb 0.00 in0.0 mm 0.00 in0.0 mm 0.00 in0.0 mm
12:55 PM 90.9°F32.7°C 62.4°F16.9°C 39% 9.4 mph NW15.1 kmh NW 14.1 mph22.7 kmh 30.05 in1017.6 mb 0.00 in0.0 mm 0.00 in0.0 mm 0.00 in0.0 mm
12:54 PM 90.7°F32.6°C 62.2°F16.8°C 39% 9.4 mph N15.1 kmh N 19.0 mph30.6 kmh 30.05 in1017.6 mb 0.00 in0.0 mm 0.00 in0.0 mm 0.00 in0.0 mm
12:53 PM 90.7°F32.6°C 62.2°F16.8°C 39% 9.2 mph NNE14.8 kmh NNE 19.0 mph30.6 kmh 30.05 in1017.6 mb 0.00 in0.0 mm 0.00 in0.0 mm 0.00 in0.0 mm
12:52 PM 90.7°F32.6°C 63.0°F17.2°C 40% 8.5 mph NNE13.7 kmh NNE 17.0 mph27.4 kmh 30.05 in1017.6 mb 0.00 in0.0 mm 0.00 in0.0 mm 0.00 in0.0 mm
12:51 PM 90.3°F32.4°C 62.8°F17.1°C 40% 8.7 mph NNE14.0 kmh NNE 14.1 mph22.7 kmh 30.05 in1017.6 mb 0.00 in0.0 mm 0.00 in0.0 mm 0.00 in0.0 mm
12:50 PM 90.3°F32.4°C 62.1°F16.7°C 39% 8.5 mph N13.7 kmh N 17.0 mph27.4 kmh 30.05 in1017.6 mb 0.00 in0.0 mm 0.00 in0.0 mm 0.00 in0.0 mm
12:49 PM 90.3°F32.4°C 62.1°F16.7°C 39% 8.5 mph NNE13.7 kmh NNE 17.0 mph27.4 kmh 30.05 in1017.6 mb 0.00 in0.0 mm 0.00 in0.0 mm 0.00 in0.0 mm
12:48 PM 90.5°F32.5°C 62.2°F16.8°C 39% 8.1 mph NW13.0 kmh NW 14.1 mph22.7 kmh 30.05 in1017.6 mb 0.00 in0.0 mm 0.00 in0.0 mm 0.00 in0.0 mm
12:47 PM 90.7°F32.6°C 62.2°F16.8°C 39% 7.8 mph W12.6 kmh W 12.1 mph19.5 kmh 30.05 in1017.6 mb 0.00 in0.0 mm 0.00 in0.0 mm 0.00 in0.0 mm
12:46 PM 90.9°F32.7°C 63.1°F17.3°C 40% 7.6 mph N12.2 kmh N 14.1 mph22.7 kmh 30.05 in1017.6 mb 0.00 in0.0 mm 0.00 in0.0 mm 0.00 in0.0 mm
12:45 PM 90.7°F32.6°C 62.2°F16.8°C 39% 7.4 mph N11.9 kmh N 16.1 mph25.9 kmh 30.05 in1017.6 mb 0.00 in0.0 mm 0.00 in0.0 mm 0.00 in0.0 mm
12:44 PM 90.9°F32.7°C 62.4°F16.9°C 39% 6.9 mph NE11.1 kmh NE 17.0 mph27.4 kmh 30.05 in1017.6 mb 0.00 in0.0 mm 0.00 in0.0 mm 0.00 in0.0 mm
12:43 PM 90.9°F32.7°C 63.1°F17.3°C 40% 6.9 mph N11.1 kmh N 17.0 mph27.4 kmh 30.05 in1017.6 mb 0.00 in0.0 mm 0.00 in0.0 mm 0.00 in0.0 mm
12:42 PM 90.9°F32.7°C 63.1°F17.3°C 40% 7.2 mph NW11.6 kmh NW 13.0 mph20.9 kmh 30.05 in1017.6 mb 0.00 in0.0 mm 0.00 in0.0 mm 0.00 in0.0 mm
12:41 PM 91.0°F32.8°C 62.6°F17.0°C 39% 6.7 mph N10.8 kmh N 13.0 mph20.9 kmh 30.05 in1017.6 mb 0.00 in0.0 mm 0.00 in0.0 mm 0.00 in0.0 mm
12:40 PM 91.0°F32.8°C 62.6°F17.0°C 39% 6.7 mph NNE10.8 kmh NNE 15.0 mph24.1 kmh 30.05 in1017.6 mb 0.00 in0.0 mm 0.00 in0.0 mm 0.00 in0.0 mm
12:39 PM 91.2°F32.9°C 63.5°F17.5°C 40% 6.3 mph NW10.1 kmh NW 21.9 mph35.2 kmh 30.05 in1017.6 mb 0.00 in0.0 mm 0.00 in0.0 mm 0.00 in0.0 mm
12:38 PM 91.0°F32.8°C 63.3°F17.4°C 40% 6.5 mph NW10.5 kmh NW 11.0 mph17.7 kmh 30.05 in1017.6 mb 0.00 in0.0 mm 0.00 in0.0 mm 0.00 in0.0 mm
12:37 PM 90.9°F32.7°C 63.1°F17.3°C 40% 6.9 mph NNE11.1 kmh NNE 12.1 mph19.5 kmh 30.05 in1017.6 mb 0.00 in0.0 mm 0.00 in0.0 mm 0.00 in0.0 mm
12:36 PM 90.7°F32.6°C 64.4°F18.0°C 42% 7.2 mph NNW11.6 kmh NNW 10.1 mph16.3 kmh 30.05 in1017.6 mb 0.00 in0.0 mm 0.00 in0.0 mm 0.00 in0.0 mm
12:35 PM 90.3°F32.4°C 62.8°F17.1°C 40% 7.8 mph NE12.6 kmh NE 13.0 mph20.9 kmh 30.05 in1017.6 mb 0.00 in0.0 mm 0.00 in0.0 mm 0.00 in0.0 mm
12:34 PM 90.1°F32.3°C 63.3°F17.4°C 41% 8.1 mph NW13.0 kmh NW 13.0 mph20.9 kmh 30.05 in1017.6 mb 0.00 in0.0 mm 0.00 in0.0 mm 0.00 in0.0 mm
12:33 PM 90.1°F32.3°C 63.3°F17.4°C 41% 8.3 mph NE13.4 kmh NE 11.0 mph17.7 kmh 30.05 in1017.6 mb 0.00 in0.0 mm 0.00 in0.0 mm 0.00 in0.0 mm
12:32 PM 90.1°F32.3°C 63.3°F17.4°C 41% 8.5 mph 13.7 kmh 15.0 mph24.1 kmh 30.05 in1017.6 mb 0.00 in0.0 mm 0.00 in0.0 mm 0.00 in0.0 mm
12:31 PM 89.8°F32.1°C 63.7°F17.6°C 42% 9.2 mph N14.8 kmh N 10.1 mph16.3 kmh 30.05 in1017.6 mb 0.00 in0.0 mm 0.00 in0.0 mm 0.00 in0.0 mm
12:30 PM 89.4°F31.9°C 64.0°F17.8°C 43% 9.2 mph N14.8 kmh N 12.1 mph19.5 kmh 30.05 in1017.6 mb 0.00 in0.0 mm 0.00 in0.0 mm 0.00 in0.0 mm
12:29 PM 89.2°F31.8°C 63.9°F17.7°C 43% 9.4 mph NE15.1 kmh NE 11.0 mph17.7 kmh 30.05 in1017.6 mb 0.00 in0.0 mm 0.00 in0.0 mm 0.00 in0.0 mm
12:28 PM 89.2°F31.8°C 63.1°F17.3°C 42% 9.6 mph NNE15.4 kmh NNE 15.0 mph24.1 kmh 30.05 in1017.6 mb 0.00 in0.0 mm 0.00 in0.0 mm 0.00 in0.0 mm
12:27 PM 89.1°F31.7°C 63.0°F17.2°C 42% 9.4 mph NNW15.1 kmh NNW 19.0 mph30.6 kmh 30.05 in1017.6 mb 0.00 in0.0 mm 0.00 in0.0 mm 0.00 in0.0 mm
12:26 PM 89.1°F31.7°C 63.0°F17.2°C 42% 10.1 mph WNW16.3 kmh WNW 16.1 mph25.9 kmh 30.05 in1017.6 mb 0.00 in0.0 mm 0.00 in0.0 mm 0.00 in0.0 mm
12:25 PM 89.2°F31.8°C 63.1°F17.3°C 42% 9.6 mph 15.4 kmh 19.9 mph32.0 kmh 30.06 in1017.9 mb 0.00 in0.0 mm 0.00 in0.0 mm 0.00 in0.0 mm
12:24 PM 89.4°F31.9°C 63.3°F17.4°C 42% 10.1 mph NW16.3 kmh NW 12.1 mph19.5 kmh 30.05 in1017.6 mb 0.00 in0.0 mm 0.00 in0.0 mm 0.00 in0.0 mm
12:23 PM 89.8°F32.1°C 63.7°F17.6°C 42% 9.8 mph N15.8 kmh N 19.9 mph32.0 kmh 30.05 in1017.6 mb 0.00 in0.0 mm 0.00 in0.0 mm 0.00 in0.0 mm
12:21 PM 89.8°F32.1°C 64.2°F17.9°C 43% 8.7 mph NW14.0 kmh NW 15.0 mph24.1 kmh 30.05 in1017.6 mb 0.00 in0.0 mm 0.00 in0.0 mm 0.00 in0.0 mm
12:20 PM 89.4°F31.9°C 64.0°F17.8°C 43% 8.9 mph N14.3 kmh N 14.1 mph22.7 kmh 30.05 in1017.6 mb 0.00 in0.0 mm 0.00 in0.0 mm 0.00 in0.0 mm
12:19 PM 89.2°F31.8°C 63.9°F17.7°C 43% 8.5 mph N13.7 kmh N 14.1 mph22.7 kmh 30.05 in1017.6 mb 0.00 in0.0 mm 0.00 in0.0 mm 0.00 in0.0 mm
12:18 PM 89.2°F31.8°C 63.9°F17.7°C 43% 8.5 mph N13.7 kmh N 16.1 mph25.9 kmh 30.05 in1017.6 mb 0.00 in0.0 mm 0.00 in0.0 mm 0.00 in0.0 mm
12:17 PM 89.1°F31.7°C 63.7°F17.6°C 43% 8.5 mph NNE13.7 kmh NNE 16.1 mph25.9 kmh 30.05 in1017.6 mb 0.00 in0.0 mm 0.00 in0.0 mm 0.00 in0.0 mm
12:16 PM 89.1°F31.7°C 63.7°F17.6°C 43% 7.6 mph NW12.2 kmh NW 19.0 mph30.6 kmh 30.05 in1017.6 mb 0.00 in0.0 mm 0.00 in0.0 mm 0.00 in0.0 mm
12:15 PM 89.1°F31.7°C 64.2°F17.9°C 44% 7.4 mph 11.9 kmh 17.0 mph27.4 kmh 30.05 in1017.6 mb 0.00 in0.0 mm 0.00 in0.0 mm 0.00 in0.0 mm
12:14 PM 88.9°F31.6°C 63.5°F17.5°C 43% 6.9 mph N11.1 kmh N 17.0 mph27.4 kmh 30.05 in1017.6 mb 0.00 in0.0 mm 0.00 in0.0 mm 0.00 in0.0 mm
12:13 PM 89.1°F31.7°C 63.7°F17.6°C 43% 7.4 mph NE11.9 kmh NE 17.0 mph27.4 kmh 30.05 in1017.6 mb 0.00 in0.0 mm 0.00 in0.0 mm 0.00 in0.0 mm
12:12 PM 89.1°F31.7°C 63.7°F17.6°C 43% 7.6 mph N12.2 kmh N 10.1 mph16.3 kmh 30.05 in1017.6 mb 0.00 in0.0 mm 0.00 in0.0 mm 0.00 in0.0 mm
12:11 PM 89.2°F31.8°C 64.4°F18.0°C 44% 8.1 mph NNE13.0 kmh NNE 10.1 mph16.3 kmh 30.05 in1017.6 mb 0.00 in0.0 mm 0.00 in0.0 mm 0.00 in0.0 mm
12:10 PM 89.1°F31.7°C 64.2°F17.9°C 44% 8.3 mph N13.4 kmh N 13.0 mph20.9 kmh 30.05 in1017.6 mb 0.00 in0.0 mm 0.00 in0.0 mm 0.00 in0.0 mm
12:09 PM 88.9°F31.6°C 64.2°F17.9°C 44% 8.9 mph NNE14.3 kmh NNE 11.0 mph17.7 kmh 30.05 in1017.6 mb 0.00 in0.0 mm 0.00 in0.0 mm 0.00 in0.0 mm
12:08 PM 88.5°F31.4°C 63.9°F17.7°C 44% 8.9 mph NW14.3 kmh NW 15.0 mph24.1 kmh 30.05 in1017.6 mb 0.00 in0.0 mm 0.00 in0.0 mm 0.00 in0.0 mm
12:07 PM 88.5°F31.4°C 65.1°F18.4°C 46% 8.7 mph NNE14.0 kmh NNE 15.0 mph24.1 kmh 30.05 in1017.6 mb 0.00 in0.0 mm 0.00 in0.0 mm 0.00 in0.0 mm
12:06 PM 88.3°F31.3°C 64.2°F17.9°C 45% 9.4 mph NE15.1 kmh NE 13.0 mph20.9 kmh 30.05 in1017.6 mb 0.00 in0.0 mm 0.00 in0.0 mm 0.00 in0.0 mm
12:05 PM 88.3°F31.3°C 64.2°F17.9°C 45% 9.8 mph NNE15.8 kmh NNE 15.0 mph24.1 kmh 30.05 in1017.6 mb 0.00 in0.0 mm 0.00 in0.0 mm 0.00 in0.0 mm
12:04 PM 88.3°F31.3°C 64.2°F17.9°C 45% 10.1 mph NE16.3 kmh NE 17.9 mph28.8 kmh 30.05 in1017.6 mb 0.00 in0.0 mm 0.00 in0.0 mm 0.00 in0.0 mm
12:03 PM 88.3°F31.3°C 64.2°F17.9°C 45% 10.1 mph N16.3 kmh N 15.0 mph24.1 kmh 30.05 in1017.6 mb 0.00 in0.0 mm 0.00 in0.0 mm 0.00 in0.0 mm
12:02 PM 88.3°F31.3°C 64.2°F17.9°C 45% 10.3 mph NE16.6 kmh NE 19.0 mph30.6 kmh 30.05 in1017.6 mb 0.00 in0.0 mm 0.00 in0.0 mm 0.00 in0.0 mm
12:01 PM 88.3°F31.3°C 64.2°F17.9°C 45% 10.3 mph NNW16.6 kmh NNW 15.0 mph24.1 kmh 30.05 in1017.6 mb 0.00 in0.0 mm 0.00 in0.0 mm 0.00 in0.0 mm
12:00 PM 88.3°F31.3°C 64.2°F17.9°C 45% 10.3 mph NW16.6 kmh NW 17.9 mph28.8 kmh 30.05 in1017.6 mb 0.00 in0.0 mm 0.00 in0.0 mm 0.00 in0.0 mm
11:59 AM 88.3°F31.3°C 64.9°F18.3°C 46% 10.3 mph NW16.6 kmh NW 17.9 mph28.8 kmh 30.05 in1017.6 mb 0.00 in0.0 mm 0.00 in0.0 mm 0.00 in0.0 mm
11:58 AM 88.2°F31.2°C 64.8°F18.2°C 46% 10.1 mph NNW16.3 kmh NNW 16.1 mph25.9 kmh 30.05 in1017.6 mb 0.00 in0.0 mm 0.00 in0.0 mm 0.00 in0.0 mm
11:57 AM 88.0°F31.1°C 64.6°F18.1°C 46% 10.1 mph NNE16.3 kmh NNE 13.0 mph20.9 kmh 30.05 in1017.6 mb 0.00 in0.0 mm 0.00 in0.0 mm 0.00 in0.0 mm
11:56 AM 88.0°F31.1°C 64.6°F18.1°C 46% 10.1 mph N16.3 kmh N 16.1 mph25.9 kmh 30.05 in1017.6 mb 0.00 in0.0 mm 0.00 in0.0 mm 0.00 in0.0 mm
11:55 AM 88.0°F31.1°C 65.3°F18.5°C 47% 9.8 mph NNE15.8 kmh NNE 16.1 mph25.9 kmh 30.05 in1017.6 mb 0.00 in0.0 mm 0.00 in0.0 mm 0.00 in0.0 mm
11:54 AM 87.8°F31.0°C 64.4°F18.0°C 46% 9.6 mph N15.4 kmh N 15.0 mph24.1 kmh 30.05 in1017.6 mb 0.00 in0.0 mm 0.00 in0.0 mm 0.00 in0.0 mm
11:53 AM 87.8°F31.0°C 64.4°F18.0°C 46% 9.6 mph W15.4 kmh W 19.9 mph32.0 kmh 30.05 in1017.6 mb 0.00 in0.0 mm 0.00 in0.0 mm 0.00 in0.0 mm
11:52 AM 87.8°F31.0°C 64.4°F18.0°C 46% 9.4 mph N15.1 kmh N 13.0 mph20.9 kmh 30.05 in1017.6 mb 0.00 in0.0 mm 0.00 in0.0 mm 0.00 in0.0 mm
11:51 AM 87.8°F31.0°C 64.4°F18.0°C 46% 9.2 mph 14.8 kmh 17.9 mph28.8 kmh 30.05 in1017.6 mb 0.00 in0.0 mm 0.00 in0.0 mm 0.00 in0.0 mm
11:50 AM 87.8°F31.0°C 65.1°F18.4°C 47% 9.2 mph N14.8 kmh N 17.9 mph28.8 kmh 30.05 in1017.6 mb 0.00 in0.0 mm 0.00 in0.0 mm 0.00 in0.0 mm
11:49 AM 87.6°F30.9°C 64.9°F18.3°C 47% 9.2 mph NNW14.8 kmh NNW 13.0 mph20.9 kmh 30.05 in1017.6 mb 0.00 in0.0 mm 0.00 in0.0 mm 0.00 in0.0 mm
11:48 AM 87.4°F30.8°C 64.8°F18.2°C 47% 9.6 mph NNW15.4 kmh NNW 12.1 mph19.5 kmh 30.05 in1017.6 mb 0.00 in0.0 mm 0.00 in0.0 mm 0.00 in0.0 mm
11:47 AM 87.4°F30.8°C 64.8°F18.2°C 47% 10.1 mph NE16.3 kmh NE 13.0 mph20.9 kmh 30.05 in1017.6 mb 0.00 in0.0 mm 0.00 in0.0 mm 0.00 in0.0 mm
11:46 AM 87.4°F30.8°C 64.8°F18.2°C 47% 9.8 mph N15.8 kmh N 23.0 mph37.0 kmh 30.05 in1017.6 mb 0.00 in0.0 mm 0.00 in0.0 mm 0.00 in0.0 mm
11:45 AM 87.4°F30.8°C 64.8°F18.2°C 47% 9.6 mph ENE15.4 kmh ENE 14.1 mph22.7 kmh 30.05 in1017.6 mb 0.00 in0.0 mm 0.00 in0.0 mm 0.00 in0.0 mm
11:44 AM 87.4°F30.8°C 65.3°F18.5°C 48% 9.4 mph NE15.1 kmh NE 14.1 mph22.7 kmh 30.05 in1017.6 mb 0.00 in0.0 mm 0.00 in0.0 mm 0.00 in0.0 mm
11:43 AM 87.3°F30.7°C 65.1°F18.4°C 48% 9.2 mph NNE14.8 kmh NNE 16.1 mph25.9 kmh 30.05 in1017.6 mb 0.00 in0.0 mm 0.00 in0.0 mm 0.00 in0.0 mm
11:42 AM 87.3°F30.7°C 65.1°F18.4°C 48% 9.4 mph NNW15.1 kmh NNW 16.1 mph25.9 kmh 30.05 in1017.6 mb 0.00 in0.0 mm 0.00 in0.0 mm 0.00 in0.0 mm
11:41 AM 87.1°F30.6°C 64.9°F18.3°C 48% 9.4 mph N15.1 kmh N 12.1 mph19.5 kmh 30.05 in1017.6 mb 0.00 in0.0 mm 0.00 in0.0 mm 0.00 in0.0 mm
11:40 AM 87.1°F30.6°C 64.4°F18.0°C 47% 9.4 mph N15.1 kmh N 21.0 mph33.8 kmh 30.05 in1017.6 mb 0.00 in0.0 mm 0.00 in0.0 mm 0.00 in0.0 mm
11:39 AM 87.3°F30.7°C 64.6°F18.1°C 47% 9.4 mph NW15.1 kmh NW 21.0 mph33.8 kmh 30.05 in1017.6 mb 0.00 in0.0 mm 0.00 in0.0 mm 0.00 in0.0 mm
11:38 AM 87.4°F30.8°C 65.3°F18.5°C 48% 9.2 mph NE14.8 kmh NE 19.9 mph32.0 kmh 30.05 in1017.6 mb 0.00 in0.0 mm 0.00 in0.0 mm 0.00 in0.0 mm
11:37 AM 87.3°F30.7°C 65.1°F18.4°C 48% 8.9 mph NE14.3 kmh NE 15.0 mph24.1 kmh 30.05 in1017.6 mb 0.00 in0.0 mm 0.00 in0.0 mm 0.00 in0.0 mm
11:36 AM 87.1°F30.6°C 64.9°F18.3°C 48% 8.9 mph NNE14.3 kmh NNE 14.1 mph22.7 kmh 30.05 in1017.6 mb 0.00 in0.0 mm 0.00 in0.0 mm 0.00 in0.0 mm
11:35 AM 87.1°F30.6°C 64.9°F18.3°C 48% 8.9 mph NNW14.3 kmh NNW 14.1 mph22.7 kmh 30.06 in1017.9 mb 0.00 in0.0 mm 0.00 in0.0 mm 0.00 in0.0 mm
11:34 AM 87.1°F30.6°C 64.9°F18.3°C 48% 8.7 mph N14.0 kmh N 13.0 mph20.9 kmh 30.06 in1017.9 mb 0.00 in0.0 mm 0.00 in0.0 mm 0.00 in0.0 mm
11:33 AM 86.9°F30.5°C 65.5°F18.6°C 49% 8.9 mph NW14.3 kmh NW 17.0 mph27.4 kmh 30.05 in1017.6 mb 0.00 in0.0 mm 0.00 in0.0 mm 0.00 in0.0 mm
11:32 AM 87.1°F30.6°C 64.9°F18.3°C 48% 8.7 mph N14.0 kmh N 17.0 mph27.4 kmh 30.05 in1017.6 mb 0.00 in0.0 mm 0.00 in0.0 mm 0.00 in0.0 mm
11:31 AM 87.3°F30.7°C 65.1°F18.4°C 48% 8.5 mph 13.7 kmh 16.1 mph25.9 kmh 30.05 in1017.6 mb 0.00 in0.0 mm 0.00 in0.0 mm 0.00 in0.0 mm
11:30 AM 87.3°F30.7°C 64.6°F18.1°C 47% 8.1 mph NW13.0 kmh NW 21.0 mph33.8 kmh 30.05 in1017.6 mb 0.00 in0.0 mm 0.00 in0.0 mm 0.00 in0.0 mm
11:29 AM 87.4°F30.8°C 65.3°F18.5°C 48% 7.8 mph 12.6 kmh 13.0 mph20.9 kmh 30.06 in1017.9 mb 0.00 in0.0 mm 0.00 in0.0 mm 0.00 in0.0 mm
11:28 AM 87.4°F30.8°C 65.8°F18.8°C 49% 7.6 mph N12.2 kmh N 15.0 mph24.1 kmh 30.05 in1017.6 mb 0.00 in0.0 mm 0.00 in0.0 mm 0.00 in0.0 mm
11:27 AM 87.4°F30.8°C 65.8°F18.8°C 49% 7.6 mph N12.2 kmh N 14.1 mph22.7 kmh 30.06 in1017.9 mb 0.00 in0.0 mm 0.00 in0.0 mm 0.00 in0.0 mm
11:26 AM 87.4°F30.8°C 65.8°F18.8°C 49% 7.8 mph NE12.6 kmh NE 14.1 mph22.7 kmh 30.05 in1017.6 mb 0.00 in0.0 mm 0.00 in0.0 mm 0.00 in0.0 mm
11:25 AM 87.3°F30.7°C 65.1°F18.4°C 48% 8.3 mph NW13.4 kmh NW 12.1 mph19.5 kmh 30.05 in1017.6 mb 0.00 in0.0 mm 0.00 in0.0 mm 0.00 in0.0 mm
11:24 AM 87.3°F30.7°C 65.1°F18.4°C 48% 8.5 mph 13.7 kmh 14.1 mph22.7 kmh 30.05 in1017.6 mb 0.00 in0.0 mm 0.00 in0.0 mm 0.00 in0.0 mm
11:23 AM 87.3°F30.7°C 65.8°F18.8°C 49% 8.5 mph NE13.7 kmh NE 14.1 mph22.7 kmh 30.05 in1017.6 mb 0.00 in0.0 mm 0.00 in0.0 mm 0.00 in0.0 mm
11:22 AM 87.3°F30.7°C 65.8°F18.8°C 49% 8.5 mph NW13.7 kmh NW 17.9 mph28.8 kmh 30.06 in1017.9 mb 0.00 in0.0 mm 0.00 in0.0 mm 0.00 in0.0 mm
11:21 AM 87.3°F30.7°C 65.8°F18.8°C 49% 8.5 mph N13.7 kmh N 12.1 mph19.5 kmh 30.05 in1017.6 mb 0.00 in0.0 mm 0.00 in0.0 mm 0.00 in0.0 mm
11:20 AM 87.1°F30.6°C 65.7°F18.7°C 49% 8.9 mph NNE14.3 kmh NNE 15.0 mph24.1 kmh 30.05 in1017.6 mb 0.00 in0.0 mm 0.00 in0.0 mm 0.00 in0.0 mm
11:19 AM 87.1°F30.6°C 66.2°F19.0°C 50% 9.2 mph N14.8 kmh N 15.0 mph24.1 kmh 30.06 in1017.9 mb 0.00 in0.0 mm 0.00 in0.0 mm 0.00 in0.0 mm
11:18 AM 86.7°F30.4°C 65.8°F18.8°C 50% 9.4 mph N15.1 kmh N 13.0 mph20.9 kmh 30.06 in1017.9 mb 0.00 in0.0 mm 0.00 in0.0 mm 0.00 in0.0 mm
11:17 AM 86.7°F30.4°C 65.3°F18.5°C 49% 8.9 mph 14.3 kmh 14.1 mph22.7 kmh 30.06 in1017.9 mb 0.00 in0.0 mm 0.00 in0.0 mm 0.00 in0.0 mm
11:16 AM 86.9°F30.5°C 65.5°F18.6°C 49% 8.5 mph N13.7 kmh N 17.9 mph28.8 kmh 30.05 in1017.6 mb 0.00 in0.0 mm 0.00 in0.0 mm 0.00 in0.0 mm
11:15 AM 87.1°F30.6°C 65.7°F18.7°C 49% 8.1 mph N13.0 kmh N 15.0 mph24.1 kmh 30.06 in1017.9 mb 0.00 in0.0 mm 0.00 in0.0 mm 0.00 in0.0 mm
11:14 AM 86.7°F30.4°C 65.3°F18.5°C 49% 7.8 mph NNE12.6 kmh NNE 14.1 mph22.7 kmh 30.06 in1017.9 mb 0.00 in0.0 mm 0.00 in0.0 mm 0.00 in0.0 mm
11:13 AM 86.7°F30.4°C 65.8°F18.8°C 50% 7.6 mph N12.2 kmh N 15.0 mph24.1 kmh 30.06 in1017.9 mb 0.00 in0.0 mm 0.00 in0.0 mm 0.00 in0.0 mm
11:12 AM 86.7°F30.4°C 65.3°F18.5°C 49% 7.6 mph N12.2 kmh N 14.1 mph22.7 kmh 30.05 in1017.6 mb 0.00 in0.0 mm 0.00 in0.0 mm 0.00 in0.0 mm
11:11 AM 86.9°F30.5°C 65.5°F18.6°C 49% 7.4 mph NW11.9 kmh NW 13.0 mph20.9 kmh 30.06 in1017.9 mb 0.00 in0.0 mm 0.00 in0.0 mm 0.00 in0.0 mm
11:10 AM 87.3°F30.7°C 65.8°F18.8°C 49% 7.4 mph NW11.9 kmh NW 14.1 mph22.7 kmh 30.06 in1017.9 mb 0.00 in0.0 mm 0.00 in0.0 mm 0.00 in0.0 mm
11:09 AM 87.3°F30.7°C 66.4°F19.1°C 50% 7.2 mph N11.6 kmh N 14.1 mph22.7 kmh 30.06 in1017.9 mb 0.00 in0.0 mm 0.00 in0.0 mm 0.00 in0.0 mm
11:08 AM 87.3°F30.7°C 66.4°F19.1°C 50% 7.6 mph N12.2 kmh N 11.0 mph17.7 kmh 30.06 in1017.9 mb 0.00 in0.0 mm 0.00 in0.0 mm 0.00 in0.0 mm
11:07 AM 86.9°F30.5°C 66.0°F18.9°C 50% 7.6 mph NNE12.2 kmh NNE 10.1 mph16.3 kmh 30.06 in1017.9 mb 0.00 in0.0 mm 0.00 in0.0 mm 0.00 in0.0 mm
11:06 AM 86.7°F30.4°C 65.8°F18.8°C 50% 7.6 mph NE12.2 kmh NE 13.0 mph20.9 kmh 30.06 in1017.9 mb 0.00 in0.0 mm 0.00 in0.0 mm 0.00 in0.0 mm
11:05 AM 86.7°F30.4°C 65.8°F18.8°C 50% 7.6 mph 12.2 kmh 13.0 mph20.9 kmh 30.06 in1017.9 mb 0.00 in0.0 mm 0.00 in0.0 mm 0.00 in0.0 mm
11:04 AM 86.5°F30.3°C 65.7°F18.7°C 50% 7.6 mph N12.2 kmh N 11.0 mph17.7 kmh 30.06 in1017.9 mb 0.00 in0.0 mm 0.00 in0.0 mm 0.00 in0.0 mm
11:03 AM 86.4°F30.2°C 66.0°F18.9°C 51% 7.6 mph NNW12.2 kmh NNW 16.1 mph25.9 kmh 30.06 in1017.9 mb 0.00 in0.0 mm 0.00 in0.0 mm 0.00 in0.0 mm
11:02 AM 86.2°F30.1°C 65.8°F18.8°C 51% 7.8 mph N12.6 kmh N 16.1 mph25.9 kmh 30.06 in1017.9 mb 0.00 in0.0 mm 0.00 in0.0 mm 0.00 in0.0 mm
11:01 AM 86.2°F30.1°C 65.8°F18.8°C 51% 7.8 mph NW12.6 kmh NW 12.1 mph19.5 kmh 30.06 in1017.9 mb 0.00 in0.0 mm 0.00 in0.0 mm 0.00 in0.0 mm
11:00 AM 86.2°F30.1°C 65.8°F18.8°C 51% 7.6 mph NE12.2 kmh NE 15.0 mph24.1 kmh 30.06 in1017.9 mb 0.00 in0.0 mm 0.00 in0.0 mm 0.00 in0.0 mm
10:59 AM 86.0°F30.0°C 65.8°F18.8°C 51% 7.6 mph NNE12.2 kmh NNE 12.1 mph19.5 kmh 30.06 in1017.9 mb 0.00 in0.0 mm 0.00 in0.0 mm 0.00 in0.0 mm
10:58 AM 85.8°F29.9°C 65.7°F18.7°C 51% 7.6 mph NNW12.2 kmh NNW 14.1 mph22.7 kmh 30.06 in1017.9 mb 0.00 in0.0 mm 0.00 in0.0 mm 0.00 in0.0 mm
10:57 AM 85.6°F29.8°C 66.0°F18.9°C 52% 8.1 mph NE13.0 kmh NE 11.0 mph17.7 kmh 30.06 in1017.9 mb 0.00 in0.0 mm 0.00 in0.0 mm 0.00 in0.0 mm
10:56 AM 85.3°F29.6°C 66.2°F19.0°C 53% 8.3 mph N13.4 kmh N 14.1 mph22.7 kmh 30.06 in1017.9 mb 0.00 in0.0 mm 0.00 in0.0 mm 0.00 in0.0 mm
10:55 AM 85.1°F29.5°C 65.5°F18.6°C 52% 8.5 mph N13.7 kmh N 16.1 mph25.9 kmh 30.06 in1017.9 mb 0.00 in0.0 mm 0.00 in0.0 mm 0.00 in0.0 mm
10:54 AM 84.9°F29.4°C 65.8°F18.8°C 53% 8.5 mph NW13.7 kmh NW 16.1 mph25.9 kmh 30.06 in1017.9 mb 0.00 in0.0 mm 0.00 in0.0 mm 0.00 in0.0 mm
10:53 AM 84.7°F29.3°C 65.7°F18.7°C 53% 8.5 mph NNW13.7 kmh NNW 16.1 mph25.9 kmh 30.06 in1017.9 mb 0.00 in0.0 mm 0.00 in0.0 mm 0.00 in0.0 mm
10:52 AM 84.9°F29.4°C 65.3°F18.5°C 52% 8.5 mph NNW13.7 kmh NNW 15.0 mph24.1 kmh 30.06 in1017.9 mb 0.00 in0.0 mm 0.00 in0.0 mm 0.00 in0.0 mm
10:51 AM 84.7°F29.3°C 65.7°F18.7°C 53% 8.5 mph NNE13.7 kmh NNE 12.1 mph19.5 kmh 30.06 in1017.9 mb 0.00 in0.0 mm 0.00 in0.0 mm 0.00 in0.0 mm
10:50 AM 84.7°F29.3°C 65.1°F18.4°C 52% 8.7 mph N14.0 kmh N 13.0 mph20.9 kmh 30.06 in1017.9 mb 0.00 in0.0 mm 0.00 in0.0 mm 0.00 in0.0 mm
10:49 AM 84.9°F29.4°C 65.3°F18.5°C 52% 8.5 mph N13.7 kmh N 13.0 mph20.9 kmh 30.06 in1017.9 mb 0.00 in0.0 mm 0.00 in0.0 mm 0.00 in0.0 mm
10:48 AM 84.9°F29.4°C 65.3°F18.5°C 52% 8.3 mph NNE13.4 kmh NNE 14.1 mph22.7 kmh 30.06 in1017.9 mb 0.00 in0.0 mm 0.00 in0.0 mm 0.00 in0.0 mm
10:47 AM 85.3°F29.6°C 65.7°F18.7°C 52% 7.8 mph NNE12.6 kmh NNE 16.1 mph25.9 kmh 30.06 in1017.9 mb 0.00 in0.0 mm 0.00 in0.0 mm 0.00 in0.0 mm
10:46 AM 85.5°F29.7°C 65.3°F18.5°C 51% 7.6 mph 12.2 kmh 14.1 mph22.7 kmh 30.06 in1017.9 mb 0.00 in0.0 mm 0.00 in0.0 mm 0.00 in0.0 mm
10:45 AM 85.5°F29.7°C 65.8°F18.8°C 52% 7.2 mph N11.6 kmh N 12.1 mph19.5 kmh 30.06 in1017.9 mb 0.00 in0.0 mm 0.00 in0.0 mm 0.00 in0.0 mm
10:44 AM 85.3°F29.6°C 65.7°F18.7°C 52% 6.9 mph N11.1 kmh N 17.9 mph28.8 kmh 30.06 in1017.9 mb 0.00 in0.0 mm 0.00 in0.0 mm 0.00 in0.0 mm
10:43 AM 85.3°F29.6°C 66.2°F19.0°C 53% 6.7 mph 10.8 kmh 11.0 mph17.7 kmh 30.06 in1017.9 mb 0.00 in0.0 mm 0.00 in0.0 mm 0.00 in0.0 mm
10:42 AM 85.1°F29.5°C 65.5°F18.6°C 52% 6.7 mph 10.8 kmh 13.0 mph20.9 kmh 30.06 in1017.9 mb 0.00 in0.0 mm 0.00 in0.0 mm 0.00 in0.0 mm
10:41 AM 85.1°F29.5°C 65.5°F18.6°C 52% 6.9 mph N11.1 kmh N 13.0 mph20.9 kmh 30.06 in1017.9 mb 0.00 in0.0 mm 0.00 in0.0 mm 0.00 in0.0 mm
10:40 AM 84.9°F29.4°C 65.8°F18.8°C 53% 6.7 mph NNE10.8 kmh NNE 13.0 mph20.9 kmh 30.06 in1017.9 mb 0.00 in0.0 mm 0.00 in0.0 mm 0.00 in0.0 mm
10:39 AM 84.7°F29.3°C 65.7°F18.7°C 53% 6.9 mph NW11.1 kmh NW 14.1 mph22.7 kmh 30.06 in1017.9 mb 0.00 in0.0 mm 0.00 in0.0 mm 0.00 in0.0 mm
10:38 AM 84.6°F29.2°C 65.5°F18.6°C 53% 6.7 mph 10.8 kmh 8.9 mph14.3 kmh 30.06 in1017.9 mb 0.00 in0.0 mm 0.00 in0.0 mm 0.00 in0.0 mm
10:37 AM 84.6°F29.2°C 65.5°F18.6°C 53% 6.9 mph NW11.1 kmh NW 11.0 mph17.7 kmh 30.06 in1017.9 mb 0.00 in0.0 mm 0.00 in0.0 mm 0.00 in0.0 mm
10:36 AM 84.6°F29.2°C 65.5°F18.6°C 53% 7.2 mph NNE11.6 kmh NNE 8.9 mph14.3 kmh 30.06 in1017.9 mb 0.00 in0.0 mm 0.00 in0.0 mm 0.00 in0.0 mm
10:35 AM 84.7°F29.3°C 65.7°F18.7°C 53% 7.2 mph N11.6 kmh N 12.1 mph19.5 kmh 30.06 in1017.9 mb 0.00 in0.0 mm 0.00 in0.0 mm 0.00 in0.0 mm
10:34 AM 84.7°F29.3°C 65.7°F18.7°C 53% 7.4 mph N11.9 kmh N 12.1 mph19.5 kmh 30.06 in1017.9 mb 0.00 in0.0 mm 0.00 in0.0 mm 0.00 in0.0 mm
10:33 AM 84.6°F29.2°C 65.5°F18.6°C 53% 7.6 mph N12.2 kmh N 11.0 mph17.7 kmh 30.06 in1017.9 mb 0.00 in0.0 mm 0.00 in0.0 mm 0.00 in0.0 mm
10:32 AM 84.6°F29.2°C 66.0°F18.9°C 54% 7.6 mph NW12.2 kmh NW 13.0 mph20.9 kmh 30.06 in1017.9 mb 0.00 in0.0 mm 0.00 in0.0 mm 0.00 in0.0 mm
10:31 AM 84.4°F29.1°C 65.8°F18.8°C 54% 7.6 mph NNW12.2 kmh NNW 16.1 mph25.9 kmh 30.06 in1017.9 mb 0.00 in0.0 mm 0.00 in0.0 mm 0.00 in0.0 mm
10:30 AM 84.2°F29.0°C 65.7°F18.7°C 54% 7.8 mph N12.6 kmh N 11.0 mph17.7 kmh 30.06 in1017.9 mb 0.00 in0.0 mm 0.00 in0.0 mm 0.00 in0.0 mm
10:29 AM 84.0°F28.9°C 65.7°F18.7°C 54% 7.6 mph NNE12.2 kmh NNE 13.0 mph20.9 kmh 30.06 in1017.9 mb 0.00 in0.0 mm 0.00 in0.0 mm 0.00 in0.0 mm
10:28 AM 84.0°F28.9°C 65.1°F18.4°C 53% 7.6 mph NNW12.2 kmh NNW 13.0 mph20.9 kmh 30.06 in1017.9 mb 0.00 in0.0 mm 0.00 in0.0 mm 0.00 in0.0 mm
10:27 AM 84.0°F28.9°C 65.7°F18.7°C 54% 7.6 mph NNE12.2 kmh NNE 10.1 mph16.3 kmh 30.06 in1017.9 mb 0.00 in0.0 mm 0.00 in0.0 mm 0.00 in0.0 mm
10:26 AM 83.8°F28.8°C 65.5°F18.6°C 54% 7.6 mph NNE12.2 kmh NNE 12.1 mph19.5 kmh 30.06 in1017.9 mb 0.00 in0.0 mm 0.00 in0.0 mm 0.00 in0.0 mm
10:25 AM 83.8°F28.8°C 65.5°F18.6°C 54% 8.1 mph NNE13.0 kmh NNE 17.9 mph28.8 kmh 30.06 in1017.9 mb 0.00 in0.0 mm 0.00 in0.0 mm 0.00 in0.0 mm
10:24 AM 83.7°F28.7°C 65.3°F18.5°C 54% 8.5 mph NW13.7 kmh NW 11.0 mph17.7 kmh 30.06 in1017.9 mb 0.00 in0.0 mm 0.00 in0.0 mm 0.00 in0.0 mm
10:23 AM 83.7°F28.7°C 65.3°F18.5°C 54% 8.7 mph NNW14.0 kmh NNW 13.0 mph20.9 kmh 30.06 in1017.9 mb 0.00 in0.0 mm 0.00 in0.0 mm 0.00 in0.0 mm
10:22 AM 83.5°F28.6°C 65.1°F18.4°C 54% 8.9 mph N14.3 kmh N 13.0 mph20.9 kmh 30.06 in1017.9 mb 0.00 in0.0 mm 0.00 in0.0 mm 0.00 in0.0 mm
10:21 AM 83.5°F28.6°C 65.1°F18.4°C 54% 9.2 mph WNW14.8 kmh WNW 17.0 mph27.4 kmh 30.06 in1017.9 mb 0.00 in0.0 mm 0.00 in0.0 mm 0.00 in0.0 mm
10:20 AM 83.3°F28.5°C 65.5°F18.6°C 55% 9.4 mph W15.1 kmh W 14.1 mph22.7 kmh 30.06 in1017.9 mb 0.00 in0.0 mm 0.00 in0.0 mm 0.00 in0.0 mm
10:19 AM 83.1°F28.4°C 65.3°F18.5°C 55% 9.4 mph NW15.1 kmh NW 11.0 mph17.7 kmh 30.06 in1017.9 mb 0.00 in0.0 mm 0.00 in0.0 mm 0.00 in0.0 mm
10:18 AM 82.8°F28.2°C 65.5°F18.6°C 56% 10.1 mph NE16.3 kmh NE 10.1 mph16.3 kmh 30.06 in1017.9 mb 0.00 in0.0 mm 0.00 in0.0 mm 0.00 in0.0 mm
10:17 AM 82.4°F28.0°C 65.1°F18.4°C 56% 10.3 mph N16.6 kmh N 14.1 mph22.7 kmh 30.06 in1017.9 mb 0.00 in0.0 mm 0.00 in0.0 mm 0.00 in0.0 mm
10:16 AM 82.4°F28.0°C 64.6°F18.1°C 55% 10.5 mph N16.9 kmh N 14.1 mph22.7 kmh 30.06 in1017.9 mb 0.00 in0.0 mm 0.00 in0.0 mm 0.00 in0.0 mm
10:15 AM 82.6°F28.1°C 64.8°F18.2°C 55% 10.5 mph N16.9 kmh N 17.9 mph28.8 kmh 30.06 in1017.9 mb 0.00 in0.0 mm 0.00 in0.0 mm 0.00 in0.0 mm
10:14 AM 82.6°F28.1°C 64.8°F18.2°C 55% 10.3 mph NW16.6 kmh NW 17.9 mph28.8 kmh 30.06 in1017.9 mb 0.00 in0.0 mm 0.00 in0.0 mm 0.00 in0.0 mm
10:13 AM 82.8°F28.2°C 64.9°F18.3°C 55% 10.1 mph NW16.3 kmh NW 16.1 mph25.9 kmh 30.06 in1017.9 mb 0.00 in0.0 mm 0.00 in0.0 mm 0.00 in0.0 mm
10:12 AM 82.8°F28.2°C 64.9°F18.3°C 55% 10.3 mph N16.6 kmh N 16.1 mph25.9 kmh 30.06 in1017.9 mb 0.00 in0.0 mm 0.00 in0.0 mm 0.00 in0.0 mm
10:11 AM 82.8°F28.2°C 64.9°F18.3°C 55% 10.1 mph NNW16.3 kmh NNW 16.1 mph25.9 kmh 30.06 in1017.9 mb 0.00 in0.0 mm 0.00 in0.0 mm 0.00 in0.0 mm
10:10 AM 82.8°F28.2°C 65.5°F18.6°C 56% 9.4 mph NW15.1 kmh NW 17.0 mph27.4 kmh 30.06 in1017.9 mb 0.00 in0.0 mm 0.00 in0.0 mm 0.00 in0.0 mm
10:09 AM 82.6°F28.1°C 64.8°F18.2°C 55% 9.4 mph N15.1 kmh N 19.9 mph32.0 kmh 30.06 in1017.9 mb 0.00 in0.0 mm 0.00 in0.0 mm 0.00 in0.0 mm
10:08 AM 82.6°F28.1°C 65.3°F18.5°C 56% 9.4 mph NNE15.1 kmh NNE 13.0 mph20.9 kmh 30.06 in1017.9 mb 0.00 in0.0 mm 0.00 in0.0 mm 0.00 in0.0 mm
10:07 AM 82.6°F28.1°C 64.8°F18.2°C 55% 9.4 mph NNE15.1 kmh NNE 19.0 mph30.6 kmh 30.06 in1017.9 mb 0.00 in0.0 mm 0.00 in0.0 mm 0.00 in0.0 mm
10:06 AM 82.6°F28.1°C 64.8°F18.2°C 55% 9.4 mph NE15.1 kmh NE 16.1 mph25.9 kmh 30.06 in1017.9 mb 0.00 in0.0 mm 0.00 in0.0 mm 0.00 in0.0 mm
10:05 AM 82.6°F28.1°C 64.8°F18.2°C 55% 8.9 mph NE14.3 kmh NE 15.0 mph24.1 kmh 30.06 in1017.9 mb 0.00 in0.0 mm 0.00 in0.0 mm 0.00 in0.0 mm
10:04 AM 82.6°F28.1°C 64.8°F18.2°C 55% 8.9 mph NW14.3 kmh NW 17.9 mph28.8 kmh 30.06 in1017.9 mb 0.00 in0.0 mm 0.00 in0.0 mm 0.00 in0.0 mm
10:03 AM 82.4°F28.0°C 65.1°F18.4°C 56% 8.5 mph NNW13.7 kmh NNW 16.1 mph25.9 kmh 30.06 in1017.9 mb 0.00 in0.0 mm 0.00 in0.0 mm 0.00 in0.0 mm
10:02 AM 82.2°F27.9°C 64.9°F18.3°C 56% 8.1 mph N13.0 kmh N 19.9 mph32.0 kmh 30.06 in1017.9 mb 0.00 in0.0 mm 0.00 in0.0 mm 0.00 in0.0 mm
10:01 AM 82.2°F27.9°C 64.4°F18.0°C 55% 8.1 mph 13.0 kmh 16.1 mph25.9 kmh 30.06 in1017.9 mb 0.00 in0.0 mm 0.00 in0.0 mm 0.00 in0.0 mm
10:00 AM 82.2°F27.9°C 64.9°F18.3°C 56% 8.5 mph 13.7 kmh 17.0 mph27.4 kmh 30.06 in1017.9 mb 0.00 in0.0 mm 0.00 in0.0 mm 0.00 in0.0 mm
09:59 AM 82.4°F28.0°C 64.6°F18.1°C 55% 8.7 mph NW14.0 kmh NW 17.0 mph27.4 kmh 30.06 in1017.9 mb 0.00 in0.0 mm 0.00 in0.0 mm 0.00 in0.0 mm
09:58 AM 82.6°F28.1°C 64.8°F18.2°C 55% 8.9 mph NNW14.3 kmh NNW 15.0 mph24.1 kmh 30.06 in1017.9 mb 0.00 in0.0 mm 0.00 in0.0 mm 0.00 in0.0 mm
09:57 AM 82.6°F28.1°C 64.8°F18.2°C 55% 8.9 mph NW14.3 kmh NW 14.1 mph22.7 kmh 30.06 in1017.9 mb 0.00 in0.0 mm 0.00 in0.0 mm 0.00 in0.0 mm
09:56 AM 82.6°F28.1°C 64.8°F18.2°C 55% 8.9 mph NNE14.3 kmh NNE 17.0 mph27.4 kmh 30.06 in1017.9 mb 0.00 in0.0 mm 0.00 in0.0 mm 0.00 in0.0 mm
09:55 AM 82.6°F28.1°C 64.8°F18.2°C 55% 9.2 mph N14.8 kmh N 13.0 mph20.9 kmh 30.06 in1017.9 mb 0.00 in0.0 mm 0.00 in0.0 mm 0.00 in0.0 mm
09:54 AM 82.8°F28.2°C 64.9°F18.3°C 55% 8.9 mph N14.3 kmh N 13.0 mph20.9 kmh 30.06 in1017.9 mb 0.00 in0.0 mm 0.00 in0.0 mm 0.00 in0.0 mm
09:53 AM 82.8°F28.2°C 64.9°F18.3°C 55% 9.4 mph N15.1 kmh N 16.1 mph25.9 kmh 30.06 in1017.9 mb 0.00 in0.0 mm 0.00 in0.0 mm 0.00 in0.0 mm
09:52 AM 82.8°F28.2°C 64.9°F18.3°C 55% 8.9 mph NW14.3 kmh NW 16.1 mph25.9 kmh 30.06 in1017.9 mb 0.00 in0.0 mm 0.00 in0.0 mm 0.00 in0.0 mm
09:51 AM 82.8°F28.2°C 65.5°F18.6°C 56% 9.4 mph N15.1 kmh N 12.1 mph19.5 kmh 30.06 in1017.9 mb 0.00 in0.0 mm 0.00 in0.0 mm 0.00 in0.0 mm
09:50 AM 82.8°F28.2°C 64.9°F18.3°C 55% 9.4 mph N15.1 kmh N 14.1 mph22.7 kmh 30.06 in1017.9 mb 0.00 in0.0 mm 0.00 in0.0 mm 0.00 in0.0 mm
09:49 AM 82.9°F28.3°C 64.6°F18.1°C 54% 9.2 mph NW14.8 kmh NW 21.0 mph33.8 kmh 30.06 in1017.9 mb 0.00 in0.0 mm 0.00 in0.0 mm 0.00 in0.0 mm
09:48 AM 83.1°F28.4°C 64.8°F18.2°C 54% 8.7 mph 14.0 kmh 15.0 mph24.1 kmh 30.05 in1017.6 mb 0.00 in0.0 mm 0.00 in0.0 mm 0.00 in0.0 mm
09:47 AM 83.1°F28.4°C 64.8°F18.2°C 54% 8.5 mph N13.7 kmh N 15.0 mph24.1 kmh 30.06 in1017.9 mb 0.00 in0.0 mm 0.00 in0.0 mm 0.00 in0.0 mm
09:46 AM 83.1°F28.4°C 64.8°F18.2°C 54% 8.3 mph N13.4 kmh N 15.0 mph24.1 kmh 30.06 in1017.9 mb 0.00 in0.0 mm 0.00 in0.0 mm 0.00 in0.0 mm
09:45 AM 83.1°F28.4°C 65.8°F18.8°C 56% 8.1 mph W13.0 kmh W 13.0 mph20.9 kmh 30.06 in1017.9 mb 0.00 in0.0 mm 0.00 in0.0 mm 0.00 in0.0 mm
09:44 AM 82.9°F28.3°C 65.7°F18.7°C 56% 8.3 mph E13.4 kmh E 13.0 mph20.9 kmh 30.05 in1017.6 mb 0.00 in0.0 mm 0.00 in0.0 mm 0.00 in0.0 mm
09:43 AM 82.6°F28.1°C 65.3°F18.5°C 56% 8.3 mph N13.4 kmh N 13.0 mph20.9 kmh 30.05 in1017.6 mb 0.00 in0.0 mm 0.00 in0.0 mm 0.00 in0.0 mm
09:42 AM 82.4°F28.0°C 65.1°F18.4°C 56% 8.5 mph NE13.7 kmh NE 14.1 mph22.7 kmh 30.05 in1017.6 mb 0.00 in0.0 mm 0.00 in0.0 mm 0.00 in0.0 mm
09:41 AM 82.4°F28.0°C 65.1°F18.4°C 56% 8.5 mph N13.7 kmh N 15.0 mph24.1 kmh 30.05 in1017.6 mb 0.00 in0.0 mm 0.00 in0.0 mm 0.00 in0.0 mm
09:40 AM 82.2°F27.9°C 64.9°F18.3°C 56% 8.3 mph NE13.4 kmh NE 15.0 mph24.1 kmh 30.06 in1017.9 mb 0.00 in0.0 mm 0.00 in0.0 mm 0.00 in0.0 mm
09:39 AM 82.4°F28.0°C 65.1°F18.4°C 56% 7.8 mph N12.6 kmh N 14.1 mph22.7 kmh 30.06 in1017.9 mb 0.00 in0.0 mm 0.00 in0.0 mm 0.00 in0.0 mm
09:38 AM 82.6°F28.1°C 65.3°F18.5°C 56% 7.8 mph NNW12.6 kmh NNW 16.1 mph25.9 kmh 30.06 in1017.9 mb 0.00 in0.0 mm 0.00 in0.0 mm 0.00 in0.0 mm
09:37 AM 82.2°F27.9°C 65.5°F18.6°C 57% 7.6 mph N12.2 kmh N 11.0 mph17.7 kmh 30.06 in1017.9 mb 0.00 in0.0 mm 0.00 in0.0 mm 0.00 in0.0 mm
09:36 AM 82.0°F27.8°C 65.3°F18.5°C 57% 7.6 mph N12.2 kmh N 14.1 mph22.7 kmh 30.05 in1017.6 mb 0.00 in0.0 mm 0.00 in0.0 mm 0.00 in0.0 mm
09:35 AM 82.0°F27.8°C 64.8°F18.2°C 56% 7.6 mph NNE12.2 kmh NNE 14.1 mph22.7 kmh 30.05 in1017.6 mb 0.00 in0.0 mm 0.00 in0.0 mm 0.00 in0.0 mm
09:34 AM 82.0°F27.8°C 64.8°F18.2°C 56% 7.4 mph WNW11.9 kmh WNW 13.0 mph20.9 kmh 30.05 in1017.6 mb 0.00 in0.0 mm 0.00 in0.0 mm 0.00 in0.0 mm
09:33 AM 82.0°F27.8°C 64.8°F18.2°C 56% 7.2 mph NW11.6 kmh NW 15.0 mph24.1 kmh 30.05 in1017.6 mb 0.00 in0.0 mm 0.00 in0.0 mm 0.00 in0.0 mm
09:32 AM 82.0°F27.8°C 64.8°F18.2°C 56% 7.2 mph N11.6 kmh N 15.0 mph24.1 kmh 30.05 in1017.6 mb 0.00 in0.0 mm 0.00 in0.0 mm 0.00 in0.0 mm
09:31 AM 82.2°F27.9°C 64.9°F18.3°C 56% 6.7 mph N10.8 kmh N 19.0 mph30.6 kmh 30.05 in1017.6 mb 0.00 in0.0 mm 0.00 in0.0 mm 0.00 in0.0 mm
09:30 AM 82.2°F27.9°C 65.5°F18.6°C 57% 6.9 mph NW11.1 kmh NW 10.1 mph16.3 kmh 30.05 in1017.6 mb 0.00 in0.0 mm 0.00 in0.0 mm 0.00 in0.0 mm
09:29 AM 82.2°F27.9°C 65.5°F18.6°C 57% 6.9 mph NNE11.1 kmh NNE 14.1 mph22.7 kmh 30.05 in1017.6 mb 0.00 in0.0 mm 0.00 in0.0 mm 0.00 in0.0 mm
09:28 AM 82.0°F27.8°C 65.3°F18.5°C 57% 6.9 mph N11.1 kmh N 10.1 mph16.3 kmh 30.05 in1017.6 mb 0.00 in0.0 mm 0.00 in0.0 mm 0.00 in0.0 mm
09:27 AM 82.0°F27.8°C 65.8°F18.8°C 58% 6.7 mph NNW10.8 kmh NNW 10.1 mph16.3 kmh 30.05 in1017.6 mb 0.00 in0.0 mm 0.00 in0.0 mm 0.00 in0.0 mm
09:26 AM 82.0°F27.8°C 65.8°F18.8°C 58% 6.9 mph N11.1 kmh N 10.1 mph16.3 kmh 30.05 in1017.6 mb 0.00 in0.0 mm 0.00 in0.0 mm 0.00 in0.0 mm
09:25 AM 81.9°F27.7°C 65.7°F18.7°C 58% 6.7 mph 10.8 kmh 12.1 mph19.5 kmh 30.05 in1017.6 mb 0.00 in0.0 mm 0.00 in0.0 mm 0.00 in0.0 mm
09:24 AM 81.7°F27.6°C 65.5°F18.6°C 58% 6.9 mph N11.1 kmh N 12.1 mph19.5 kmh 30.05 in1017.6 mb 0.00 in0.0 mm 0.00 in0.0 mm 0.00 in0.0 mm
09:23 AM 81.7°F27.6°C 65.5°F18.6°C 58% 7.2 mph N11.6 kmh N 11.0 mph17.7 kmh 30.05 in1017.6 mb 0.00 in0.0 mm 0.00 in0.0 mm 0.00 in0.0 mm
09:22 AM 81.5°F27.5°C 65.3°F18.5°C 58% 7.4 mph NE11.9 kmh NE 10.1 mph16.3 kmh 30.05 in1017.6 mb 0.00 in0.0 mm 0.00 in0.0 mm 0.00 in0.0 mm
09:21 AM 81.3°F27.4°C 65.7°F18.7°C 59% 7.6 mph N12.2 kmh N 10.1 mph16.3 kmh 30.05 in1017.6 mb 0.00 in0.0 mm 0.00 in0.0 mm 0.00 in0.0 mm
09:20 AM 81.1°F27.3°C 65.5°F18.6°C 59% 7.6 mph N12.2 kmh N 4.9 mph7.9 kmh 30.05 in1017.6 mb 0.00 in0.0 mm 0.00 in0.0 mm 0.00 in0.0 mm
09:09 AM 80.4°F26.9°C 65.3°F18.5°C 60% 8.1 mph N13.0 kmh N 10.1 mph16.3 kmh 30.06 in1017.9 mb 0.00 in0.0 mm 0.00 in0.0 mm 0.00 in0.0 mm
09:08 AM 80.2°F26.8°C 65.1°F18.4°C 60% 8.5 mph WNW13.7 kmh WNW 11.0 mph17.7 kmh 30.05 in1017.6 mb 0.00 in0.0 mm 0.00 in0.0 mm 0.00 in0.0 mm
09:07 AM 80.2°F26.8°C 65.1°F18.4°C 60% 8.7 mph N14.0 kmh N 14.1 mph22.7 kmh 30.05 in1017.6 mb 0.00 in0.0 mm 0.00 in0.0 mm 0.00 in0.0 mm
09:06 AM 80.2°F26.8°C 65.1°F18.4°C 60% 8.7 mph NW14.0 kmh NW 11.0 mph17.7 kmh 30.05 in1017.6 mb 0.00 in0.0 mm 0.00 in0.0 mm 0.00 in0.0 mm
09:05 AM 80.2°F26.8°C 65.1°F18.4°C 60% 8.9 mph NNW14.3 kmh NNW 8.9 mph14.3 kmh 30.05 in1017.6 mb 0.00 in0.0 mm 0.00 in0.0 mm 0.00 in0.0 mm
09:04 AM 80.2°F26.8°C 64.6°F18.1°C 59% 9.4 mph NW15.1 kmh NW 13.0 mph20.9 kmh 30.05 in1017.6 mb 0.00 in0.0 mm 0.00 in0.0 mm 0.00 in0.0 mm
09:03 AM 80.2°F26.8°C 65.1°F18.4°C 60% 9.4 mph NNW15.1 kmh NNW 19.9 mph32.0 kmh 30.05 in1017.6 mb 0.00 in0.0 mm 0.00 in0.0 mm 0.00 in0.0 mm
09:02 AM 80.2°F26.8°C 65.1°F18.4°C 60% 9.2 mph 14.8 kmh 19.9 mph32.0 kmh 30.06 in1017.9 mb 0.00 in0.0 mm 0.00 in0.0 mm 0.00 in0.0 mm
09:01 AM 80.2°F26.8°C 64.6°F18.1°C 59% 9.2 mph NNW14.8 kmh NNW 16.1 mph25.9 kmh 30.05 in1017.6 mb 0.00 in0.0 mm 0.00 in0.0 mm 0.00 in0.0 mm
09:00 AM 80.2°F26.8°C 65.1°F18.4°C 60% 9.4 mph N15.1 kmh N 17.0 mph27.4 kmh 30.05 in1017.6 mb 0.00 in0.0 mm 0.00 in0.0 mm 0.00 in0.0 mm
08:59 AM 80.2°F26.8°C 65.1°F18.4°C 60% 9.2 mph NNE14.8 kmh NNE 17.0 mph27.4 kmh 30.05 in1017.6 mb 0.00 in0.0 mm 0.00 in0.0 mm 0.00 in0.0 mm
08:58 AM 80.1°F26.7°C 65.5°F18.6°C 61% 9.6 mph NW15.4 kmh NW 17.0 mph27.4 kmh 30.05 in1017.6 mb 0.00 in0.0 mm 0.00 in0.0 mm 0.00 in0.0 mm
08:57 AM 80.1°F26.7°C 65.5°F18.6°C 61% 9.8 mph NNE15.8 kmh NNE 17.0 mph27.4 kmh 30.05 in1017.6 mb 0.00 in0.0 mm 0.00 in0.0 mm 0.00 in0.0 mm
08:56 AM 80.1°F26.7°C 65.5°F18.6°C 61% 10.3 mph N16.6 kmh N 14.1 mph22.7 kmh 30.05 in1017.6 mb 0.00 in0.0 mm 0.00 in0.0 mm 0.00 in0.0 mm
08:55 AM 79.9°F26.6°C 65.3°F18.5°C 61% 10.3 mph NNW16.6 kmh NNW 13.0 mph20.9 kmh 30.05 in1017.6 mb 0.00 in0.0 mm 0.00 in0.0 mm 0.00 in0.0 mm
08:54 AM 79.9°F26.6°C 65.3°F18.5°C 61% 9.8 mph N15.8 kmh N 15.0 mph24.1 kmh 30.05 in1017.6 mb 0.00 in0.0 mm 0.00 in0.0 mm 0.00 in0.0 mm
08:53 AM 79.9°F26.6°C 65.3°F18.5°C 61% 10.1 mph NNW16.3 kmh NNW 13.0 mph20.9 kmh 30.05 in1017.6 mb 0.00 in0.0 mm 0.00 in0.0 mm 0.00 in0.0 mm
08:52 AM 79.7°F26.5°C 65.1°F18.4°C 61% 10.1 mph N16.3 kmh N 19.0 mph30.6 kmh 30.05 in1017.6 mb 0.00 in0.0 mm 0.00 in0.0 mm 0.00 in0.0 mm
08:51 AM 79.5°F26.4°C 65.3°F18.5°C 62% 9.8 mph NW15.8 kmh NW 19.9 mph32.0 kmh 30.05 in1017.6 mb 0.00 in0.0 mm 0.00 in0.0 mm 0.00 in0.0 mm
08:50 AM 79.5°F26.4°C 65.3°F18.5°C 62% 9.6 mph NW15.4 kmh NW 16.1 mph25.9 kmh 30.05 in1017.6 mb 0.00 in0.0 mm 0.00 in0.0 mm 0.00 in0.0 mm
08:49 AM 79.3°F26.3°C 65.1°F18.4°C 62% 9.8 mph NNW15.8 kmh NNW 19.9 mph32.0 kmh 30.05 in1017.6 mb 0.00 in0.0 mm 0.00 in0.0 mm 0.00 in0.0 mm
08:48 AM 79.3°F26.3°C 65.1°F18.4°C 62% 9.4 mph N15.1 kmh N 19.9 mph32.0 kmh 30.05 in1017.6 mb 0.00 in0.0 mm 0.00 in0.0 mm 0.00 in0.0 mm
08:47 AM 79.2°F26.2°C 65.5°F18.6°C 63% 9.4 mph NNE15.1 kmh NNE 19.9 mph32.0 kmh 30.05 in1017.6 mb 0.00 in0.0 mm 0.00 in0.0 mm 0.00 in0.0 mm
08:46 AM 79.2°F26.2°C 65.5°F18.6°C 63% 8.7 mph NNE14.0 kmh NNE 15.0 mph24.1 kmh 30.04 in1017.3 mb 0.00 in0.0 mm 0.00 in0.0 mm 0.00 in0.0 mm
08:45 AM 79.0°F26.1°C 65.3°F18.5°C 63% 8.7 mph 14.0 kmh 16.1 mph25.9 kmh 30.04 in1017.3 mb 0.00 in0.0 mm 0.00 in0.0 mm 0.00 in0.0 mm
08:44 AM 78.8°F26.0°C 65.1°F18.4°C 63% 9.2 mph N14.8 kmh N 13.0 mph20.9 kmh 30.04 in1017.3 mb 0.00 in0.0 mm 0.00 in0.0 mm 0.00 in0.0 mm
08:43 AM 78.6°F25.9°C 65.5°F18.6°C 64% 9.4 mph N15.1 kmh N 15.0 mph24.1 kmh 30.05 in1017.6 mb 0.00 in0.0 mm 0.00 in0.0 mm 0.00 in0.0 mm
08:42 AM 78.6°F25.9°C 65.5°F18.6°C 64% 9.4 mph N15.1 kmh N 15.0 mph24.1 kmh 30.05 in1017.6 mb 0.00 in0.0 mm 0.00 in0.0 mm 0.00 in0.0 mm
08:41 AM 78.6°F25.9°C 65.5°F18.6°C 64% 9.4 mph N15.1 kmh N 11.0 mph17.7 kmh 30.04 in1017.3 mb 0.00 in0.0 mm 0.00 in0.0 mm 0.00 in0.0 mm
08:40 AM 78.4°F25.8°C 64.8°F18.2°C 63% 9.4 mph NW15.1 kmh NW 16.1 mph25.9 kmh 30.05 in1017.6 mb 0.00 in0.0 mm 0.00 in0.0 mm 0.00 in0.0 mm
08:39 AM 78.4°F25.8°C 65.3°F18.5°C 64% 9.2 mph WNW14.8 kmh WNW 16.1 mph25.9 kmh 30.05 in1017.6 mb 0.00 in0.0 mm 0.00 in0.0 mm 0.00 in0.0 mm
08:38 AM 78.4°F25.8°C 65.3°F18.5°C 64% 8.9 mph NW14.3 kmh NW 15.0 mph24.1 kmh 30.05 in1017.6 mb 0.00 in0.0 mm 0.00 in0.0 mm 0.00 in0.0 mm
08:37 AM 78.4°F25.8°C 65.3°F18.5°C 64% 8.7 mph NNW14.0 kmh NNW 13.0 mph20.9 kmh 30.05 in1017.6 mb 0.00 in0.0 mm 0.00 in0.0 mm 0.00 in0.0 mm
08:36 AM 78.4°F25.8°C 65.3°F18.5°C 64% 8.9 mph NNW14.3 kmh NNW 17.9 mph28.8 kmh 30.05 in1017.6 mb 0.00 in0.0 mm 0.00 in0.0 mm 0.00 in0.0 mm
08:35 AM 78.3°F25.7°C 65.1°F18.4°C 64% 9.2 mph N14.8 kmh N 14.1 mph22.7 kmh 30.05 in1017.6 mb 0.00 in0.0 mm 0.00 in0.0 mm 0.00 in0.0 mm
08:34 AM 78.1°F25.6°C 65.3°F18.5°C 65% 9.2 mph NNW14.8 kmh NNW 19.9 mph32.0 kmh 30.05 in1017.6 mb 0.00 in0.0 mm 0.00 in0.0 mm 0.00 in0.0 mm
08:33 AM 78.1°F25.6°C 66.2°F19.0°C 67% 8.9 mph NNW14.3 kmh NNW 19.9 mph32.0 kmh 30.05 in1017.6 mb 0.00 in0.0 mm 0.00 in0.0 mm 0.00 in0.0 mm
08:32 AM 77.9°F25.5°C 66.0°F18.9°C 67% 9.4 mph NW15.1 kmh NW 13.0 mph20.9 kmh 30.04 in1017.3 mb 0.00 in0.0 mm 0.00 in0.0 mm 0.00 in0.0 mm
08:31 AM 77.7°F25.4°C 65.8°F18.8°C 67% 9.4 mph 15.1 kmh 14.1 mph22.7 kmh 30.04 in1017.3 mb 0.00 in0.0 mm 0.00 in0.0 mm 0.00 in0.0 mm
08:30 AM 77.7°F25.4°C 65.8°F18.8°C 67% 9.8 mph NW15.8 kmh NW 12.1 mph19.5 kmh 30.05 in1017.6 mb 0.00 in0.0 mm 0.00 in0.0 mm 0.00 in0.0 mm
08:29 AM 77.7°F25.4°C 65.8°F18.8°C 67% 10.1 mph NNW16.3 kmh NNW 15.0 mph24.1 kmh 30.05 in1017.6 mb 0.00 in0.0 mm 0.00 in0.0 mm 0.00 in0.0 mm
08:28 AM 77.5°F25.3°C 65.7°F18.7°C 67% 10.3 mph NNE16.6 kmh NNE 13.0 mph20.9 kmh 30.04 in1017.3 mb 0.00 in0.0 mm 0.00 in0.0 mm 0.00 in0.0 mm
08:27 AM 77.5°F25.3°C 65.7°F18.7°C 67% 10.5 mph NNE16.9 kmh NNE 13.0 mph20.9 kmh 30.05 in1017.6 mb 0.00 in0.0 mm 0.00 in0.0 mm 0.00 in0.0 mm
08:26 AM 77.5°F25.3°C 65.7°F18.7°C 67% 10.7 mph N17.2 kmh N 19.9 mph32.0 kmh 30.04 in1017.3 mb 0.00 in0.0 mm 0.00 in0.0 mm 0.00 in0.0 mm
08:25 AM 77.4°F25.2°C 66.0°F18.9°C 68% 10.7 mph NW17.2 kmh NW 17.0 mph27.4 kmh 30.04 in1017.3 mb 0.00 in0.0 mm 0.00 in0.0 mm 0.00 in0.0 mm
08:24 AM 77.2°F25.1°C 65.8°F18.8°C 68% 10.7 mph N17.2 kmh N 16.1 mph25.9 kmh 30.04 in1017.3 mb 0.00 in0.0 mm 0.00 in0.0 mm 0.00 in0.0 mm
08:23 AM 77.2°F25.1°C 65.8°F18.8°C 68% 10.5 mph 16.9 kmh 17.0 mph27.4 kmh 30.05 in1017.6 mb 0.00 in0.0 mm 0.00 in0.0 mm 0.00 in0.0 mm
08:22 AM 77.2°F25.1°C 66.2°F19.0°C 69% 10.3 mph NNE16.6 kmh NNE 13.0 mph20.9 kmh 30.04 in1017.3 mb 0.00 in0.0 mm 0.00 in0.0 mm 0.00 in0.0 mm
08:21 AM 77.0°F25.0°C 66.0°F18.9°C 69% 10.3 mph NW16.6 kmh NW 19.0 mph30.6 kmh 30.04 in1017.3 mb 0.00 in0.0 mm 0.00 in0.0 mm 0.00 in0.0 mm
08:20 AM 76.8°F24.9°C 65.8°F18.8°C 69% 10.1 mph NW16.3 kmh NW 14.1 mph22.7 kmh 30.04 in1017.3 mb 0.00 in0.0 mm 0.00 in0.0 mm 0.00 in0.0 mm
08:19 AM 76.8°F24.9°C 65.8°F18.8°C 69% 10.1 mph NW16.3 kmh NW 17.0 mph27.4 kmh 30.04 in1017.3 mb 0.00 in0.0 mm 0.00 in0.0 mm 0.00 in0.0 mm
08:18 AM 76.6°F24.8°C 65.7°F18.7°C 69% 9.4 mph NW15.1 kmh NW 17.0 mph27.4 kmh 30.04 in1017.3 mb 0.00 in0.0 mm 0.00 in0.0 mm 0.00 in0.0 mm
08:17 AM 76.6°F24.8°C 65.7°F18.7°C 69% 9.2 mph N14.8 kmh N 14.1 mph22.7 kmh 30.04 in1017.3 mb 0.00 in0.0 mm 0.00 in0.0 mm 0.00 in0.0 mm
08:16 AM 76.6°F24.8°C 65.7°F18.7°C 69% 9.2 mph NW14.8 kmh NW 17.0 mph27.4 kmh 30.04 in1017.3 mb 0.00 in0.0 mm 0.00 in0.0 mm 0.00 in0.0 mm
08:15 AM 76.6°F24.8°C 65.7°F18.7°C 69% 8.9 mph NW14.3 kmh NW 19.9 mph32.0 kmh 30.05 in1017.6 mb 0.00 in0.0 mm 0.00 in0.0 mm 0.00 in0.0 mm
08:14 AM 76.5°F24.7°C 65.5°F18.6°C 69% 9.2 mph N14.8 kmh N 12.1 mph19.5 kmh 30.04 in1017.3 mb 0.00 in0.0 mm 0.00 in0.0 mm 0.00 in0.0 mm
08:13 AM 76.5°F24.7°C 65.5°F18.6°C 69% 9.4 mph 15.1 kmh 16.1 mph25.9 kmh 30.05 in1017.6 mb 0.00 in0.0 mm 0.00 in0.0 mm 0.00 in0.0 mm
08:12 AM 76.5°F24.7°C 66.0°F18.9°C 70% 9.4 mph N15.1 kmh N 16.1 mph25.9 kmh 30.05 in1017.6 mb 0.00 in0.0 mm 0.00 in0.0 mm 0.00 in0.0 mm
08:11 AM 76.3°F24.6°C 65.8°F18.8°C 70% 9.6 mph NNW15.4 kmh NNW 15.0 mph24.1 kmh 30.04 in1017.3 mb 0.00 in0.0 mm 0.00 in0.0 mm 0.00 in0.0 mm
08:10 AM 76.3°F24.6°C 65.8°F18.8°C 70% 9.8 mph WNW15.8 kmh WNW 15.0 mph24.1 kmh 30.05 in1017.6 mb 0.00 in0.0 mm 0.00 in0.0 mm 0.00 in0.0 mm
08:09 AM 76.3°F24.6°C 65.8°F18.8°C 70% 9.8 mph NW15.8 kmh NW 12.1 mph19.5 kmh 30.04 in1017.3 mb 0.00 in0.0 mm 0.00 in0.0 mm 0.00 in0.0 mm
08:08 AM 76.1°F24.5°C 65.7°F18.7°C 70% 10.3 mph NNW16.6 kmh NNW 13.0 mph20.9 kmh 30.05 in1017.6 mb 0.00 in0.0 mm 0.00 in0.0 mm 0.00 in0.0 mm
08:07 AM 75.9°F24.4°C 65.5°F18.6°C 70% 10.5 mph NNW16.9 kmh NNW 13.0 mph20.9 kmh 30.05 in1017.6 mb 0.00 in0.0 mm 0.00 in0.0 mm 0.00 in0.0 mm
08:06 AM 75.9°F24.4°C 65.5°F18.6°C 70% 10.7 mph WNW17.2 kmh WNW 17.0 mph27.4 kmh 30.05 in1017.6 mb 0.00 in0.0 mm 0.00 in0.0 mm 0.00 in0.0 mm
08:05 AM 75.9°F24.4°C 65.5°F18.6°C 70% 10.7 mph N17.2 kmh N 19.9 mph32.0 kmh 30.04 in1017.3 mb 0.00 in0.0 mm 0.00 in0.0 mm 0.00 in0.0 mm
08:04 AM 75.9°F24.4°C 65.5°F18.6°C 70% 10.7 mph N17.2 kmh N 17.0 mph27.4 kmh 30.05 in1017.6 mb 0.00 in0.0 mm 0.00 in0.0 mm 0.00 in0.0 mm
08:03 AM 75.7°F24.3°C 65.3°F18.5°C 70% 10.7 mph NNW17.2 kmh NNW 17.0 mph27.4 kmh 30.05 in1017.6 mb 0.00 in0.0 mm 0.00 in0.0 mm 0.00 in0.0 mm
08:02 AM 75.7°F24.3°C 65.3°F18.5°C 70% 10.7 mph NW17.2 kmh NW 17.9 mph28.8 kmh 30.05 in1017.6 mb 0.00 in0.0 mm 0.00 in0.0 mm 0.00 in0.0 mm
08:01 AM 75.7°F24.3°C 65.3°F18.5°C 70% 10.7 mph NW17.2 kmh NW 17.9 mph28.8 kmh 30.04 in1017.3 mb 0.00 in0.0 mm 0.00 in0.0 mm 0.00 in0.0 mm
08:00 AM 75.7°F24.3°C 65.3°F18.5°C 70% 10.7 mph NNW17.2 kmh NNW 13.0 mph20.9 kmh 30.05 in1017.6 mb 0.00 in0.0 mm 0.00 in0.0 mm 0.00 in0.0 mm
07:59 AM 75.7°F24.3°C 65.3°F18.5°C 70% 11.0 mph N17.7 kmh N 14.1 mph22.7 kmh 30.05 in1017.6 mb 0.00 in0.0 mm 0.00 in0.0 mm 0.00 in0.0 mm
07:58 AM 75.7°F24.3°C 65.3°F18.5°C 70% 11.2 mph N18.0 kmh N 14.1 mph22.7 kmh 30.05 in1017.6 mb 0.00 in0.0 mm 0.00 in0.0 mm 0.00 in0.0 mm
07:57 AM 75.7°F24.3°C 65.3°F18.5°C 70% 11.2 mph 18.0 kmh 17.9 mph28.8 kmh 30.05 in1017.6 mb 0.00 in0.0 mm 0.00 in0.0 mm 0.00 in0.0 mm
07:56 AM 75.7°F24.3°C 65.3°F18.5°C 70% 11.2 mph NNW18.0 kmh NNW 14.1 mph22.7 kmh 30.04 in1017.3 mb 0.00 in0.0 mm 0.00 in0.0 mm 0.00 in0.0 mm
07:55 AM 75.7°F24.3°C 65.3°F18.5°C 70% 11.0 mph N17.7 kmh N 17.9 mph28.8 kmh 30.05 in1017.6 mb 0.00 in0.0 mm 0.00 in0.0 mm 0.00 in0.0 mm
07:54 AM 75.7°F24.3°C 65.3°F18.5°C 70% 10.7 mph N17.2 kmh N 17.9 mph28.8 kmh 30.04 in1017.3 mb 0.00 in0.0 mm 0.00 in0.0 mm 0.00 in0.0 mm
07:53 AM 75.7°F24.3°C 65.3°F18.5°C 70% 10.5 mph NNW16.9 kmh NNW 17.0 mph27.4 kmh 30.05 in1017.6 mb 0.00 in0.0 mm 0.00 in0.0 mm 0.00 in0.0 mm
07:52 AM 75.7°F24.3°C 65.3°F18.5°C 70% 10.3 mph NW16.6 kmh NW 17.9 mph28.8 kmh 30.05 in1017.6 mb 0.00 in0.0 mm 0.00 in0.0 mm 0.00 in0.0 mm
07:51 AM 75.7°F24.3°C 65.3°F18.5°C 70% 10.3 mph N16.6 kmh N 19.0 mph30.6 kmh 30.05 in1017.6 mb 0.00 in0.0 mm 0.00 in0.0 mm 0.00 in0.0 mm
07:50 AM 75.7°F24.3°C 65.3°F18.5°C 70% 10.3 mph NNW16.6 kmh NNW 16.1 mph25.9 kmh 30.05 in1017.6 mb 0.00 in0.0 mm 0.00 in0.0 mm 0.00 in0.0 mm
07:49 AM 75.7°F24.3°C 65.3°F18.5°C 70% 10.3 mph N16.6 kmh N 19.0 mph30.6 kmh 30.05 in1017.6 mb 0.00 in0.0 mm 0.00 in0.0 mm 0.00 in0.0 mm
07:48 AM 75.6°F24.2°C 65.1°F18.4°C 70% 9.8 mph N15.8 kmh N 16.1 mph25.9 kmh 30.05 in1017.6 mb 0.00 in0.0 mm 0.00 in0.0 mm 0.00 in0.0 mm
07:47 AM 75.6°F24.2°C 65.1°F18.4°C 70% 9.6 mph NW15.4 kmh NW 17.0 mph27.4 kmh 30.05 in1017.6 mb 0.00 in0.0 mm 0.00 in0.0 mm 0.00 in0.0 mm
07:46 AM 75.6°F24.2°C 65.1°F18.4°C 70% 9.4 mph N15.1 kmh N 12.1 mph19.5 kmh 30.05 in1017.6 mb 0.00 in0.0 mm 0.00 in0.0 mm 0.00 in0.0 mm
07:45 AM 75.6°F24.2°C 65.5°F18.6°C 71% 9.6 mph NNW15.4 kmh NNW 14.1 mph22.7 kmh 30.05 in1017.6 mb 0.00 in0.0 mm 0.00 in0.0 mm 0.00 in0.0 mm
07:44 AM 75.6°F24.2°C 65.5°F18.6°C 71% 9.6 mph NW15.4 kmh NW 14.1 mph22.7 kmh 30.05 in1017.6 mb 0.00 in0.0 mm 0.00 in0.0 mm 0.00 in0.0 mm
07:43 AM 75.4°F24.1°C 65.3°F18.5°C 71% 9.8 mph NNW15.8 kmh NNW 14.1 mph22.7 kmh 30.05 in1017.6 mb 0.00 in0.0 mm 0.00 in0.0 mm 0.00 in0.0 mm
07:42 AM 75.4°F24.1°C 65.3°F18.5°C 71% 10.1 mph NW16.3 kmh NW 14.1 mph22.7 kmh 30.05 in1017.6 mb 0.00 in0.0 mm 0.00 in0.0 mm 0.00 in0.0 mm
07:41 AM 75.4°F24.1°C 65.3°F18.5°C 71% 9.8 mph N15.8 kmh N 17.0 mph27.4 kmh 30.05 in1017.6 mb 0.00 in0.0 mm 0.00 in0.0 mm 0.00 in0.0 mm
07:40 AM 75.4°F24.1°C 65.3°F18.5°C 71% 9.4 mph N15.1 kmh N 16.1 mph25.9 kmh 30.05 in1017.6 mb 0.00 in0.0 mm 0.00 in0.0 mm 0.00 in0.0 mm
07:39 AM 75.4°F24.1°C 65.3°F18.5°C 71% 8.9 mph N14.3 kmh N 13.0 mph20.9 kmh 30.05 in1017.6 mb 0.00 in0.0 mm 0.00 in0.0 mm 0.00 in0.0 mm
07:38 AM 75.2°F24.0°C 65.1°F18.4°C 71% 8.9 mph NNW14.3 kmh NNW 15.0 mph24.1 kmh 30.05 in1017.6 mb 0.00 in0.0 mm 0.00 in0.0 mm 0.00 in0.0 mm
07:37 AM 75.2°F24.0°C 65.1°F18.4°C 71% 9.2 mph NW14.8 kmh NW 15.0 mph24.1 kmh 30.05 in1017.6 mb 0.00 in0.0 mm 0.00 in0.0 mm 0.00 in0.0 mm
07:36 AM 75.0°F23.9°C 64.9°F18.3°C 71% 8.7 mph NNW14.0 kmh NNW 16.1 mph25.9 kmh 30.05 in1017.6 mb 0.00 in0.0 mm 0.00 in0.0 mm 0.00 in0.0 mm
07:35 AM 75.0°F23.9°C 64.9°F18.3°C 71% 8.5 mph NNW13.7 kmh NNW 17.0 mph27.4 kmh 30.05 in1017.6 mb 0.00 in0.0 mm 0.00 in0.0 mm 0.00 in0.0 mm
07:34 AM 75.0°F23.9°C 64.6°F18.1°C 70% 8.3 mph N13.4 kmh N 15.0 mph24.1 kmh 30.06 in1017.9 mb 0.00 in0.0 mm 0.00 in0.0 mm 0.00 in0.0 mm
07:33 AM 74.8°F23.8°C 64.4°F18.0°C 70% 8.1 mph N13.0 kmh N 15.0 mph24.1 kmh 30.06 in1017.9 mb 0.00 in0.0 mm 0.00 in0.0 mm 0.00 in0.0 mm
07:32 AM 74.8°F23.8°C 64.8°F18.2°C 71% 7.6 mph NW12.2 kmh NW 11.0 mph17.7 kmh 30.05 in1017.6 mb 0.00 in0.0 mm 0.00 in0.0 mm 0.00 in0.0 mm
07:31 AM 74.8°F23.8°C 64.8°F18.2°C 71% 7.6 mph NNE12.2 kmh NNE 11.0 mph17.7 kmh 30.05 in1017.6 mb 0.00 in0.0 mm 0.00 in0.0 mm 0.00 in0.0 mm
07:30 AM 74.8°F23.8°C 64.8°F18.2°C 71% 7.6 mph NW12.2 kmh NW 15.0 mph24.1 kmh 30.05 in1017.6 mb 0.00 in0.0 mm 0.00 in0.0 mm 0.00 in0.0 mm
07:29 AM 74.8°F23.8°C 64.8°F18.2°C 71% 7.6 mph N12.2 kmh N 13.0 mph20.9 kmh 30.06 in1017.9 mb 0.00 in0.0 mm 0.00 in0.0 mm 0.00 in0.0 mm
07:28 AM 74.7°F23.7°C 64.6°F18.1°C 71% 7.4 mph NNE11.9 kmh NNE 14.1 mph22.7 kmh 30.05 in1017.6 mb 0.00 in0.0 mm 0.00 in0.0 mm 0.00 in0.0 mm
07:27 AM 74.7°F23.7°C 65.1°F18.4°C 72% 7.4 mph NNW11.9 kmh NNW 14.1 mph22.7 kmh 30.05 in1017.6 mb 0.00 in0.0 mm 0.00 in0.0 mm 0.00 in0.0 mm
07:26 AM 74.5°F23.6°C 64.4°F18.0°C 71% 7.6 mph NW12.2 kmh NW 13.0 mph20.9 kmh 30.05 in1017.6 mb 0.00 in0.0 mm 0.00 in0.0 mm 0.00 in0.0 mm
07:25 AM 74.5°F23.6°C 64.4°F18.0°C 71% 7.6 mph NW12.2 kmh NW 13.0 mph20.9 kmh 30.06 in1017.9 mb 0.00 in0.0 mm 0.00 in0.0 mm 0.00 in0.0 mm
07:24 AM 74.5°F23.6°C 64.4°F18.0°C 71% 7.6 mph NNW12.2 kmh NNW 12.1 mph19.5 kmh 30.05 in1017.6 mb 0.00 in0.0 mm 0.00 in0.0 mm 0.00 in0.0 mm
07:23 AM 74.5°F23.6°C 64.4°F18.0°C 71% 7.6 mph N12.2 kmh N 11.0 mph17.7 kmh 30.05 in1017.6 mb 0.00 in0.0 mm 0.00 in0.0 mm 0.00 in0.0 mm
07:22 AM 74.3°F23.5°C 64.2°F17.9°C 71% 7.8 mph NNW12.6 kmh NNW 11.0 mph17.7 kmh 30.06 in1017.9 mb 0.00 in0.0 mm 0.00 in0.0 mm 0.00 in0.0 mm
07:21 AM 74.3°F23.5°C 64.2°F17.9°C 71% 8.1 mph NW13.0 kmh NW 12.1 mph19.5 kmh 30.06 in1017.9 mb 0.00 in0.0 mm 0.00 in0.0 mm 0.00 in0.0 mm
07:20 AM 74.1°F23.4°C 64.0°F17.8°C 71% 7.8 mph N12.6 kmh N 10.1 mph16.3 kmh 30.05 in1017.6 mb 0.00 in0.0 mm 0.00 in0.0 mm 0.00 in0.0 mm
07:19 AM 74.1°F23.4°C 64.0°F17.8°C 71% 7.8 mph N12.6 kmh N 15.0 mph24.1 kmh 30.06 in1017.9 mb 0.00 in0.0 mm 0.00 in0.0 mm 0.00 in0.0 mm
07:18 AM 74.1°F23.4°C 64.0°F17.8°C 71% 7.8 mph NNE12.6 kmh NNE 14.1 mph22.7 kmh 30.06 in1017.9 mb 0.00 in0.0 mm 0.00 in0.0 mm 0.00 in0.0 mm
07:17 AM 74.1°F23.4°C 64.0°F17.8°C 71% 7.6 mph N12.2 kmh N 12.1 mph19.5 kmh 30.05 in1017.6 mb 0.00 in0.0 mm 0.00 in0.0 mm 0.00 in0.0 mm
07:16 AM 73.9°F23.3°C 63.9°F17.7°C 71% 8.1 mph NNE13.0 kmh NNE 11.0 mph17.7 kmh 30.05 in1017.6 mb 0.00 in0.0 mm 0.00 in0.0 mm 0.00 in0.0 mm
07:15 AM 73.9°F23.3°C 63.9°F17.7°C 71% 8.1 mph N13.0 kmh N 12.1 mph19.5 kmh 30.05 in1017.6 mb 0.00 in0.0 mm 0.00 in0.0 mm 0.00 in0.0 mm
07:14 AM 73.9°F23.3°C 63.9°F17.7°C 71% 7.8 mph N12.6 kmh N 13.0 mph20.9 kmh 30.06 in1017.9 mb 0.00 in0.0 mm 0.00 in0.0 mm 0.00 in0.0 mm
07:13 AM 73.9°F23.3°C 63.9°F17.7°C 71% 7.6 mph NNW12.2 kmh NNW 14.1 mph22.7 kmh 30.06 in1017.9 mb 0.00 in0.0 mm 0.00 in0.0 mm 0.00 in0.0 mm
07:12 AM 73.9°F23.3°C 63.9°F17.7°C 71% 7.4 mph NE11.9 kmh NE 14.1 mph22.7 kmh 30.06 in1017.9 mb 0.00 in0.0 mm 0.00 in0.0 mm 0.00 in0.0 mm
07:11 AM 73.9°F23.3°C 63.9°F17.7°C 71% 7.2 mph NNE11.6 kmh NNE 14.1 mph22.7 kmh 30.05 in1017.6 mb 0.00 in0.0 mm 0.00 in0.0 mm 0.00 in0.0 mm
07:10 AM 73.9°F23.3°C 63.9°F17.7°C 71% 7.4 mph N11.9 kmh N 12.1 mph19.5 kmh 30.05 in1017.6 mb 0.00 in0.0 mm 0.00 in0.0 mm 0.00 in0.0 mm
07:09 AM 73.9°F23.3°C 63.9°F17.7°C 71% 7.6 mph NNE12.2 kmh NNE 12.1 mph19.5 kmh 30.05 in1017.6 mb 0.00 in0.0 mm 0.00 in0.0 mm 0.00 in0.0 mm
07:08 AM 73.9°F23.3°C 63.9°F17.7°C 71% 7.6 mph 12.2 kmh 12.1 mph19.5 kmh 30.05 in1017.6 mb 0.00 in0.0 mm 0.00 in0.0 mm 0.00 in0.0 mm
07:07 AM 73.9°F23.3°C 63.9°F17.7°C 71% 7.4 mph N11.9 kmh N 17.0 mph27.4 kmh 30.05 in1017.6 mb 0.00 in0.0 mm 0.00 in0.0 mm 0.00 in0.0 mm
07:06 AM 73.8°F23.2°C 63.7°F17.6°C 71% 6.9 mph NNE11.1 kmh NNE 12.1 mph19.5 kmh 30.05 in1017.6 mb 0.00 in0.0 mm 0.00 in0.0 mm 0.00 in0.0 mm
07:05 AM 73.8°F23.2°C 63.7°F17.6°C 71% 6.7 mph NNW10.8 kmh NNW 12.1 mph19.5 kmh 30.05 in1017.6 mb 0.00 in0.0 mm 0.00 in0.0 mm 0.00 in0.0 mm
07:04 AM 73.8°F23.2°C 63.7°F17.6°C 71% 6.7 mph NNE10.8 kmh NNE 11.0 mph17.7 kmh 30.05 in1017.6 mb 0.00 in0.0 mm 0.00 in0.0 mm 0.00 in0.0 mm
07:03 AM 73.8°F23.2°C 63.7°F17.6°C 71% 6.7 mph N10.8 kmh N 13.0 mph20.9 kmh 30.05 in1017.6 mb 0.00 in0.0 mm 0.00 in0.0 mm 0.00 in0.0 mm
07:02 AM 73.8°F23.2°C 63.7°F17.6°C 71% 6.7 mph NW10.8 kmh NW 16.1 mph25.9 kmh 30.05 in1017.6 mb 0.00 in0.0 mm 0.00 in0.0 mm 0.00 in0.0 mm
07:01 AM 73.8°F23.2°C 63.7°F17.6°C 71% 6.7 mph N10.8 kmh N 12.1 mph19.5 kmh 30.05 in1017.6 mb 0.00 in0.0 mm 0.00 in0.0 mm 0.00 in0.0 mm
07:00 AM 73.8°F23.2°C 63.7°F17.6°C 71% 6.7 mph N10.8 kmh N 14.1 mph22.7 kmh 30.05 in1017.6 mb 0.00 in0.0 mm 0.00 in0.0 mm 0.00 in0.0 mm
06:59 AM 73.8°F23.2°C 63.7°F17.6°C 71% 6.7 mph NNE10.8 kmh NNE 16.1 mph25.9 kmh 30.05 in1017.6 mb 0.00 in0.0 mm 0.00 in0.0 mm 0.00 in0.0 mm
06:58 AM 73.8°F23.2°C 63.7°F17.6°C 71% 6.7 mph NNW10.8 kmh NNW 13.0 mph20.9 kmh 30.05 in1017.6 mb 0.00 in0.0 mm 0.00 in0.0 mm 0.00 in0.0 mm
06:57 AM 73.8°F23.2°C 63.7°F17.6°C 71% 6.7 mph NNE10.8 kmh NNE 8.1 mph13.0 kmh 30.05 in1017.6 mb 0.00 in0.0 mm 0.00 in0.0 mm 0.00 in0.0 mm
06:56 AM 73.8°F23.2°C 63.7°F17.6°C 71% 6.7 mph N10.8 kmh N 10.1 mph16.3 kmh 30.05 in1017.6 mb 0.00 in0.0 mm 0.00 in0.0 mm 0.00 in0.0 mm
06:55 AM 73.8°F23.2°C 63.7°F17.6°C 71% 6.7 mph NE10.8 kmh NE 10.1 mph16.3 kmh 30.05 in1017.6 mb 0.00 in0.0 mm 0.00 in0.0 mm 0.00 in0.0 mm
06:54 AM 73.8°F23.2°C 63.7°F17.6°C 71% 6.9 mph NW11.1 kmh NW 12.1 mph19.5 kmh 30.05 in1017.6 mb 0.00 in0.0 mm 0.00 in0.0 mm 0.00 in0.0 mm
06:53 AM 73.8°F23.2°C 63.7°F17.6°C 71% 7.2 mph N11.6 kmh N 12.1 mph19.5 kmh 30.05 in1017.6 mb 0.00 in0.0 mm 0.00 in0.0 mm 0.00 in0.0 mm
06:52 AM 73.8°F23.2°C 63.7°F17.6°C 71% 6.9 mph N11.1 kmh N 13.0 mph20.9 kmh 30.05 in1017.6 mb 0.00 in0.0 mm 0.00 in0.0 mm 0.00 in0.0 mm
06:51 AM 73.8°F23.2°C 63.7°F17.6°C 71% 7.2 mph NNE11.6 kmh NNE 12.1 mph19.5 kmh 30.05 in1017.6 mb 0.00 in0.0 mm 0.00 in0.0 mm 0.00 in0.0 mm
06:50 AM 73.8°F23.2°C 63.7°F17.6°C 71% 7.4 mph N11.9 kmh N 11.0 mph17.7 kmh 30.05 in1017.6 mb 0.00 in0.0 mm 0.00 in0.0 mm 0.00 in0.0 mm
06:49 AM 73.8°F23.2°C 63.7°F17.6°C 71% 7.4 mph N11.9 kmh N 12.1 mph19.5 kmh 30.05 in1017.6 mb 0.00 in0.0 mm 0.00 in0.0 mm 0.00 in0.0 mm
06:48 AM 73.6°F23.1°C 63.7°F17.6°C 71% 7.4 mph N11.9 kmh N 8.9 mph14.3 kmh 30.05 in1017.6 mb 0.00 in0.0 mm 0.00 in0.0 mm 0.00 in0.0 mm
06:47 AM 73.8°F23.2°C 63.7°F17.6°C 71% 7.4 mph N11.9 kmh N 12.1 mph19.5 kmh 30.05 in1017.6 mb 0.00 in0.0 mm 0.00 in0.0 mm 0.00 in0.0 mm
06:46 AM 73.6°F23.1°C 63.7°F17.6°C 71% 7.8 mph NNW12.6 kmh NNW 12.1 mph19.5 kmh 30.05 in1017.6 mb 0.00 in0.0 mm 0.00 in0.0 mm 0.00 in0.0 mm
06:45 AM 73.6°F23.1°C 63.7°F17.6°C 71% 7.8 mph N12.6 kmh N 11.0 mph17.7 kmh 30.05 in1017.6 mb 0.00 in0.0 mm 0.00 in0.0 mm 0.00 in0.0 mm
06:44 AM 73.6°F23.1°C 63.7°F17.6°C 71% 7.8 mph N12.6 kmh N 15.0 mph24.1 kmh 30.04 in1017.3 mb 0.00 in0.0 mm 0.00 in0.0 mm 0.00 in0.0 mm
06:43 AM 73.6°F23.1°C 63.1°F17.3°C 70% 7.6 mph NNW12.2 kmh NNW 15.0 mph24.1 kmh 30.05 in1017.6 mb 0.00 in0.0 mm 0.00 in0.0 mm 0.00 in0.0 mm
06:42 AM 73.6°F23.1°C 63.1°F17.3°C 70% 7.6 mph NW12.2 kmh NW 13.0 mph20.9 kmh 30.04 in1017.3 mb 0.00 in0.0 mm 0.00 in0.0 mm 0.00 in0.0 mm
06:41 AM 73.6°F23.1°C 63.1°F17.3°C 70% 7.6 mph N12.2 kmh N 12.1 mph19.5 kmh 30.05 in1017.6 mb 0.00 in0.0 mm 0.00 in0.0 mm 0.00 in0.0 mm
06:40 AM 73.6°F23.1°C 63.7°F17.6°C 71% 7.4 mph NNE11.9 kmh NNE 13.0 mph20.9 kmh 30.05 in1017.6 mb 0.00 in0.0 mm 0.00 in0.0 mm 0.00 in0.0 mm
06:39 AM 73.6°F23.1°C 63.7°F17.6°C 71% 7.4 mph N11.9 kmh N 13.0 mph20.9 kmh 30.04 in1017.3 mb 0.00 in0.0 mm 0.00 in0.0 mm 0.00 in0.0 mm
06:38 AM 73.6°F23.1°C 63.7°F17.6°C 71% 7.2 mph N11.6 kmh N 16.1 mph25.9 kmh 30.04 in1017.3 mb 0.00 in0.0 mm 0.00 in0.0 mm 0.00 in0.0 mm
06:37 AM 73.6°F23.1°C 63.1°F17.3°C 70% 7.4 mph NW11.9 kmh NW 16.1 mph25.9 kmh 30.04 in1017.3 mb 0.00 in0.0 mm 0.00 in0.0 mm 0.00 in0.0 mm
06:36 AM 73.6°F23.1°C 63.7°F17.6°C 71% 7.4 mph NE11.9 kmh NE 12.1 mph19.5 kmh 30.05 in1017.6 mb 0.00 in0.0 mm 0.00 in0.0 mm 0.00 in0.0 mm
06:35 AM 73.6°F23.1°C 63.7°F17.6°C 71% 7.4 mph NW11.9 kmh NW 11.0 mph17.7 kmh 30.04 in1017.3 mb 0.00 in0.0 mm 0.00 in0.0 mm 0.00 in0.0 mm
06:34 AM 73.6°F23.1°C 63.7°F17.6°C 71% 7.4 mph 11.9 kmh 11.0 mph17.7 kmh 30.04 in1017.3 mb 0.00 in0.0 mm 0.00 in0.0 mm 0.00 in0.0 mm
06:33 AM 73.6°F23.1°C 63.1°F17.3°C 70% 7.6 mph N12.2 kmh N 10.1 mph16.3 kmh 30.04 in1017.3 mb 0.00 in0.0 mm 0.00 in0.0 mm 0.00 in0.0 mm
06:32 AM 73.6°F23.1°C 63.1°F17.3°C 70% 7.6 mph NNW12.2 kmh NNW 16.1 mph25.9 kmh 30.04 in1017.3 mb 0.00 in0.0 mm 0.00 in0.0 mm 0.00 in0.0 mm
06:31 AM 73.6°F23.1°C 63.1°F17.3°C 70% 7.2 mph NNE11.6 kmh NNE 16.1 mph25.9 kmh 30.04 in1017.3 mb 0.00 in0.0 mm 0.00 in0.0 mm 0.00 in0.0 mm
06:30 AM 73.6°F23.1°C 63.7°F17.6°C 71% 7.2 mph N11.6 kmh N 14.1 mph22.7 kmh 30.04 in1017.3 mb 0.00 in0.0 mm 0.00 in0.0 mm 0.00 in0.0 mm
06:29 AM 73.6°F23.1°C 63.1°F17.3°C 70% 7.2 mph NNE11.6 kmh NNE 14.1 mph22.7 kmh 30.04 in1017.3 mb 0.00 in0.0 mm 0.00 in0.0 mm 0.00 in0.0 mm
06:28 AM 73.6°F23.1°C 63.1°F17.3°C 70% 7.4 mph N11.9 kmh N 15.0 mph24.1 kmh 30.04 in1017.3 mb 0.00 in0.0 mm 0.00 in0.0 mm 0.00 in0.0 mm
06:27 AM 73.4°F23.0°C 63.0°F17.2°C 70% 7.4 mph NNW11.9 kmh NNW 15.0 mph24.1 kmh 30.04 in1017.3 mb 0.00 in0.0 mm 0.00 in0.0 mm 0.00 in0.0 mm
06:26 AM 73.6°F23.1°C 63.1°F17.3°C 70% 7.4 mph NNE11.9 kmh NNE 11.0 mph17.7 kmh 30.04 in1017.3 mb 0.00 in0.0 mm 0.00 in0.0 mm 0.00 in0.0 mm
06:25 AM 73.6°F23.1°C 63.1°F17.3°C 70% 7.6 mph NNE12.2 kmh NNE 12.1 mph19.5 kmh 30.04 in1017.3 mb 0.00 in0.0 mm 0.00 in0.0 mm 0.00 in0.0 mm
06:24 AM 73.6°F23.1°C 63.1°F17.3°C 70% 7.4 mph NNW11.9 kmh NNW 11.0 mph17.7 kmh 30.04 in1017.3 mb 0.00 in0.0 mm 0.00 in0.0 mm 0.00 in0.0 mm
06:23 AM 73.4°F23.0°C 63.0°F17.2°C 70% 7.4 mph NNW11.9 kmh NNW 11.0 mph17.7 kmh 30.04 in1017.3 mb 0.00 in0.0 mm 0.00 in0.0 mm 0.00 in0.0 mm
06:22 AM 73.6°F23.1°C 63.1°F17.3°C 70% 7.8 mph N12.6 kmh N 11.0 mph17.7 kmh 30.04 in1017.3 mb 0.00 in0.0 mm 0.00 in0.0 mm 0.00 in0.0 mm
06:21 AM 73.4°F23.0°C 63.0°F17.2°C 70% 7.8 mph NW12.6 kmh NW 11.0 mph17.7 kmh 30.04 in1017.3 mb 0.00 in0.0 mm 0.00 in0.0 mm 0.00 in0.0 mm
06:20 AM 73.4°F23.0°C 63.0°F17.2°C 70% 8.1 mph NNW13.0 kmh NNW 13.0 mph20.9 kmh 30.04 in1017.3 mb 0.00 in0.0 mm 0.00 in0.0 mm 0.00 in0.0 mm
06:19 AM 73.4°F23.0°C 63.0°F17.2°C 70% 8.1 mph N13.0 kmh N 10.1 mph16.3 kmh 30.05 in1017.6 mb 0.00 in0.0 mm 0.00 in0.0 mm 0.00 in0.0 mm
06:18 AM 73.2°F22.9°C 62.8°F17.1°C 70% 8.5 mph N13.7 kmh N 15.0 mph24.1 kmh 30.05 in1017.6 mb 0.00 in0.0 mm 0.00 in0.0 mm 0.00 in0.0 mm
06:17 AM 73.2°F22.9°C 62.8°F17.1°C 70% 8.1 mph N13.0 kmh N 15.0 mph24.1 kmh 30.05 in1017.6 mb 0.00 in0.0 mm 0.00 in0.0 mm 0.00 in0.0 mm
06:16 AM 73.2°F22.9°C 62.8°F17.1°C 70% 7.6 mph N12.2 kmh N 11.0 mph17.7 kmh 30.05 in1017.6 mb 0.00 in0.0 mm 0.00 in0.0 mm 0.00 in0.0 mm
06:15 AM 73.2°F22.9°C 62.8°F17.1°C 70% 7.4 mph NW11.9 kmh NW 11.0 mph17.7 kmh 30.04 in1017.3 mb 0.00 in0.0 mm 0.00 in0.0 mm 0.00 in0.0 mm
06:14 AM 73.2°F22.9°C 62.8°F17.1°C 70% 7.4 mph NW11.9 kmh NW 11.0 mph17.7 kmh 30.05 in1017.6 mb 0.00 in0.0 mm 0.00 in0.0 mm 0.00 in0.0 mm
06:13 AM 73.2°F22.9°C 62.8°F17.1°C 70% 7.4 mph 11.9 kmh 15.0 mph24.1 kmh 30.05 in1017.6 mb 0.00 in0.0 mm 0.00 in0.0 mm 0.00 in0.0 mm
06:12 AM 73.0°F22.8°C 63.1°F17.3°C 71% 7.2 mph NW11.6 kmh NW 15.0 mph24.1 kmh 30.04 in1017.3 mb 0.00 in0.0 mm 0.00 in0.0 mm 0.00 in0.0 mm
06:11 AM 73.0°F22.8°C 62.6°F17.0°C 70% 6.9 mph N11.1 kmh N 13.0 mph20.9 kmh 30.04 in1017.3 mb 0.00 in0.0 mm 0.00 in0.0 mm 0.00 in0.0 mm
06:10 AM 73.0°F22.8°C 62.6°F17.0°C 70% 6.9 mph N11.1 kmh N 16.1 mph25.9 kmh 30.04 in1017.3 mb 0.00 in0.0 mm 0.00 in0.0 mm 0.00 in0.0 mm
06:09 AM 73.0°F22.8°C 63.1°F17.3°C 71% 6.7 mph NNW10.8 kmh NNW 14.1 mph22.7 kmh 30.04 in1017.3 mb 0.00 in0.0 mm 0.00 in0.0 mm 0.00 in0.0 mm
06:08 AM 73.0°F22.8°C 63.1°F17.3°C 71% 6.3 mph NW10.1 kmh NW 13.0 mph20.9 kmh 30.04 in1017.3 mb 0.00 in0.0 mm 0.00 in0.0 mm 0.00 in0.0 mm
06:07 AM 73.0°F22.8°C 62.6°F17.0°C 70% 6.5 mph N10.5 kmh N 10.1 mph16.3 kmh 30.04 in1017.3 mb 0.00 in0.0 mm 0.00 in0.0 mm 0.00 in0.0 mm
06:06 AM 73.0°F22.8°C 62.6°F17.0°C 70% 6.5 mph NW10.5 kmh NW 8.9 mph14.3 kmh 30.04 in1017.3 mb 0.00 in0.0 mm 0.00 in0.0 mm 0.00 in0.0 mm
06:05 AM 73.0°F22.8°C 62.6°F17.0°C 70% 6.7 mph N10.8 kmh N 13.0 mph20.9 kmh 30.04 in1017.3 mb 0.00 in0.0 mm 0.00 in0.0 mm 0.00 in0.0 mm
06:04 AM 73.0°F22.8°C 62.6°F17.0°C 70% 6.5 mph NW10.5 kmh NW 12.1 mph19.5 kmh 30.04 in1017.3 mb 0.00 in0.0 mm 0.00 in0.0 mm 0.00 in0.0 mm
06:03 AM 73.0°F22.8°C 62.6°F17.0°C 70% 6.3 mph NNW10.1 kmh NNW 11.0 mph17.7 kmh 30.04 in1017.3 mb 0.00 in0.0 mm 0.00 in0.0 mm 0.00 in0.0 mm
06:02 AM 73.0°F22.8°C 62.6°F17.0°C 70% 6.0 mph NNW9.7 kmh NNW 11.0 mph17.7 kmh 30.04 in1017.3 mb 0.00 in0.0 mm 0.00 in0.0 mm 0.00 in0.0 mm
06:01 AM 73.0°F22.8°C 62.6°F17.0°C 70% 5.8 mph NNW9.3 kmh NNW 12.1 mph19.5 kmh 30.04 in1017.3 mb 0.00 in0.0 mm 0.00 in0.0 mm 0.00 in0.0 mm
06:00 AM 73.0°F22.8°C 62.6°F17.0°C 70% 5.6 mph NNW9.0 kmh NNW 10.1 mph16.3 kmh 30.04 in1017.3 mb 0.00 in0.0 mm 0.00 in0.0 mm 0.00 in0.0 mm
05:59 AM 73.0°F22.8°C 62.6°F17.0°C 70% 5.6 mph N9.0 kmh N 11.0 mph17.7 kmh 30.04 in1017.3 mb 0.00 in0.0 mm 0.00 in0.0 mm 0.00 in0.0 mm
05:58 AM 73.0°F22.8°C 62.6°F17.0°C 70% 5.6 mph NNE9.0 kmh NNE 12.1 mph19.5 kmh 30.04 in1017.3 mb 0.00 in0.0 mm 0.00 in0.0 mm 0.00 in0.0 mm
05:57 AM 73.0°F22.8°C 62.6°F17.0°C 70% 5.4 mph NW8.7 kmh NW 12.1 mph19.5 kmh 30.04 in1017.3 mb 0.00 in0.0 mm 0.00 in0.0 mm 0.00 in0.0 mm
05:56 AM 73.0°F22.8°C 62.6°F17.0°C 70% 5.1 mph N8.2 kmh N 10.1 mph16.3 kmh 30.04 in1017.3 mb 0.00 in0.0 mm 0.00 in0.0 mm 0.00 in0.0 mm
05:55 AM 73.0°F22.8°C 62.6°F17.0°C 70% 5.1 mph NNW8.2 kmh NNW 10.1 mph16.3 kmh 30.04 in1017.3 mb 0.00 in0.0 mm 0.00 in0.0 mm 0.00 in0.0 mm
05:54 AM 73.0°F22.8°C 62.6°F17.0°C 70% 5.4 mph 8.7 kmh 11.0 mph17.7 kmh 30.04 in1017.3 mb 0.00 in0.0 mm 0.00 in0.0 mm 0.00 in0.0 mm
05:53 AM 73.0°F22.8°C 62.6°F17.0°C 70% 5.1 mph NNE8.2 kmh NNE 8.9 mph14.3 kmh 30.04 in1017.3 mb 0.00 in0.0 mm 0.00 in0.0 mm 0.00 in0.0 mm
05:52 AM 73.0°F22.8°C 62.6°F17.0°C 70% 4.9 mph NE7.9 kmh NE 8.9 mph14.3 kmh 30.04 in1017.3 mb 0.00 in0.0 mm 0.00 in0.0 mm 0.00 in0.0 mm
05:51 AM 73.0°F22.8°C 62.6°F17.0°C 70% 5.1 mph N8.2 kmh N 8.9 mph14.3 kmh 30.04 in1017.3 mb 0.00 in0.0 mm 0.00 in0.0 mm 0.00 in0.0 mm
05:50 AM 73.0°F22.8°C 63.1°F17.3°C 71% 5.4 mph NNE8.7 kmh NNE 8.1 mph13.0 kmh 30.04 in1017.3 mb 0.00 in0.0 mm 0.00 in0.0 mm 0.00 in0.0 mm
05:49 AM 73.0°F22.8°C 63.1°F17.3°C 71% 5.6 mph N9.0 kmh N 12.1 mph19.5 kmh 30.04 in1017.3 mb 0.00 in0.0 mm 0.00 in0.0 mm 0.00 in0.0 mm
05:48 AM 73.0°F22.8°C 63.1°F17.3°C 71% 5.6 mph N9.0 kmh N 10.1 mph16.3 kmh 30.04 in1017.3 mb 0.00 in0.0 mm 0.00 in0.0 mm 0.00 in0.0 mm
05:47 AM 73.0°F22.8°C 63.1°F17.3°C 71% 5.8 mph N9.3 kmh N 10.1 mph16.3 kmh 30.04 in1017.3 mb 0.00 in0.0 mm 0.00 in0.0 mm 0.00 in0.0 mm
05:46 AM 73.0°F22.8°C 62.6°F17.0°C 70% 5.6 mph N9.0 kmh N 11.0 mph17.7 kmh 30.04 in1017.3 mb 0.00 in0.0 mm 0.00 in0.0 mm 0.00 in0.0 mm
05:45 AM 73.0°F22.8°C 63.1°F17.3°C 71% 5.4 mph NNW8.7 kmh NNW 11.0 mph17.7 kmh 30.04 in1017.3 mb 0.00 in0.0 mm 0.00 in0.0 mm 0.00 in0.0 mm
05:44 AM 73.0°F22.8°C 63.1°F17.3°C 71% 5.1 mph N8.2 kmh N 8.1 mph13.0 kmh 30.04 in1017.3 mb 0.00 in0.0 mm 0.00 in0.0 mm 0.00 in0.0 mm
05:43 AM 73.0°F22.8°C 62.6°F17.0°C 70% 5.1 mph NNW8.2 kmh NNW 8.9 mph14.3 kmh 30.04 in1017.3 mb 0.00 in0.0 mm 0.00 in0.0 mm 0.00 in0.0 mm
05:42 AM 73.0°F22.8°C 62.6°F17.0°C 70% 4.9 mph NNW7.9 kmh NNW 10.1 mph16.3 kmh 30.04 in1017.3 mb 0.00 in0.0 mm 0.00 in0.0 mm 0.00 in0.0 mm
05:41 AM 73.0°F22.8°C 62.6°F17.0°C 70% 4.7 mph WNW7.6 kmh WNW 10.1 mph16.3 kmh 30.04 in1017.3 mb 0.00 in0.0 mm 0.00 in0.0 mm 0.00 in0.0 mm
05:40 AM 73.0°F22.8°C 62.6°F17.0°C 70% 4.7 mph 7.6 kmh 8.9 mph14.3 kmh 30.04 in1017.3 mb 0.00 in0.0 mm 0.00 in0.0 mm 0.00 in0.0 mm
05:39 AM 73.0°F22.8°C 62.6°F17.0°C 70% 4.5 mph N7.2 kmh N 12.1 mph19.5 kmh 30.04 in1017.3 mb 0.00 in0.0 mm 0.00 in0.0 mm 0.00 in0.0 mm
05:38 AM 73.0°F22.8°C 63.1°F17.3°C 71% 4.5 mph NW7.2 kmh NW 13.0 mph20.9 kmh 30.04 in1017.3 mb 0.00 in0.0 mm 0.00 in0.0 mm 0.00 in0.0 mm
05:37 AM 73.0°F22.8°C 63.1°F17.3°C 71% 4.0 mph NNW6.4 kmh NNW 8.1 mph13.0 kmh 30.04 in1017.3 mb 0.00 in0.0 mm 0.00 in0.0 mm 0.00 in0.0 mm
05:36 AM 73.0°F22.8°C 63.1°F17.3°C 71% 4.3 mph NNW6.9 kmh NNW 4.9 mph7.9 kmh 30.04 in1017.3 mb 0.00 in0.0 mm 0.00 in0.0 mm 0.00 in0.0 mm
05:35 AM 73.0°F22.8°C 63.1°F17.3°C 71% 4.5 mph NNW7.2 kmh NNW 8.1 mph13.0 kmh 30.04 in1017.3 mb 0.00 in0.0 mm 0.00 in0.0 mm 0.00 in0.0 mm
05:34 AM 73.0°F22.8°C 63.1°F17.3°C 71% 4.5 mph NNE7.2 kmh NNE 8.9 mph14.3 kmh 30.04 in1017.3 mb 0.00 in0.0 mm 0.00 in0.0 mm 0.00 in0.0 mm
05:33 AM 73.0°F22.8°C 63.1°F17.3°C 71% 4.7 mph N7.6 kmh N 4.9 mph7.9 kmh 30.04 in1017.3 mb 0.00 in0.0 mm 0.00 in0.0 mm 0.00 in0.0 mm
05:32 AM 73.0°F22.8°C 63.1°F17.3°C 71% 4.7 mph N7.6 kmh N 8.9 mph14.3 kmh 30.04 in1017.3 mb 0.00 in0.0 mm 0.00 in0.0 mm 0.00 in0.0 mm
05:31 AM 73.0°F22.8°C 63.1°F17.3°C 71% 4.7 mph N7.6 kmh N 10.1 mph16.3 kmh 30.04 in1017.3 mb 0.00 in0.0 mm 0.00 in0.0 mm 0.00 in0.0 mm
05:30 AM 73.0°F22.8°C 63.1°F17.3°C 71% 4.5 mph NNW7.2 kmh NNW 12.1 mph19.5 kmh 30.04 in1017.3 mb 0.00 in0.0 mm 0.00 in0.0 mm 0.00 in0.0 mm
05:29 AM 73.0°F22.8°C 63.1°F17.3°C 71% 4.5 mph N7.2 kmh N 10.1 mph16.3 kmh 30.04 in1017.3 mb 0.00 in0.0 mm 0.00 in0.0 mm 0.00 in0.0 mm
05:28 AM 73.0°F22.8°C 63.1°F17.3°C 71% 4.3 mph NNW6.9 kmh NNW 10.1 mph16.3 kmh 30.04 in1017.3 mb 0.00 in0.0 mm 0.00 in0.0 mm 0.00 in0.0 mm
05:27 AM 73.0°F22.8°C 63.1°F17.3°C 71% 4.3 mph N6.9 kmh N 8.1 mph13.0 kmh 30.04 in1017.3 mb 0.00 in0.0 mm 0.00 in0.0 mm 0.00 in0.0 mm
05:26 AM 73.0°F22.8°C 63.1°F17.3°C 71% 4.0 mph N6.4 kmh N 8.1 mph13.0 kmh 30.04 in1017.3 mb 0.00 in0.0 mm 0.00 in0.0 mm 0.00 in0.0 mm
05:25 AM 73.0°F22.8°C 63.1°F17.3°C 71% 4.3 mph N6.9 kmh N 8.9 mph14.3 kmh 30.04 in1017.3 mb 0.00 in0.0 mm 0.00 in0.0 mm 0.00 in0.0 mm
05:24 AM 73.0°F22.8°C 63.1°F17.3°C 71% 4.5 mph N7.2 kmh N 8.9 mph14.3 kmh 30.04 in1017.3 mb 0.00 in0.0 mm 0.00 in0.0 mm 0.00 in0.0 mm
05:23 AM 73.0°F22.8°C 63.1°F17.3°C 71% 4.5 mph NNE7.2 kmh NNE 8.9 mph14.3 kmh 30.04 in1017.3 mb 0.00 in0.0 mm 0.00 in0.0 mm 0.00 in0.0 mm
05:22 AM 73.0°F22.8°C 63.1°F17.3°C 71% 4.7 mph N7.6 kmh N 4.9 mph7.9 kmh 30.04 in1017.3 mb 0.00 in0.0 mm 0.00 in0.0 mm 0.00 in0.0 mm
05:21 AM 73.0°F22.8°C 63.1°F17.3°C 71% 4.7 mph 7.6 kmh 6.0 mph9.7 kmh 30.04 in1017.3 mb 0.00 in0.0 mm 0.00 in0.0 mm 0.00 in0.0 mm
05:19 AM 73.0°F22.8°C 63.1°F17.3°C 71% 4.7 mph N7.6 kmh N 6.9 mph11.1 kmh 30.04 in1017.3 mb 0.00 in0.0 mm 0.00 in0.0 mm 0.00 in0.0 mm
05:18 AM 73.0°F22.8°C 63.1°F17.3°C 71% 4.7 mph N7.6 kmh N 6.0 mph9.7 kmh 30.04 in1017.3 mb 0.00 in0.0 mm 0.00 in0.0 mm 0.00 in0.0 mm
05:17 AM 73.0°F22.8°C 63.1°F17.3°C 71% 4.5 mph NNE7.2 kmh NNE 4.9 mph7.9 kmh 30.03 in1016.9 mb 0.00 in0.0 mm 0.00 in0.0 mm 0.00 in0.0 mm
05:16 AM 73.0°F22.8°C 63.1°F17.3°C 71% 4.5 mph NNE7.2 kmh NNE 6.0 mph9.7 kmh 30.04 in1017.3 mb 0.00 in0.0 mm 0.00 in0.0 mm 0.00 in0.0 mm
05:15 AM 73.0°F22.8°C 63.1°F17.3°C 71% 4.0 mph NW6.4 kmh NW 12.1 mph19.5 kmh 30.03 in1016.9 mb 0.00 in0.0 mm 0.00 in0.0 mm 0.00 in0.0 mm
05:14 AM 73.0°F22.8°C 63.1°F17.3°C 71% 4.0 mph N6.4 kmh N 11.0 mph17.7 kmh 30.04 in1017.3 mb 0.00 in0.0 mm 0.00 in0.0 mm 0.00 in0.0 mm
05:13 AM 73.0°F22.8°C 63.1°F17.3°C 71% 3.8 mph N6.1 kmh N 11.0 mph17.7 kmh 30.04 in1017.3 mb 0.00 in0.0 mm 0.00 in0.0 mm 0.00 in0.0 mm
05:12 AM 73.0°F22.8°C 63.5°F17.5°C 72% 3.4 mph WNW5.5 kmh WNW 10.1 mph16.3 kmh 30.04 in1017.3 mb 0.00 in0.0 mm 0.00 in0.0 mm 0.00 in0.0 mm
05:11 AM 73.2°F22.9°C 63.7°F17.6°C 72% 3.4 mph N5.5 kmh N 8.9 mph14.3 kmh 30.04 in1017.3 mb 0.00 in0.0 mm 0.00 in0.0 mm 0.00 in0.0 mm
05:10 AM 73.2°F22.9°C 63.7°F17.6°C 72% 3.4 mph N5.5 kmh N 6.9 mph11.1 kmh 30.04 in1017.3 mb 0.00 in0.0 mm 0.00 in0.0 mm 0.00 in0.0 mm
05:09 AM 73.2°F22.9°C 63.7°F17.6°C 72% 3.6 mph NNE5.8 kmh NNE 6.9 mph11.1 kmh 30.04 in1017.3 mb 0.00 in0.0 mm 0.00 in0.0 mm 0.00 in0.0 mm
05:08 AM 73.2°F22.9°C 63.7°F17.6°C 72% 3.4 mph N5.5 kmh N 6.9 mph11.1 kmh 30.04 in1017.3 mb 0.00 in0.0 mm 0.00 in0.0 mm 0.00 in0.0 mm
05:07 AM 73.2°F22.9°C 63.7°F17.6°C 72% 3.4 mph 5.5 kmh 4.9 mph7.9 kmh 30.04 in1017.3 mb 0.00 in0.0 mm 0.00 in0.0 mm 0.00 in0.0 mm
05:06 AM 73.2°F22.9°C 63.7°F17.6°C 72% 3.8 mph NNE6.1 kmh NNE 4.9 mph7.9 kmh 30.04 in1017.3 mb 0.00 in0.0 mm 0.00 in0.0 mm 0.00 in0.0 mm
05:05 AM 73.2°F22.9°C 63.7°F17.6°C 72% 4.0 mph NW6.4 kmh NW 6.0 mph9.7 kmh 30.04 in1017.3 mb 0.00 in0.0 mm 0.00 in0.0 mm 0.00 in0.0 mm
05:04 AM 73.2°F22.9°C 63.7°F17.6°C 72% 4.0 mph NNW6.4 kmh NNW 8.1 mph13.0 kmh 30.04 in1017.3 mb 0.00 in0.0 mm 0.00 in0.0 mm 0.00 in0.0 mm
05:03 AM 73.2°F22.9°C 63.7°F17.6°C 72% 3.8 mph N6.1 kmh N 8.1 mph13.0 kmh 30.03 in1016.9 mb 0.00 in0.0 mm 0.00 in0.0 mm 0.00 in0.0 mm
05:02 AM 73.4°F23.0°C 63.9°F17.7°C 72% 4.0 mph N6.4 kmh N 8.9 mph14.3 kmh 30.04 in1017.3 mb 0.00 in0.0 mm 0.00 in0.0 mm 0.00 in0.0 mm
05:01 AM 73.4°F23.0°C 63.9°F17.7°C 72% 3.8 mph 6.1 kmh 8.9 mph14.3 kmh 30.04 in1017.3 mb 0.00 in0.0 mm 0.00 in0.0 mm 0.00 in0.0 mm
05:00 AM 73.4°F23.0°C 63.9°F17.7°C 72% 4.0 mph N6.4 kmh N 8.9 mph14.3 kmh 30.04 in1017.3 mb 0.00 in0.0 mm 0.00 in0.0 mm 0.00 in0.0 mm
04:59 AM 73.4°F23.0°C 63.9°F17.7°C 72% 4.3 mph NW6.9 kmh NW 8.1 mph13.0 kmh 30.06 in1017.9 mb 0.00 in0.0 mm 0.00 in0.0 mm 0.00 in0.0 mm
04:58 AM 73.4°F23.0°C 63.9°F17.7°C 72% 4.3 mph NNW6.9 kmh NNW 6.0 mph9.7 kmh 30.04 in1017.3 mb 0.00 in0.0 mm 0.00 in0.0 mm 0.00 in0.0 mm
04:57 AM 73.4°F23.0°C 63.9°F17.7°C 72% 4.5 mph N7.2 kmh N 10.1 mph16.3 kmh 30.04 in1017.3 mb 0.00 in0.0 mm 0.00 in0.0 mm 0.00 in0.0 mm
04:56 AM 73.4°F23.0°C 63.9°F17.7°C 72% 4.3 mph 6.9 kmh 10.1 mph16.3 kmh 30.04 in1017.3 mb 0.00 in0.0 mm 0.00 in0.0 mm 0.00 in0.0 mm
04:52 AM 73.4°F23.0°C 63.9°F17.7°C 72% 4.7 mph N7.6 kmh N 6.9 mph11.1 kmh 30.04 in1017.3 mb 0.00 in0.0 mm 0.00 in0.0 mm 0.00 in0.0 mm
04:51 AM 73.4°F23.0°C 63.9°F17.7°C 72% 4.7 mph NNW7.6 kmh NNW 12.1 mph19.5 kmh 30.04 in1017.3 mb 0.00 in0.0 mm 0.00 in0.0 mm 0.00 in0.0 mm
04:50 AM 73.4°F23.0°C 63.9°F17.7°C 72% 4.5 mph NNE7.2 kmh NNE 12.1 mph19.5 kmh 30.04 in1017.3 mb 0.00 in0.0 mm 0.00 in0.0 mm 0.00 in0.0 mm
04:49 AM 73.4°F23.0°C 64.2°F17.9°C 73% 4.7 mph NW7.6 kmh NW 11.0 mph17.7 kmh 30.04 in1017.3 mb 0.00 in0.0 mm 0.00 in0.0 mm 0.00 in0.0 mm
04:48 AM 73.4°F23.0°C 64.2°F17.9°C 73% 4.7 mph N7.6 kmh N 10.1 mph16.3 kmh 30.04 in1017.3 mb 0.00 in0.0 mm 0.00 in0.0 mm 0.00 in0.0 mm
04:47 AM 73.4°F23.0°C 63.9°F17.7°C 72% 4.7 mph 7.6 kmh 8.9 mph14.3 kmh 30.04 in1017.3 mb 0.00 in0.0 mm 0.00 in0.0 mm 0.00 in0.0 mm
04:46 AM 73.6°F23.1°C 64.4°F18.0°C 73% 4.7 mph N7.6 kmh N 8.1 mph13.0 kmh 30.04 in1017.3 mb 0.00 in0.0 mm 0.00 in0.0 mm 0.00 in0.0 mm
04:45 AM 73.6°F23.1°C 64.4°F18.0°C 73% 4.7 mph N7.6 kmh N 6.9 mph11.1 kmh 30.04 in1017.3 mb 0.00 in0.0 mm 0.00 in0.0 mm 0.00 in0.0 mm
04:44 AM 73.6°F23.1°C 64.4°F18.0°C 73% 4.7 mph NW7.6 kmh NW 6.9 mph11.1 kmh 30.04 in1017.3 mb 0.00 in0.0 mm 0.00 in0.0 mm 0.00 in0.0 mm
04:43 AM 73.6°F23.1°C 64.4°F18.0°C 73% 4.7 mph NNW7.6 kmh NNW 6.0 mph9.7 kmh 30.04 in1017.3 mb 0.00 in0.0 mm 0.00 in0.0 mm 0.00 in0.0 mm
04:42 AM 73.8°F23.2°C 64.6°F18.1°C 73% 4.5 mph NNE7.2 kmh NNE 8.9 mph14.3 kmh 30.04 in1017.3 mb 0.00 in0.0 mm 0.00 in0.0 mm 0.00 in0.0 mm
04:41 AM 73.8°F23.2°C 64.6°F18.1°C 73% 4.7 mph N7.6 kmh N 6.0 mph9.7 kmh 30.04 in1017.3 mb 0.00 in0.0 mm 0.00 in0.0 mm 0.00 in0.0 mm
04:40 AM 73.8°F23.2°C 64.6°F18.1°C 73% 4.7 mph 7.6 kmh 6.0 mph9.7 kmh 30.04 in1017.3 mb 0.00 in0.0 mm 0.00 in0.0 mm 0.00 in0.0 mm
04:39 AM 73.8°F23.2°C 64.6°F18.1°C 73% 4.7 mph NE7.6 kmh NE 8.9 mph14.3 kmh 30.04 in1017.3 mb 0.00 in0.0 mm 0.00 in0.0 mm 0.00 in0.0 mm
04:38 AM 73.8°F23.2°C 64.6°F18.1°C 73% 4.7 mph NNE7.6 kmh NNE 8.9 mph14.3 kmh 30.04 in1017.3 mb 0.00 in0.0 mm 0.00 in0.0 mm 0.00 in0.0 mm
04:37 AM 73.8°F23.2°C 64.6°F18.1°C 73% 4.7 mph NNE7.6 kmh NNE 8.1 mph13.0 kmh 30.04 in1017.3 mb 0.00 in0.0 mm 0.00 in0.0 mm 0.00 in0.0 mm
04:36 AM 73.9°F23.3°C 64.8°F18.2°C 73% 4.7 mph N7.6 kmh N 10.1 mph16.3 kmh 30.04 in1017.3 mb 0.00 in0.0 mm 0.00 in0.0 mm 0.00 in0.0 mm
04:35 AM 73.8°F23.2°C 64.6°F18.1°C 73% 4.5 mph N7.2 kmh N 10.1 mph16.3 kmh 30.04 in1017.3 mb 0.00 in0.0 mm 0.00 in0.0 mm 0.00 in0.0 mm
04:34 AM 73.9°F23.3°C 64.4°F18.0°C 72% 4.5 mph 7.2 kmh 8.9 mph14.3 kmh 30.04 in1017.3 mb 0.00 in0.0 mm 0.00 in0.0 mm 0.00 in0.0 mm
04:33 AM 73.8°F23.2°C 64.2°F17.9°C 72% 4.7 mph N7.6 kmh N 8.1 mph13.0 kmh 30.03 in1016.9 mb 0.00 in0.0 mm 0.00 in0.0 mm 0.00 in0.0 mm
04:32 AM 73.9°F23.3°C 64.8°F18.2°C 73% 4.7 mph N7.6 kmh N 4.9 mph7.9 kmh 30.04 in1017.3 mb 0.00 in0.0 mm 0.00 in0.0 mm 0.00 in0.0 mm
04:31 AM 73.9°F23.3°C 64.4°F18.0°C 72% 4.7 mph NNE7.6 kmh NNE 10.1 mph16.3 kmh 30.04 in1017.3 mb 0.00 in0.0 mm 0.00 in0.0 mm 0.00 in0.0 mm
04:30 AM 73.9°F23.3°C 64.8°F18.2°C 73% 4.7 mph NW7.6 kmh NW 8.9 mph14.3 kmh 30.04 in1017.3 mb 0.00 in0.0 mm 0.00 in0.0 mm 0.00 in0.0 mm
04:29 AM 73.8°F23.2°C 64.6°F18.1°C 73% 4.7 mph N7.6 kmh N 8.1 mph13.0 kmh 30.03 in1016.9 mb 0.00 in0.0 mm 0.00 in0.0 mm 0.00 in0.0 mm
04:28 AM 73.9°F23.3°C 64.8°F18.2°C 73% 4.7 mph NNE7.6 kmh NNE 10.1 mph16.3 kmh 30.04 in1017.3 mb 0.00 in0.0 mm 0.00 in0.0 mm 0.00 in0.0 mm
04:27 AM 73.9°F23.3°C 64.8°F18.2°C 73% 4.7 mph N7.6 kmh N 10.1 mph16.3 kmh 30.04 in1017.3 mb 0.00 in0.0 mm 0.00 in0.0 mm 0.00 in0.0 mm
04:26 AM 73.9°F23.3°C 64.8°F18.2°C 73% 4.7 mph N7.6 kmh N 6.0 mph9.7 kmh 30.04 in1017.3 mb 0.00 in0.0 mm 0.00 in0.0 mm 0.00 in0.0 mm
04:25 AM 73.9°F23.3°C 64.8°F18.2°C 73% 4.9 mph NE7.9 kmh NE 6.0 mph9.7 kmh 30.04 in1017.3 mb 0.00 in0.0 mm 0.00 in0.0 mm 0.00 in0.0 mm
04:24 AM 73.9°F23.3°C 64.8°F18.2°C 73% 5.1 mph N8.2 kmh N 8.1 mph13.0 kmh 30.04 in1017.3 mb 0.00 in0.0 mm 0.00 in0.0 mm 0.00 in0.0 mm
04:23 AM 73.9°F23.3°C 64.8°F18.2°C 73% 5.1 mph 8.2 kmh 12.1 mph19.5 kmh 30.03 in1016.9 mb 0.00 in0.0 mm 0.00 in0.0 mm 0.00 in0.0 mm
04:22 AM 73.9°F23.3°C 64.8°F18.2°C 73% 4.9 mph NW7.9 kmh NW 8.9 mph14.3 kmh 30.03 in1016.9 mb 0.00 in0.0 mm 0.00 in0.0 mm 0.00 in0.0 mm
04:21 AM 73.9°F23.3°C 64.8°F18.2°C 73% 4.9 mph N7.9 kmh N 8.1 mph13.0 kmh 30.03 in1016.9 mb 0.00 in0.0 mm 0.00 in0.0 mm 0.00 in0.0 mm
04:20 AM 73.9°F23.3°C 64.8°F18.2°C 73% 4.7 mph NNE7.6 kmh NNE 8.9 mph14.3 kmh 30.03 in1016.9 mb 0.00 in0.0 mm 0.00 in0.0 mm 0.00 in0.0 mm
04:19 AM 73.9°F23.3°C 64.8°F18.2°C 73% 4.7 mph NNE7.6 kmh NNE 8.9 mph14.3 kmh 30.03 in1016.9 mb 0.00 in0.0 mm 0.00 in0.0 mm 0.00 in0.0 mm
04:18 AM 73.9°F23.3°C 64.8°F18.2°C 73% 4.7 mph N7.6 kmh N 8.9 mph14.3 kmh 30.03 in1016.9 mb 0.00 in0.0 mm 0.00 in0.0 mm 0.00 in0.0 mm
04:17 AM 73.9°F23.3°C 64.8°F18.2°C 73% 4.7 mph N7.6 kmh N 8.9 mph14.3 kmh 30.03 in1016.9 mb 0.00 in0.0 mm 0.00 in0.0 mm 0.00 in0.0 mm
04:16 AM 73.9°F23.3°C 64.8°F18.2°C 73% 4.7 mph N7.6 kmh N 8.1 mph13.0 kmh 30.03 in1016.9 mb 0.00 in0.0 mm 0.00 in0.0 mm 0.00 in0.0 mm
04:15 AM 73.9°F23.3°C 64.8°F18.2°C 73% 4.9 mph NNE7.9 kmh NNE 8.9 mph14.3 kmh 30.03 in1016.9 mb 0.00 in0.0 mm 0.00 in0.0 mm 0.00 in0.0 mm
04:14 AM 74.1°F23.4°C 64.9°F18.3°C 73% 4.9 mph N7.9 kmh N 11.0 mph17.7 kmh 30.03 in1016.9 mb 0.00 in0.0 mm 0.00 in0.0 mm 0.00 in0.0 mm
04:13 AM 74.1°F23.4°C 64.9°F18.3°C 73% 5.1 mph NNE8.2 kmh NNE 6.9 mph11.1 kmh 30.03 in1016.9 mb 0.00 in0.0 mm 0.00 in0.0 mm 0.00 in0.0 mm
04:12 AM 74.1°F23.4°C 64.9°F18.3°C 73% 5.1 mph N8.2 kmh N 6.0 mph9.7 kmh 30.03 in1016.9 mb 0.00 in0.0 mm 0.00 in0.0 mm 0.00 in0.0 mm
04:11 AM 74.1°F23.4°C 64.9°F18.3°C 73% 5.1 mph NNE8.2 kmh NNE 6.0 mph9.7 kmh 30.03 in1016.9 mb 0.00 in0.0 mm 0.00 in0.0 mm 0.00 in0.0 mm
04:10 AM 74.1°F23.4°C 64.9°F18.3°C 73% 5.4 mph NE8.7 kmh NE 8.1 mph13.0 kmh 30.03 in1016.9 mb 0.00 in0.0 mm 0.00 in0.0 mm 0.00 in0.0 mm
04:09 AM 74.1°F23.4°C 64.9°F18.3°C 73% 5.6 mph 9.0 kmh 8.1 mph13.0 kmh 30.03 in1016.9 mb 0.00 in0.0 mm 0.00 in0.0 mm 0.00 in0.0 mm
04:08 AM 74.1°F23.4°C 64.9°F18.3°C 73% 5.4 mph 8.7 kmh 11.0 mph17.7 kmh 30.03 in1016.9 mb 0.00 in0.0 mm 0.00 in0.0 mm 0.00 in0.0 mm
04:07 AM 74.1°F23.4°C 64.9°F18.3°C 73% 5.4 mph NNE8.7 kmh NNE 6.9 mph11.1 kmh 30.03 in1016.9 mb 0.00 in0.0 mm 0.00 in0.0 mm 0.00 in0.0 mm
04:06 AM 74.1°F23.4°C 64.9°F18.3°C 73% 5.4 mph NNE8.7 kmh NNE 8.9 mph14.3 kmh 30.03 in1016.9 mb 0.00 in0.0 mm 0.00 in0.0 mm 0.00 in0.0 mm
04:05 AM 74.1°F23.4°C 64.9°F18.3°C 73% 5.4 mph NE8.7 kmh NE 10.1 mph16.3 kmh 30.03 in1016.9 mb 0.00 in0.0 mm 0.00 in0.0 mm 0.00 in0.0 mm
04:04 AM 74.1°F23.4°C 64.9°F18.3°C 73% 5.1 mph N8.2 kmh N 11.0 mph17.7 kmh 30.03 in1016.9 mb 0.00 in0.0 mm 0.00 in0.0 mm 0.00 in0.0 mm
04:03 AM 74.1°F23.4°C 64.9°F18.3°C 73% 5.1 mph N8.2 kmh N 10.1 mph16.3 kmh 30.03 in1016.9 mb 0.00 in0.0 mm 0.00 in0.0 mm 0.00 in0.0 mm
04:02 AM 74.1°F23.4°C 64.9°F18.3°C 73% 5.1 mph NE8.2 kmh NE 8.1 mph13.0 kmh 30.03 in1016.9 mb 0.00 in0.0 mm 0.00 in0.0 mm 0.00 in0.0 mm
04:01 AM 74.1°F23.4°C 64.9°F18.3°C 73% 5.1 mph NNE8.2 kmh NNE 11.0 mph17.7 kmh 30.03 in1016.9 mb 0.00 in0.0 mm 0.00 in0.0 mm 0.00 in0.0 mm
04:00 AM 74.1°F23.4°C 64.9°F18.3°C 73% 4.9 mph N7.9 kmh N 11.0 mph17.7 kmh 30.03 in1016.9 mb 0.00 in0.0 mm 0.00 in0.0 mm 0.00 in0.0 mm
03:59 AM 74.1°F23.4°C 64.9°F18.3°C 73% 4.9 mph NNE7.9 kmh NNE 8.9 mph14.3 kmh 30.03 in1016.9 mb 0.00 in0.0 mm 0.00 in0.0 mm 0.00 in0.0 mm
03:58 AM 74.1°F23.4°C 65.3°F18.5°C 74% 4.9 mph NNE7.9 kmh NNE 8.1 mph13.0 kmh 30.03 in1016.9 mb 0.00 in0.0 mm 0.00 in0.0 mm 0.00 in0.0 mm
03:57 AM 74.1°F23.4°C 65.3°F18.5°C 74% 4.9 mph NE7.9 kmh NE 10.1 mph16.3 kmh 30.03 in1016.9 mb 0.00 in0.0 mm 0.00 in0.0 mm 0.00 in0.0 mm
03:56 AM 74.1°F23.4°C 65.3°F18.5°C 74% 5.1 mph N8.2 kmh N 8.1 mph13.0 kmh 30.03 in1016.9 mb 0.00 in0.0 mm 0.00 in0.0 mm 0.00 in0.0 mm
03:55 AM 74.1°F23.4°C 65.3°F18.5°C 74% 5.1 mph N8.2 kmh N 8.9 mph14.3 kmh 30.03 in1016.9 mb 0.00 in0.0 mm 0.00 in0.0 mm 0.00 in0.0 mm
03:54 AM 74.3°F23.5°C 65.5°F18.6°C 74% 5.1 mph N8.2 kmh N 8.9 mph14.3 kmh 30.03 in1016.9 mb 0.00 in0.0 mm 0.00 in0.0 mm 0.00 in0.0 mm
03:53 AM 74.3°F23.5°C 65.5°F18.6°C 74% 5.1 mph NNE8.2 kmh NNE 10.1 mph16.3 kmh 30.03 in1016.9 mb 0.00 in0.0 mm 0.00 in0.0 mm 0.00 in0.0 mm
03:52 AM 74.3°F23.5°C 65.5°F18.6°C 74% 5.1 mph N8.2 kmh N 10.1 mph16.3 kmh 30.03 in1016.9 mb 0.00 in0.0 mm 0.00 in0.0 mm 0.00 in0.0 mm
03:51 AM 74.3°F23.5°C 65.5°F18.6°C 74% 5.1 mph N8.2 kmh N 8.1 mph13.0 kmh 30.03 in1016.9 mb 0.00 in0.0 mm 0.00 in0.0 mm 0.00 in0.0 mm
03:50 AM 74.5°F23.6°C 65.7°F18.7°C 74% 5.1 mph NNE8.2 kmh NNE 6.9 mph11.1 kmh 30.03 in1016.9 mb 0.00 in0.0 mm 0.00 in0.0 mm 0.00 in0.0 mm
03:49 AM 74.5°F23.6°C 65.7°F18.7°C 74% 5.1 mph NNE8.2 kmh NNE 6.9 mph11.1 kmh 30.03 in1016.9 mb 0.00 in0.0 mm 0.00 in0.0 mm 0.00 in0.0 mm
03:48 AM 74.5°F23.6°C 65.7°F18.7°C 74% 4.9 mph N7.9 kmh N 8.1 mph13.0 kmh 30.03 in1016.9 mb 0.00 in0.0 mm 0.00 in0.0 mm 0.00 in0.0 mm
03:47 AM 74.5°F23.6°C 65.7°F18.7°C 74% 4.7 mph NNE7.6 kmh NNE 10.1 mph16.3 kmh 30.03 in1016.9 mb 0.00 in0.0 mm 0.00 in0.0 mm 0.00 in0.0 mm
03:46 AM 74.5°F23.6°C 65.7°F18.7°C 74% 4.7 mph NNE7.6 kmh NNE 10.1 mph16.3 kmh 30.03 in1016.9 mb 0.00 in0.0 mm 0.00 in0.0 mm 0.00 in0.0 mm
03:45 AM 74.5°F23.6°C 65.7°F18.7°C 74% 4.5 mph NE7.2 kmh NE 10.1 mph16.3 kmh 30.03 in1016.9 mb 0.00 in0.0 mm 0.00 in0.0 mm 0.00 in0.0 mm
03:44 AM 74.5°F23.6°C 65.7°F18.7°C 74% 4.3 mph NNE6.9 kmh NNE 8.9 mph14.3 kmh 30.03 in1016.9 mb 0.00 in0.0 mm 0.00 in0.0 mm 0.00 in0.0 mm
03:43 AM 74.5°F23.6°C 65.7°F18.7°C 74% 4.3 mph NNE6.9 kmh NNE 6.0 mph9.7 kmh 30.03 in1016.9 mb 0.00 in0.0 mm 0.00 in0.0 mm 0.00 in0.0 mm
03:42 AM 74.5°F23.6°C 65.7°F18.7°C 74% 4.0 mph N6.4 kmh N 10.1 mph16.3 kmh 30.03 in1016.9 mb 0.00 in0.0 mm 0.00 in0.0 mm 0.00 in0.0 mm
03:41 AM 74.5°F23.6°C 65.7°F18.7°C 74% 4.0 mph NE6.4 kmh NE 8.1 mph13.0 kmh 30.03 in1016.9 mb 0.00 in0.0 mm 0.00 in0.0 mm 0.00 in0.0 mm
03:40 AM 74.5°F23.6°C 65.7°F18.7°C 74% 3.8 mph N6.1 kmh N 11.0 mph17.7 kmh 30.03 in1016.9 mb 0.00 in0.0 mm 0.00 in0.0 mm 0.00 in0.0 mm
03:39 AM 74.5°F23.6°C 65.7°F18.7°C 74% 3.8 mph N6.1 kmh N 11.0 mph17.7 kmh 30.03 in1016.9 mb 0.00 in0.0 mm 0.00 in0.0 mm 0.00 in0.0 mm
03:38 AM 74.5°F23.6°C 65.7°F18.7°C 74% 4.5 mph NNE7.2 kmh NNE 6.0 mph9.7 kmh 30.03 in1016.9 mb 0.00 in0.0 mm 0.00 in0.0 mm 0.00 in0.0 mm
03:37 AM 74.5°F23.6°C 65.7°F18.7°C 74% 4.5 mph NNE7.2 kmh NNE 6.9 mph11.1 kmh 30.03 in1016.9 mb 0.00 in0.0 mm 0.00 in0.0 mm 0.00 in0.0 mm
03:36 AM 74.5°F23.6°C 65.7°F18.7°C 74% 4.5 mph N7.2 kmh N 8.1 mph13.0 kmh 30.03 in1016.9 mb 0.00 in0.0 mm 0.00 in0.0 mm 0.00 in0.0 mm
03:35 AM 74.5°F23.6°C 65.7°F18.7°C 74% 4.5 mph NE7.2 kmh NE 8.1 mph13.0 kmh 30.03 in1016.9 mb 0.00 in0.0 mm 0.00 in0.0 mm 0.00 in0.0 mm
03:34 AM 74.7°F23.7°C 65.8°F18.8°C 74% 4.3 mph N6.9 kmh N 8.9 mph14.3 kmh 30.03 in1016.9 mb 0.00 in0.0 mm 0.00 in0.0 mm 0.00 in0.0 mm
03:33 AM 74.7°F23.7°C 65.8°F18.8°C 74% 4.3 mph NE6.9 kmh NE 8.9 mph14.3 kmh 30.03 in1016.9 mb 0.00 in0.0 mm 0.00 in0.0 mm 0.00 in0.0 mm
03:32 AM 74.7°F23.7°C 65.8°F18.8°C 74% 4.0 mph NE6.4 kmh NE 4.9 mph7.9 kmh 30.03 in1016.9 mb 0.00 in0.0 mm 0.00 in0.0 mm 0.00 in0.0 mm
03:31 AM 74.7°F23.7°C 65.8°F18.8°C 74% 3.8 mph N6.1 kmh N 8.1 mph13.0 kmh 30.03 in1016.9 mb 0.00 in0.0 mm 0.00 in0.0 mm 0.00 in0.0 mm
03:30 AM 74.7°F23.7°C 65.8°F18.8°C 74% 3.8 mph NNE6.1 kmh NNE 6.9 mph11.1 kmh 30.03 in1016.9 mb 0.00 in0.0 mm 0.00 in0.0 mm 0.00 in0.0 mm
03:29 AM 74.7°F23.7°C 65.8°F18.8°C 74% 3.8 mph N6.1 kmh N 10.1 mph16.3 kmh 30.03 in1016.9 mb 0.00 in0.0 mm 0.00 in0.0 mm 0.00 in0.0 mm
03:28 AM 74.5°F23.6°C 65.7°F18.7°C 74% 3.4 mph N5.5 kmh N 6.9 mph11.1 kmh 30.03 in1016.9 mb 0.00 in0.0 mm 0.00 in0.0 mm 0.00 in0.0 mm
03:27 AM 74.7°F23.7°C 65.8°F18.8°C 74% 3.1 mph NE5.0 kmh NE 10.1 mph16.3 kmh 30.03 in1016.9 mb 0.00 in0.0 mm 0.00 in0.0 mm 0.00 in0.0 mm
03:26 AM 74.7°F23.7°C 65.8°F18.8°C 74% 2.9 mph NNE4.7 kmh NNE 8.9 mph14.3 kmh 30.03 in1016.9 mb 0.00 in0.0 mm 0.00 in0.0 mm 0.00 in0.0 mm
03:25 AM 74.7°F23.7°C 65.8°F18.8°C 74% 2.9 mph NE4.7 kmh NE 4.9 mph7.9 kmh 30.03 in1016.9 mb 0.00 in0.0 mm 0.00 in0.0 mm 0.00 in0.0 mm
03:24 AM 74.8°F23.8°C 65.7°F18.7°C 73% 2.7 mph NE4.3 kmh NE 4.9 mph7.9 kmh 30.03 in1016.9 mb 0.00 in0.0 mm 0.00 in0.0 mm 0.00 in0.0 mm
03:23 AM 74.7°F23.7°C 65.5°F18.6°C 73% 2.7 mph NE4.3 kmh NE 4.0 mph6.4 kmh 30.03 in1016.9 mb 0.00 in0.0 mm 0.00 in0.0 mm 0.00 in0.0 mm
03:22 AM 74.7°F23.7°C 65.5°F18.6°C 73% 2.9 mph N4.7 kmh N 4.0 mph6.4 kmh 30.03 in1016.9 mb 0.00 in0.0 mm 0.00 in0.0 mm 0.00 in0.0 mm
03:21 AM 74.7°F23.7°C 65.5°F18.6°C 73% 2.7 mph N4.3 kmh N 6.9 mph11.1 kmh 30.03 in1016.9 mb 0.00 in0.0 mm 0.00 in0.0 mm 0.00 in0.0 mm
03:20 AM 74.7°F23.7°C 65.5°F18.6°C 73% 2.7 mph NNE4.3 kmh NNE 4.0 mph6.4 kmh 30.03 in1016.9 mb 0.00 in0.0 mm 0.00 in0.0 mm 0.00 in0.0 mm
03:19 AM 74.8°F23.8°C 65.7°F18.7°C 73% 2.7 mph N4.3 kmh N 4.9 mph7.9 kmh 30.03 in1016.9 mb 0.00 in0.0 mm 0.00 in0.0 mm 0.00 in0.0 mm
03:18 AM 74.7°F23.7°C 65.5°F18.6°C 73% 2.5 mph NNE4.0 kmh NNE 4.9 mph7.9 kmh 30.03 in1016.9 mb 0.00 in0.0 mm 0.00 in0.0 mm 0.00 in0.0 mm
03:17 AM 74.8°F23.8°C 65.7°F18.7°C 73% 2.7 mph N4.3 kmh N 4.9 mph7.9 kmh 30.03 in1016.9 mb 0.00 in0.0 mm 0.00 in0.0 mm 0.00 in0.0 mm
03:16 AM 74.8°F23.8°C 65.7°F18.7°C 73% 2.5 mph N4.0 kmh N 4.9 mph7.9 kmh 30.03 in1016.9 mb 0.00 in0.0 mm 0.00 in0.0 mm 0.00 in0.0 mm
03:15 AM 74.8°F23.8°C 65.7°F18.7°C 73% 2.5 mph N4.0 kmh N 4.0 mph6.4 kmh 30.03 in1016.9 mb 0.00 in0.0 mm 0.00 in0.0 mm 0.00 in0.0 mm
03:14 AM 74.8°F23.8°C 65.7°F18.7°C 73% 2.5 mph N4.0 kmh N 2.9 mph4.7 kmh 30.03 in1016.9 mb 0.00 in0.0 mm 0.00 in0.0 mm 0.00 in0.0 mm
03:13 AM 74.8°F23.8°C 65.7°F18.7°C 73% 2.5 mph N4.0 kmh N 4.9 mph7.9 kmh 30.03 in1016.9 mb 0.00 in0.0 mm 0.00 in0.0 mm 0.00 in0.0 mm
03:12 AM 74.8°F23.8°C 66.0°F18.9°C 74% 2.5 mph N4.0 kmh N 4.9 mph7.9 kmh 30.03 in1016.9 mb 0.00 in0.0 mm 0.00 in0.0 mm 0.00 in0.0 mm
03:11 AM 74.7°F23.7°C 65.5°F18.6°C 73% 2.5 mph N4.0 kmh N 4.9 mph7.9 kmh 30.03 in1016.9 mb 0.00 in0.0 mm 0.00 in0.0 mm 0.00 in0.0 mm
03:10 AM 74.8°F23.8°C 65.7°F18.7°C 73% 2.2 mph NE3.5 kmh NE 4.0 mph6.4 kmh 30.03 in1016.9 mb 0.00 in0.0 mm 0.00 in0.0 mm 0.00 in0.0 mm
03:09 AM 74.7°F23.7°C 65.5°F18.6°C 73% 2.2 mph 3.5 kmh 4.0 mph6.4 kmh 30.03 in1016.9 mb 0.00 in0.0 mm 0.00 in0.0 mm 0.00 in0.0 mm
03:08 AM 74.7°F23.7°C 65.5°F18.6°C 73% 2.5 mph NW4.0 kmh NW 6.9 mph11.1 kmh 30.03 in1016.9 mb 0.00 in0.0 mm 0.00 in0.0 mm 0.00 in0.0 mm
03:07 AM 74.7°F23.7°C 65.8°F18.8°C 74% 2.2 mph N3.5 kmh N 6.9 mph11.1 kmh 30.04 in1017.3 mb 0.00 in0.0 mm 0.00 in0.0 mm 0.00 in0.0 mm
03:06 AM 74.7°F23.7°C 65.5°F18.6°C 73% 2.2 mph N3.5 kmh N 6.0 mph9.7 kmh 30.03 in1016.9 mb 0.00 in0.0 mm 0.00 in0.0 mm 0.00 in0.0 mm
03:05 AM 74.7°F23.7°C 65.5°F18.6°C 73% 2.2 mph NW3.5 kmh NW 2.9 mph4.7 kmh 30.03 in1016.9 mb 0.00 in0.0 mm 0.00 in0.0 mm 0.00 in0.0 mm
03:04 AM 74.7°F23.7°C 65.5°F18.6°C 73% 2.5 mph NNW4.0 kmh NNW 2.9 mph4.7 kmh 30.03 in1016.9 mb 0.00 in0.0 mm 0.00 in0.0 mm 0.00 in0.0 mm
03:03 AM 74.7°F23.7°C 65.5°F18.6°C 73% 2.0 mph N3.2 kmh N 8.1 mph13.0 kmh 30.03 in1016.9 mb 0.00 in0.0 mm 0.00 in0.0 mm 0.00 in0.0 mm
03:02 AM 74.7°F23.7°C 65.5°F18.6°C 73% 1.8 mph N2.9 kmh N 4.0 mph6.4 kmh 30.03 in1016.9 mb 0.00 in0.0 mm 0.00 in0.0 mm 0.00 in0.0 mm
03:01 AM 74.7°F23.7°C 65.5°F18.6°C 73% 1.8 mph NNW2.9 kmh NNW 2.0 mph3.2 kmh 30.03 in1016.9 mb 0.00 in0.0 mm 0.00 in0.0 mm 0.00 in0.0 mm
03:00 AM 74.7°F23.7°C 65.5°F18.6°C 73% 1.8 mph NNW2.9 kmh NNW 4.0 mph6.4 kmh 30.03 in1016.9 mb 0.00 in0.0 mm 0.00 in0.0 mm 0.00 in0.0 mm
02:59 AM 74.7°F23.7°C 65.5°F18.6°C 73% 1.6 mph N2.6 kmh N 4.0 mph6.4 kmh 30.03 in1016.9 mb 0.00 in0.0 mm 0.00 in0.0 mm 0.00 in0.0 mm
02:58 AM 74.7°F23.7°C 65.5°F18.6°C 73% 1.3 mph NNW2.1 kmh NNW 6.0 mph9.7 kmh 30.03 in1016.9 mb 0.00 in0.0 mm 0.00 in0.0 mm 0.00 in0.0 mm
02:57 AM 74.7°F23.7°C 65.5°F18.6°C 73% 1.6 mph NW2.6 kmh NW 4.0 mph6.4 kmh 30.03 in1016.9 mb 0.00 in0.0 mm 0.00 in0.0 mm 0.00 in0.0 mm
02:56 AM 74.7°F23.7°C 65.5°F18.6°C 73% 1.3 mph NNW2.1 kmh NNW 6.9 mph11.1 kmh 30.03 in1016.9 mb 0.00 in0.0 mm 0.00 in0.0 mm 0.00 in0.0 mm
02:55 AM 74.7°F23.7°C 65.5°F18.6°C 73% 1.6 mph NW2.6 kmh NW 4.0 mph6.4 kmh 30.03 in1016.9 mb 0.00 in0.0 mm 0.00 in0.0 mm 0.00 in0.0 mm
02:54 AM 74.7°F23.7°C 65.5°F18.6°C 73% 1.6 mph WNW2.6 kmh WNW 4.0 mph6.4 kmh 30.03 in1016.9 mb 0.00 in0.0 mm 0.00 in0.0 mm 0.00 in0.0 mm
02:53 AM 74.7°F23.7°C 65.5°F18.6°C 73% 1.8 mph NW2.9 kmh NW 2.0 mph3.2 kmh 30.03 in1016.9 mb 0.00 in0.0 mm 0.00 in0.0 mm 0.00 in0.0 mm
02:52 AM 74.7°F23.7°C 65.5°F18.6°C 73% 2.2 mph N3.5 kmh N 2.0 mph3.2 kmh 30.03 in1016.9 mb 0.00 in0.0 mm 0.00 in0.0 mm 0.00 in0.0 mm
02:51 AM 74.7°F23.7°C 65.5°F18.6°C 73% 2.5 mph N4.0 kmh N 2.9 mph4.7 kmh 30.04 in1017.3 mb 0.00 in0.0 mm 0.00 in0.0 mm 0.00 in0.0 mm
02:50 AM 74.5°F23.6°C 65.3°F18.5°C 73% 2.5 mph N4.0 kmh N 2.9 mph4.7 kmh 30.03 in1016.9 mb 0.00 in0.0 mm 0.00 in0.0 mm 0.00 in0.0 mm
02:49 AM 74.7°F23.7°C 65.5°F18.6°C 73% 2.7 mph N4.3 kmh N 2.9 mph4.7 kmh 30.03 in1016.9 mb 0.00 in0.0 mm 0.00 in0.0 mm 0.00 in0.0 mm
02:48 AM 74.5°F23.6°C 65.3°F18.5°C 73% 2.9 mph 4.7 kmh 6.0 mph9.7 kmh 30.04 in1017.3 mb 0.00 in0.0 mm 0.00 in0.0 mm 0.00 in0.0 mm
02:47 AM 74.5°F23.6°C 65.3°F18.5°C 73% 2.7 mph WNW4.3 kmh WNW 6.9 mph11.1 kmh 30.03 in1016.9 mb 0.00 in0.0 mm 0.00 in0.0 mm 0.00 in0.0 mm
02:46 AM 74.5°F23.6°C 65.3°F18.5°C 73% 2.7 mph NW4.3 kmh NW 6.0 mph9.7 kmh 30.04 in1017.3 mb 0.00 in0.0 mm 0.00 in0.0 mm 0.00 in0.0 mm
02:45 AM 74.5°F23.6°C 65.3°F18.5°C 73% 2.7 mph W4.3 kmh W 8.1 mph13.0 kmh 30.03 in1016.9 mb 0.00 in0.0 mm 0.00 in0.0 mm 0.00 in0.0 mm
02:44 AM 74.5°F23.6°C 65.7°F18.7°C 74% 2.7 mph NNW4.3 kmh NNW 8.1 mph13.0 kmh 30.03 in1016.9 mb 0.00 in0.0 mm 0.00 in0.0 mm 0.00 in0.0 mm
02:43 AM 74.5°F23.6°C 65.3°F18.5°C 73% 2.7 mph NW4.3 kmh NW 6.0 mph9.7 kmh 30.03 in1016.9 mb 0.00 in0.0 mm 0.00 in0.0 mm 0.00 in0.0 mm
02:42 AM 74.3°F23.5°C 65.5°F18.6°C 74% 2.5 mph N4.0 kmh N 4.9 mph7.9 kmh 30.03 in1016.9 mb 0.00 in0.0 mm 0.00 in0.0 mm 0.00 in0.0 mm
02:41 AM 74.5°F23.6°C 65.7°F18.7°C 74% 2.5 mph N4.0 kmh N 4.0 mph6.4 kmh 30.03 in1016.9 mb 0.00 in0.0 mm 0.00 in0.0 mm 0.00 in0.0 mm
02:40 AM 74.3°F23.5°C 65.1°F18.4°C 73% 2.7 mph NNW4.3 kmh NNW 4.9 mph7.9 kmh 30.04 in1017.3 mb 0.00 in0.0 mm 0.00 in0.0 mm 0.00 in0.0 mm
02:39 AM 74.3°F23.5°C 65.1°F18.4°C 73% 2.7 mph NNW4.3 kmh NNW 4.0 mph6.4 kmh 30.03 in1016.9 mb 0.00 in0.0 mm 0.00 in0.0 mm 0.00 in0.0 mm
02:38 AM 74.5°F23.6°C 65.3°F18.5°C 73% 2.9 mph N4.7 kmh N 4.0 mph6.4 kmh 30.03 in1016.9 mb 0.00 in0.0 mm 0.00 in0.0 mm 0.00 in0.0 mm
02:37 AM 74.3°F23.5°C 65.5°F18.6°C 74% 3.1 mph N5.0 kmh N 4.0 mph6.4 kmh 30.03 in1016.9 mb 0.00 in0.0 mm 0.00 in0.0 mm 0.00 in0.0 mm
02:36 AM 74.3°F23.5°C 65.1°F18.4°C 73% 3.1 mph N5.0 kmh N 4.9 mph7.9 kmh 30.03 in1016.9 mb 0.00 in0.0 mm 0.00 in0.0 mm 0.00 in0.0 mm
02:35 AM 74.3°F23.5°C 65.5°F18.6°C 74% 3.4 mph N5.5 kmh N 6.0 mph9.7 kmh 30.03 in1016.9 mb 0.00 in0.0 mm 0.00 in0.0 mm 0.00 in0.0 mm
02:34 AM 74.3°F23.5°C 65.5°F18.6°C 74% 3.4 mph NW5.5 kmh NW 6.0 mph9.7 kmh 30.03 in1016.9 mb 0.00 in0.0 mm 0.00 in0.0 mm 0.00 in0.0 mm
02:33 AM 74.3°F23.5°C 65.1°F18.4°C 73% 3.1 mph NNW5.0 kmh NNW 4.0 mph6.4 kmh 30.03 in1016.9 mb 0.00 in0.0 mm 0.00 in0.0 mm 0.00 in0.0 mm
02:32 AM 74.1°F23.4°C 64.9°F18.3°C 73% 3.4 mph N5.5 kmh N 6.0 mph9.7 kmh 30.03 in1016.9 mb 0.00 in0.0 mm 0.00 in0.0 mm 0.00 in0.0 mm
02:31 AM 74.3°F23.5°C 65.5°F18.6°C 74% 3.4 mph NNW5.5 kmh NNW 4.9 mph7.9 kmh 30.03 in1016.9 mb 0.00 in0.0 mm 0.00 in0.0 mm 0.00 in0.0 mm
02:30 AM 74.3°F23.5°C 65.1°F18.4°C 73% 3.6 mph NNW5.8 kmh NNW 8.1 mph13.0 kmh 30.03 in1016.9 mb 0.00 in0.0 mm 0.00 in0.0 mm 0.00 in0.0 mm
02:29 AM 74.3°F23.5°C 65.1°F18.4°C 73% 3.6 mph NW5.8 kmh NW 8.1 mph13.0 kmh 30.03 in1016.9 mb 0.00 in0.0 mm 0.00 in0.0 mm 0.00 in0.0 mm
02:28 AM 74.1°F23.4°C 64.9°F18.3°C 73% 3.6 mph NNW5.8 kmh NNW 6.0 mph9.7 kmh 30.03 in1016.9 mb 0.00 in0.0 mm 0.00 in0.0 mm 0.00 in0.0 mm
02:27 AM 74.1°F23.4°C 64.9°F18.3°C 73% 3.8 mph N6.1 kmh N 6.0 mph9.7 kmh 30.03 in1016.9 mb 0.00 in0.0 mm 0.00 in0.0 mm 0.00 in0.0 mm
02:25 AM 74.1°F23.4°C 64.9°F18.3°C 73% 3.8 mph N6.1 kmh N 6.0 mph9.7 kmh 30.03 in1016.9 mb 0.00 in0.0 mm 0.00 in0.0 mm 0.00 in0.0 mm
02:24 AM 74.1°F23.4°C 64.9°F18.3°C 73% 4.0 mph NW6.4 kmh NW 6.9 mph11.1 kmh 30.03 in1016.9 mb 0.00 in0.0 mm 0.00 in0.0 mm 0.00 in0.0 mm
02:23 AM 74.1°F23.4°C 64.9°F18.3°C 73% 4.0 mph NNW6.4 kmh NNW 4.0 mph6.4 kmh 30.03 in1016.9 mb 0.00 in0.0 mm 0.00 in0.0 mm 0.00 in0.0 mm
02:22 AM 74.1°F23.4°C 64.9°F18.3°C 73% 4.5 mph N7.2 kmh N 6.0 mph9.7 kmh 30.03 in1016.9 mb 0.00 in0.0 mm 0.00 in0.0 mm 0.00 in0.0 mm
02:21 AM 74.1°F23.4°C 64.9°F18.3°C 73% 4.5 mph 7.2 kmh 6.9 mph11.1 kmh 30.03 in1016.9 mb 0.00 in0.0 mm 0.00 in0.0 mm 0.00 in0.0 mm
02:20 AM 74.1°F23.4°C 64.9°F18.3°C 73% 4.7 mph NW7.6 kmh NW 8.1 mph13.0 kmh 30.03 in1016.9 mb 0.00 in0.0 mm 0.00 in0.0 mm 0.00 in0.0 mm
02:19 AM 74.1°F23.4°C 64.9°F18.3°C 73% 4.9 mph WNW7.9 kmh WNW 8.1 mph13.0 kmh 30.03 in1016.9 mb 0.00 in0.0 mm 0.00 in0.0 mm 0.00 in0.0 mm
02:18 AM 74.1°F23.4°C 64.9°F18.3°C 73% 5.1 mph N8.2 kmh N 10.1 mph16.3 kmh 30.03 in1016.9 mb 0.00 in0.0 mm 0.00 in0.0 mm 0.00 in0.0 mm
02:17 AM 74.1°F23.4°C 64.9°F18.3°C 73% 5.4 mph N8.7 kmh N 8.9 mph14.3 kmh 30.03 in1016.9 mb 0.00 in0.0 mm 0.00 in0.0 mm 0.00 in0.0 mm
02:16 AM 74.1°F23.4°C 64.9°F18.3°C 73% 5.6 mph NW9.0 kmh NW 10.1 mph16.3 kmh 30.03 in1016.9 mb 0.00 in0.0 mm 0.00 in0.0 mm 0.00 in0.0 mm
02:15 AM 74.1°F23.4°C 64.9°F18.3°C 73% 5.6 mph N9.0 kmh N 8.1 mph13.0 kmh 30.03 in1016.9 mb 0.00 in0.0 mm 0.00 in0.0 mm 0.00 in0.0 mm
02:14 AM 74.1°F23.4°C 64.9°F18.3°C 73% 5.8 mph N9.3 kmh N 8.1 mph13.0 kmh 30.03 in1016.9 mb 0.00 in0.0 mm 0.00 in0.0 mm 0.00 in0.0 mm
02:13 AM 73.9°F23.3°C 65.1°F18.4°C 74% 6.0 mph N9.7 kmh N 8.1 mph13.0 kmh 30.03 in1016.9 mb 0.00 in0.0 mm 0.00 in0.0 mm 0.00 in0.0 mm
02:12 AM 73.9°F23.3°C 65.1°F18.4°C 74% 6.3 mph NNW10.1 kmh NNW 8.1 mph13.0 kmh 30.03 in1016.9 mb 0.00 in0.0 mm 0.00 in0.0 mm 0.00 in0.0 mm
02:11 AM 73.9°F23.3°C 65.1°F18.4°C 74% 6.3 mph N10.1 kmh N 10.1 mph16.3 kmh 30.03 in1016.9 mb 0.00 in0.0 mm 0.00 in0.0 mm 0.00 in0.0 mm
02:10 AM 73.9°F23.3°C 65.1°F18.4°C 74% 6.3 mph NNW10.1 kmh NNW 11.0 mph17.7 kmh 30.03 in1016.9 mb 0.00 in0.0 mm 0.00 in0.0 mm 0.00 in0.0 mm
02:09 AM 73.9°F23.3°C 65.1°F18.4°C 74% 6.0 mph NNW9.7 kmh NNW 11.0 mph17.7 kmh 30.03 in1016.9 mb 0.00 in0.0 mm 0.00 in0.0 mm 0.00 in0.0 mm
02:08 AM 73.9°F23.3°C 65.1°F18.4°C 74% 5.8 mph NW9.3 kmh NW 10.1 mph16.3 kmh 30.03 in1016.9 mb 0.00 in0.0 mm 0.00 in0.0 mm 0.00 in0.0 mm
02:07 AM 73.9°F23.3°C 65.1°F18.4°C 74% 5.6 mph WNW9.0 kmh WNW 8.9 mph14.3 kmh 30.03 in1016.9 mb 0.00 in0.0 mm 0.00 in0.0 mm 0.00 in0.0 mm
02:06 AM 73.8°F23.2°C 64.9°F18.3°C 74% 5.6 mph NNW9.0 kmh NNW 8.9 mph14.3 kmh 30.03 in1016.9 mb 0.00 in0.0 mm 0.00 in0.0 mm 0.00 in0.0 mm
02:05 AM 73.8°F23.2°C 64.9°F18.3°C 74% 5.4 mph NW8.7 kmh NW 8.9 mph14.3 kmh 30.03 in1016.9 mb 0.00 in0.0 mm 0.00 in0.0 mm 0.00 in0.0 mm
02:04 AM 73.8°F23.2°C 64.9°F18.3°C 74% 5.4 mph NW8.7 kmh NW 10.1 mph16.3 kmh 30.03 in1016.9 mb 0.00 in0.0 mm 0.00 in0.0 mm 0.00 in0.0 mm
02:03 AM 73.8°F23.2°C 64.9°F18.3°C 74% 5.1 mph N8.2 kmh N 10.1 mph16.3 kmh 30.03 in1016.9 mb 0.00 in0.0 mm 0.00 in0.0 mm 0.00 in0.0 mm
02:02 AM 73.8°F23.2°C 64.9°F18.3°C 74% 4.9 mph N7.9 kmh N 8.9 mph14.3 kmh 30.03 in1016.9 mb 0.00 in0.0 mm 0.00 in0.0 mm 0.00 in0.0 mm
02:01 AM 73.6°F23.1°C 64.8°F18.2°C 74% 4.9 mph NNW7.9 kmh NNW 10.1 mph16.3 kmh 30.03 in1016.9 mb 0.00 in0.0 mm 0.00 in0.0 mm 0.00 in0.0 mm
02:00 AM 73.8°F23.2°C 64.9°F18.3°C 74% 4.7 mph NNW7.6 kmh NNW 10.1 mph16.3 kmh 30.03 in1016.9 mb 0.00 in0.0 mm 0.00 in0.0 mm 0.00 in0.0 mm
01:59 AM 73.6°F23.1°C 64.8°F18.2°C 74% 4.7 mph NW7.6 kmh NW 11.0 mph17.7 kmh 30.03 in1016.9 mb 0.00 in0.0 mm 0.00 in0.0 mm 0.00 in0.0 mm
01:58 AM 73.6°F23.1°C 64.8°F18.2°C 74% 4.7 mph 7.6 kmh 10.1 mph16.3 kmh 30.03 in1016.9 mb 0.00 in0.0 mm 0.00 in0.0 mm 0.00 in0.0 mm
01:57 AM 73.6°F23.1°C 64.8°F18.2°C 74% 4.9 mph NW7.9 kmh NW 10.1 mph16.3 kmh 30.03 in1016.9 mb 0.00 in0.0 mm 0.00 in0.0 mm 0.00 in0.0 mm
01:56 AM 73.8°F23.2°C 64.9°F18.3°C 74% 4.7 mph NNW7.6 kmh NNW 8.9 mph14.3 kmh 30.03 in1016.9 mb 0.00 in0.0 mm 0.00 in0.0 mm 0.00 in0.0 mm
01:55 AM 73.6°F23.1°C 64.8°F18.2°C 74% 4.9 mph NNE7.9 kmh NNE 4.9 mph7.9 kmh 30.03 in1016.9 mb 0.00 in0.0 mm 0.00 in0.0 mm 0.00 in0.0 mm
01:54 AM 73.6°F23.1°C 64.8°F18.2°C 74% 4.7 mph N7.6 kmh N 11.0 mph17.7 kmh 30.03 in1016.9 mb 0.00 in0.0 mm 0.00 in0.0 mm 0.00 in0.0 mm
01:53 AM 73.6°F23.1°C 65.1°F18.4°C 75% 4.7 mph NNW7.6 kmh NNW 10.1 mph16.3 kmh 30.03 in1016.9 mb 0.00 in0.0 mm 0.00 in0.0 mm 0.00 in0.0 mm
01:52 AM 73.6°F23.1°C 64.8°F18.2°C 74% 4.7 mph NNW7.6 kmh NNW 10.1 mph16.3 kmh 30.03 in1016.9 mb 0.00 in0.0 mm 0.00 in0.0 mm 0.00 in0.0 mm
01:51 AM 73.6°F23.1°C 64.8°F18.2°C 74% 4.7 mph NNW7.6 kmh NNW 8.1 mph13.0 kmh 30.03 in1016.9 mb 0.00 in0.0 mm 0.00 in0.0 mm 0.00 in0.0 mm
01:50 AM 73.8°F23.2°C 64.9°F18.3°C 74% 4.7 mph NW7.6 kmh NW 8.1 mph13.0 kmh 30.03 in1016.9 mb 0.00 in0.0 mm 0.00 in0.0 mm 0.00 in0.0 mm
01:49 AM 73.6°F23.1°C 65.1°F18.4°C 75% 4.5 mph N7.2 kmh N 8.9 mph14.3 kmh 30.03 in1016.9 mb 0.00 in0.0 mm 0.00 in0.0 mm 0.00 in0.0 mm
01:48 AM 73.8°F23.2°C 64.9°F18.3°C 74% 4.5 mph NNW7.2 kmh NNW 8.9 mph14.3 kmh 30.03 in1016.9 mb 0.00 in0.0 mm 0.00 in0.0 mm 0.00 in0.0 mm
01:47 AM 73.8°F23.2°C 65.3°F18.5°C 75% 4.3 mph NW6.9 kmh NW 8.9 mph14.3 kmh 30.03 in1016.9 mb 0.00 in0.0 mm 0.00 in0.0 mm 0.00 in0.0 mm
01:46 AM 73.8°F23.2°C 64.9°F18.3°C 74% 4.5 mph NNW7.2 kmh NNW 8.1 mph13.0 kmh 30.03 in1016.9 mb 0.00 in0.0 mm 0.00 in0.0 mm 0.00 in0.0 mm
01:45 AM 73.8°F23.2°C 64.9°F18.3°C 74% 4.5 mph NNW7.2 kmh NNW 8.1 mph13.0 kmh 30.03 in1016.9 mb 0.00 in0.0 mm 0.00 in0.0 mm 0.00 in0.0 mm
01:44 AM 73.8°F23.2°C 64.9°F18.3°C 74% 4.7 mph N7.6 kmh N 8.1 mph13.0 kmh 30.03 in1016.9 mb 0.00 in0.0 mm 0.00 in0.0 mm 0.00 in0.0 mm
01:43 AM 73.8°F23.2°C 64.9°F18.3°C 74% 4.9 mph NW7.9 kmh NW 8.1 mph13.0 kmh 30.03 in1016.9 mb 0.00 in0.0 mm 0.00 in0.0 mm 0.00 in0.0 mm
01:42 AM 73.8°F23.2°C 64.9°F18.3°C 74% 5.4 mph NW8.7 kmh NW 6.0 mph9.7 kmh 30.03 in1016.9 mb 0.00 in0.0 mm 0.00 in0.0 mm 0.00 in0.0 mm
01:41 AM 73.8°F23.2°C 64.9°F18.3°C 74% 5.6 mph NNE9.0 kmh NNE 8.9 mph14.3 kmh 30.03 in1016.9 mb 0.00 in0.0 mm 0.00 in0.0 mm 0.00 in0.0 mm
01:40 AM 73.8°F23.2°C 64.9°F18.3°C 74% 5.8 mph NW9.3 kmh NW 8.9 mph14.3 kmh 30.03 in1016.9 mb 0.00 in0.0 mm 0.00 in0.0 mm 0.00 in0.0 mm
01:39 AM 73.8°F23.2°C 64.9°F18.3°C 74% 5.8 mph NW9.3 kmh NW 8.9 mph14.3 kmh 30.03 in1016.9 mb 0.00 in0.0 mm 0.00 in0.0 mm 0.00 in0.0 mm
01:38 AM 73.8°F23.2°C 64.9°F18.3°C 74% 5.8 mph NW9.3 kmh NW 8.1 mph13.0 kmh 30.03 in1016.9 mb 0.00 in0.0 mm 0.00 in0.0 mm 0.00 in0.0 mm
01:37 AM 73.8°F23.2°C 64.9°F18.3°C 74% 6.0 mph N9.7 kmh N 10.1 mph16.3 kmh 30.03 in1016.9 mb 0.00 in0.0 mm 0.00 in0.0 mm 0.00 in0.0 mm
01:36 AM 73.8°F23.2°C 64.9°F18.3°C 74% 6.0 mph 9.7 kmh 10.1 mph16.3 kmh 30.03 in1016.9 mb 0.00 in0.0 mm 0.00 in0.0 mm 0.00 in0.0 mm
01:35 AM 73.8°F23.2°C 64.9°F18.3°C 74% 6.3 mph NNW10.1 kmh NNW 8.1 mph13.0 kmh 30.03 in1016.9 mb 0.00 in0.0 mm 0.00 in0.0 mm 0.00 in0.0 mm
01:34 AM 73.8°F23.2°C 64.9°F18.3°C 74% 6.3 mph N10.1 kmh N 10.1 mph16.3 kmh 30.03 in1016.9 mb 0.00 in0.0 mm 0.00 in0.0 mm 0.00 in0.0 mm
01:33 AM 73.8°F23.2°C 65.3°F18.5°C 75% 6.3 mph N10.1 kmh N 12.1 mph19.5 kmh 30.03 in1016.9 mb 0.00 in0.0 mm 0.00 in0.0 mm 0.00 in0.0 mm
01:32 AM 73.6°F23.1°C 65.1°F18.4°C 75% 6.0 mph NW9.7 kmh NW 11.0 mph17.7 kmh 30.03 in1016.9 mb 0.00 in0.0 mm 0.00 in0.0 mm 0.00 in0.0 mm
01:31 AM 73.6°F23.1°C 65.1°F18.4°C 75% 5.8 mph N9.3 kmh N 10.1 mph16.3 kmh 30.03 in1016.9 mb 0.00 in0.0 mm 0.00 in0.0 mm 0.00 in0.0 mm
01:30 AM 73.6°F23.1°C 65.1°F18.4°C 75% 5.6 mph NW9.0 kmh NW 10.1 mph16.3 kmh 30.03 in1016.9 mb 0.00 in0.0 mm 0.00 in0.0 mm 0.00 in0.0 mm
01:29 AM 73.6°F23.1°C 65.1°F18.4°C 75% 5.4 mph NW8.7 kmh NW 8.9 mph14.3 kmh 30.03 in1016.9 mb 0.00 in0.0 mm 0.00 in0.0 mm 0.00 in0.0 mm
01:28 AM 73.6°F23.1°C 65.1°F18.4°C 75% 5.1 mph N8.2 kmh N 8.9 mph14.3 kmh 30.03 in1016.9 mb 0.00 in0.0 mm 0.00 in0.0 mm 0.00 in0.0 mm
01:27 AM 73.6°F23.1°C 65.1°F18.4°C 75% 5.4 mph NW8.7 kmh NW 8.9 mph14.3 kmh 30.03 in1016.9 mb 0.00 in0.0 mm 0.00 in0.0 mm 0.00 in0.0 mm
01:26 AM 73.6°F23.1°C 65.1°F18.4°C 75% 5.4 mph N8.7 kmh N 11.0 mph17.7 kmh 30.03 in1016.9 mb 0.00 in0.0 mm 0.00 in0.0 mm 0.00 in0.0 mm
01:25 AM 73.6°F23.1°C 65.1°F18.4°C 75% 5.1 mph NW8.2 kmh NW 10.1 mph16.3 kmh 30.03 in1016.9 mb 0.00 in0.0 mm 0.00 in0.0 mm 0.00 in0.0 mm
01:24 AM 73.4°F23.0°C 64.9°F18.3°C 75% 4.9 mph NW7.9 kmh NW 11.0 mph17.7 kmh 30.03 in1016.9 mb 0.00 in0.0 mm 0.00 in0.0 mm 0.00 in0.0 mm
01:23 AM 73.4°F23.0°C 64.9°F18.3°C 75% 4.7 mph N7.6 kmh N 10.1 mph16.3 kmh 30.03 in1016.9 mb 0.00 in0.0 mm 0.00 in0.0 mm 0.00 in0.0 mm
01:22 AM 73.2°F22.9°C 64.8°F18.2°C 75% 4.7 mph NNW7.6 kmh NNW 8.1 mph13.0 kmh 30.03 in1016.9 mb 0.00 in0.0 mm 0.00 in0.0 mm 0.00 in0.0 mm
01:21 AM 73.2°F22.9°C 64.8°F18.2°C 75% 4.7 mph NNE7.6 kmh NNE 8.1 mph13.0 kmh 30.03 in1016.9 mb 0.00 in0.0 mm 0.00 in0.0 mm 0.00 in0.0 mm
01:20 AM 73.4°F23.0°C 64.9°F18.3°C 75% 4.7 mph N7.6 kmh N 6.0 mph9.7 kmh 30.03 in1016.9 mb 0.00 in0.0 mm 0.00 in0.0 mm 0.00 in0.0 mm
01:19 AM 73.2°F22.9°C 64.8°F18.2°C 75% 4.9 mph N7.9 kmh N 6.0 mph9.7 kmh 30.03 in1016.9 mb 0.00 in0.0 mm 0.00 in0.0 mm 0.00 in0.0 mm
01:18 AM 73.2°F22.9°C 65.1°F18.4°C 76% 5.1 mph NW8.2 kmh NW 8.1 mph13.0 kmh 30.03 in1016.9 mb 0.00 in0.0 mm 0.00 in0.0 mm 0.00 in0.0 mm
01:17 AM 73.2°F22.9°C 65.1°F18.4°C 76% 5.1 mph NW8.2 kmh NW 11.0 mph17.7 kmh 30.03 in1016.9 mb 0.00 in0.0 mm 0.00 in0.0 mm 0.00 in0.0 mm
01:16 AM 73.2°F22.9°C 65.1°F18.4°C 76% 5.1 mph NNW8.2 kmh NNW 12.1 mph19.5 kmh 30.03 in1016.9 mb 0.00 in0.0 mm 0.00 in0.0 mm 0.00 in0.0 mm
01:15 AM 73.2°F22.9°C 65.1°F18.4°C 76% 5.1 mph N8.2 kmh N 10.1 mph16.3 kmh 30.03 in1016.9 mb 0.00 in0.0 mm 0.00 in0.0 mm 0.00 in0.0 mm
01:14 AM 73.0°F22.8°C 64.9°F18.3°C 76% 4.9 mph NNW7.9 kmh NNW 8.1 mph13.0 kmh 30.03 in1016.9 mb 0.00 in0.0 mm 0.00 in0.0 mm 0.00 in0.0 mm
01:13 AM 73.2°F22.9°C 65.1°F18.4°C 76% 5.1 mph NW8.2 kmh NW 8.1 mph13.0 kmh 30.03 in1016.9 mb 0.00 in0.0 mm 0.00 in0.0 mm 0.00 in0.0 mm
01:12 AM 73.0°F22.8°C 64.9°F18.3°C 76% 5.1 mph N8.2 kmh N 8.1 mph13.0 kmh 30.03 in1016.9 mb 0.00 in0.0 mm 0.00 in0.0 mm 0.00 in0.0 mm
01:11 AM 73.0°F22.8°C 64.9°F18.3°C 76% 5.1 mph NW8.2 kmh NW 8.9 mph14.3 kmh 30.03 in1016.9 mb 0.00 in0.0 mm 0.00 in0.0 mm 0.00 in0.0 mm
01:10 AM 73.0°F22.8°C 64.9°F18.3°C 76% 5.1 mph N8.2 kmh N 6.9 mph11.1 kmh 30.03 in1016.9 mb 0.00 in0.0 mm 0.00 in0.0 mm 0.00 in0.0 mm
01:09 AM 73.0°F22.8°C 64.9°F18.3°C 76% 5.1 mph NW8.2 kmh NW 8.9 mph14.3 kmh 30.03 in1016.9 mb 0.00 in0.0 mm 0.00 in0.0 mm 0.00 in0.0 mm
01:08 AM 73.0°F22.8°C 65.5°F18.6°C 77% 4.7 mph NW7.6 kmh NW 10.1 mph16.3 kmh 30.03 in1016.9 mb 0.00 in0.0 mm 0.00 in0.0 mm 0.00 in0.0 mm
01:07 AM 73.0°F22.8°C 65.5°F18.6°C 77% 4.7 mph NNW7.6 kmh NNW 10.1 mph16.3 kmh 30.03 in1016.9 mb 0.00 in0.0 mm 0.00 in0.0 mm 0.00 in0.0 mm
01:06 AM 72.9°F22.7°C 65.3°F18.5°C 77% 4.5 mph N7.2 kmh N 10.1 mph16.3 kmh 30.03 in1016.9 mb 0.00 in0.0 mm 0.00 in0.0 mm 0.00 in0.0 mm
01:05 AM 72.9°F22.7°C 65.3°F18.5°C 77% 4.5 mph NNW7.2 kmh NNW 10.1 mph16.3 kmh 30.03 in1016.9 mb 0.00 in0.0 mm 0.00 in0.0 mm 0.00 in0.0 mm
01:04 AM 72.9°F22.7°C 65.3°F18.5°C 77% 4.5 mph NNW7.2 kmh NNW 8.1 mph13.0 kmh 30.03 in1016.9 mb 0.00 in0.0 mm 0.00 in0.0 mm 0.00 in0.0 mm
01:03 AM 72.9°F22.7°C 65.3°F18.5°C 77% 4.3 mph NW6.9 kmh NW 10.1 mph16.3 kmh 30.03 in1016.9 mb 0.00 in0.0 mm 0.00 in0.0 mm 0.00 in0.0 mm
01:02 AM 72.7°F22.6°C 65.5°F18.6°C 78% 4.0 mph NW6.4 kmh NW 8.9 mph14.3 kmh 30.03 in1016.9 mb 0.00 in0.0 mm 0.00 in0.0 mm 0.00 in0.0 mm
01:01 AM 72.7°F22.6°C 65.5°F18.6°C 78% 3.8 mph NW6.1 kmh NW 10.1 mph16.3 kmh 30.03 in1016.9 mb 0.00 in0.0 mm 0.00 in0.0 mm 0.00 in0.0 mm
01:00 AM 72.7°F22.6°C 65.5°F18.6°C 78% 3.6 mph NNW5.8 kmh NNW 8.1 mph13.0 kmh 30.03 in1016.9 mb 0.00 in0.0 mm 0.00 in0.0 mm 0.00 in0.0 mm
12:59 AM 72.7°F22.6°C 65.5°F18.6°C 78% 3.6 mph N5.8 kmh N 8.1 mph13.0 kmh 30.03 in1016.9 mb 0.00 in0.0 mm 0.00 in0.0 mm 0.00 in0.0 mm
12:58 AM 72.7°F22.6°C 65.5°F18.6°C 78% 3.4 mph NNW5.5 kmh NNW 10.1 mph16.3 kmh 30.03 in1016.9 mb 0.00 in0.0 mm 0.00 in0.0 mm 0.00 in0.0 mm
12:57 AM 72.5°F22.5°C 65.3°F18.5°C 78% 3.4 mph N5.5 kmh N 10.1 mph16.3 kmh 30.03 in1016.9 mb 0.00 in0.0 mm 0.00 in0.0 mm 0.00 in0.0 mm
12:56 AM 72.5°F22.5°C 65.3°F18.5°C 78% 3.4 mph N5.5 kmh N 6.0 mph9.7 kmh 30.03 in1016.9 mb 0.00 in0.0 mm 0.00 in0.0 mm 0.00 in0.0 mm
12:55 AM 72.3°F22.4°C 65.1°F18.4°C 78% 3.1 mph N5.0 kmh N 6.9 mph11.1 kmh 30.03 in1016.9 mb 0.00 in0.0 mm 0.00 in0.0 mm 0.00 in0.0 mm
12:54 AM 72.3°F22.4°C 65.1°F18.4°C 78% 3.1 mph NNW5.0 kmh NNW 6.0 mph9.7 kmh 30.03 in1016.9 mb 0.00 in0.0 mm 0.00 in0.0 mm 0.00 in0.0 mm
12:53 AM 72.3°F22.4°C 65.1°F18.4°C 78% 3.1 mph NNE5.0 kmh NNE 6.0 mph9.7 kmh 30.03 in1016.9 mb 0.00 in0.0 mm 0.00 in0.0 mm 0.00 in0.0 mm
12:52 AM 72.1°F22.3°C 65.3°F18.5°C 79% 3.4 mph NNW5.5 kmh NNW 4.9 mph7.9 kmh 30.03 in1016.9 mb 0.00 in0.0 mm 0.00 in0.0 mm 0.00 in0.0 mm
12:51 AM 72.1°F22.3°C 65.3°F18.5°C 79% 3.6 mph N5.8 kmh N 6.0 mph9.7 kmh 30.03 in1016.9 mb 0.00 in0.0 mm 0.00 in0.0 mm 0.00 in0.0 mm
12:50 AM 72.1°F22.3°C 65.3°F18.5°C 79% 3.8 mph N6.1 kmh N 4.0 mph6.4 kmh 30.03 in1016.9 mb 0.00 in0.0 mm 0.00 in0.0 mm 0.00 in0.0 mm
12:49 AM 72.0°F22.2°C 65.1°F18.4°C 79% 3.8 mph N6.1 kmh N 6.0 mph9.7 kmh 30.03 in1016.9 mb 0.00 in0.0 mm 0.00 in0.0 mm 0.00 in0.0 mm
12:48 AM 72.0°F22.2°C 65.1°F18.4°C 79% 3.8 mph N6.1 kmh N 4.9 mph7.9 kmh 30.03 in1016.9 mb 0.00 in0.0 mm 0.00 in0.0 mm 0.00 in0.0 mm
12:47 AM 72.0°F22.2°C 65.5°F18.6°C 80% 3.8 mph NNW6.1 kmh NNW 8.1 mph13.0 kmh 30.03 in1016.9 mb 0.00 in0.0 mm 0.00 in0.0 mm 0.00 in0.0 mm
12:46 AM 71.8°F22.1°C 65.3°F18.5°C 80% 3.8 mph 6.1 kmh 8.1 mph13.0 kmh 30.03 in1016.9 mb 0.00 in0.0 mm 0.00 in0.0 mm 0.00 in0.0 mm
12:45 AM 71.8°F22.1°C 65.3°F18.5°C 80% 3.8 mph NNW6.1 kmh NNW 6.0 mph9.7 kmh 30.03 in1016.9 mb 0.00 in0.0 mm 0.00 in0.0 mm 0.00 in0.0 mm
12:44 AM 71.8°F22.1°C 65.3°F18.5°C 80% 3.8 mph N6.1 kmh N 6.0 mph9.7 kmh 30.03 in1016.9 mb 0.00 in0.0 mm 0.00 in0.0 mm 0.00 in0.0 mm
12:43 AM 71.8°F22.1°C 65.7°F18.7°C 81% 3.6 mph NNW5.8 kmh NNW 6.9 mph11.1 kmh 30.03 in1016.9 mb 0.00 in0.0 mm 0.00 in0.0 mm 0.00 in0.0 mm
12:42 AM 71.8°F22.1°C 65.7°F18.7°C 81% 3.6 mph NNW5.8 kmh NNW 8.9 mph14.3 kmh 30.03 in1016.9 mb 0.00 in0.0 mm 0.00 in0.0 mm 0.00 in0.0 mm
12:41 AM 71.8°F22.1°C 65.7°F18.7°C 81% 3.6 mph N5.8 kmh N 8.1 mph13.0 kmh 30.03 in1016.9 mb 0.00 in0.0 mm 0.00 in0.0 mm 0.00 in0.0 mm
12:40 AM 71.8°F22.1°C 65.7°F18.7°C 81% 3.6 mph N5.8 kmh N 6.0 mph9.7 kmh 30.03 in1016.9 mb 0.00 in0.0 mm 0.00 in0.0 mm 0.00 in0.0 mm
12:39 AM 71.8°F22.1°C 65.7°F18.7°C 81% 3.4 mph N5.5 kmh N 8.1 mph13.0 kmh 30.03 in1016.9 mb 0.00 in0.0 mm 0.00 in0.0 mm 0.00 in0.0 mm
12:38 AM 71.8°F22.1°C 65.7°F18.7°C 81% 3.4 mph N5.5 kmh N 8.1 mph13.0 kmh 30.03 in1016.9 mb 0.00 in0.0 mm 0.00 in0.0 mm 0.00 in0.0 mm
12:37 AM 71.6°F22.0°C 65.8°F18.8°C 82% 3.4 mph N5.5 kmh N 8.1 mph13.0 kmh 30.03 in1016.9 mb 0.00 in0.0 mm 0.00 in0.0 mm 0.00 in0.0 mm
12:36 AM 71.6°F22.0°C 65.8°F18.8°C 82% 3.4 mph N5.5 kmh N 4.0 mph6.4 kmh 30.03 in1016.9 mb 0.00 in0.0 mm 0.00 in0.0 mm 0.00 in0.0 mm
12:35 AM 71.6°F22.0°C 65.8°F18.8°C 82% 3.6 mph 5.8 kmh 4.9 mph7.9 kmh 30.03 in1016.9 mb 0.00 in0.0 mm 0.00 in0.0 mm 0.00 in0.0 mm
12:34 AM 71.6°F22.0°C 65.8°F18.8°C 82% 3.8 mph NNW6.1 kmh NNW 6.0 mph9.7 kmh 30.03 in1016.9 mb 0.00 in0.0 mm 0.00 in0.0 mm 0.00 in0.0 mm
12:33 AM 71.6°F22.0°C 65.8°F18.8°C 82% 3.8 mph N6.1 kmh N 6.9 mph11.1 kmh 30.03 in1016.9 mb 0.00 in0.0 mm 0.00 in0.0 mm 0.00 in0.0 mm
12:32 AM 71.6°F22.0°C 65.8°F18.8°C 82% 3.6 mph N5.8 kmh N 6.9 mph11.1 kmh 30.03 in1016.9 mb 0.00 in0.0 mm 0.00 in0.0 mm 0.00 in0.0 mm
12:31 AM 71.6°F22.0°C 65.8°F18.8°C 82% 3.4 mph N5.5 kmh N 6.0 mph9.7 kmh 30.03 in1016.9 mb 0.00 in0.0 mm 0.00 in0.0 mm 0.00 in0.0 mm
12:30 AM 71.6°F22.0°C 66.2°F19.0°C 83% 3.4 mph 5.5 kmh 4.9 mph7.9 kmh 30.03 in1016.9 mb 0.00 in0.0 mm 0.00 in0.0 mm 0.00 in0.0 mm
12:29 AM 71.6°F22.0°C 66.2°F19.0°C 83% 3.4 mph N5.5 kmh N 8.1 mph13.0 kmh 30.03 in1016.9 mb 0.00 in0.0 mm 0.00 in0.0 mm 0.00 in0.0 mm
12:28 AM 71.6°F22.0°C 66.2°F19.0°C 83% 3.4 mph N5.5 kmh N 6.9 mph11.1 kmh 30.03 in1016.9 mb 0.00 in0.0 mm 0.00 in0.0 mm 0.00 in0.0 mm
12:27 AM 71.4°F21.9°C 66.0°F18.9°C 83% 3.4 mph N5.5 kmh N 6.0 mph9.7 kmh 30.03 in1016.9 mb 0.00 in0.0 mm 0.00 in0.0 mm 0.00 in0.0 mm
12:26 AM 71.6°F22.0°C 66.2°F19.0°C 83% 3.6 mph N5.8 kmh N 8.1 mph13.0 kmh 30.03 in1016.9 mb 0.00 in0.0 mm 0.00 in0.0 mm 0.00 in0.0 mm
12:25 AM 71.6°F22.0°C 66.2°F19.0°C 83% 3.6 mph NNE5.8 kmh NNE 8.1 mph13.0 kmh 30.03 in1016.9 mb 0.00 in0.0 mm 0.00 in0.0 mm 0.00 in0.0 mm
12:24 AM 71.6°F22.0°C 66.2°F19.0°C 83% 3.6 mph N5.8 kmh N 4.9 mph7.9 kmh 30.03 in1016.9 mb 0.00 in0.0 mm 0.00 in0.0 mm 0.00 in0.0 mm
12:23 AM 71.6°F22.0°C 66.2°F19.0°C 83% 3.8 mph N6.1 kmh N 4.9 mph7.9 kmh 30.03 in1016.9 mb 0.00 in0.0 mm 0.00 in0.0 mm 0.00 in0.0 mm
12:22 AM 71.6°F22.0°C 66.2°F19.0°C 83% 3.8 mph N6.1 kmh N 4.0 mph6.4 kmh 30.03 in1016.9 mb 0.00 in0.0 mm 0.00 in0.0 mm 0.00 in0.0 mm
12:21 AM 71.6°F22.0°C 66.2°F19.0°C 83% 4.0 mph NNE6.4 kmh NNE 4.0 mph6.4 kmh 30.03 in1016.9 mb 0.00 in0.0 mm 0.00 in0.0 mm 0.00 in0.0 mm
12:19 AM 71.6°F22.0°C 66.6°F19.2°C 84% 4.3 mph 6.9 kmh 4.9 mph7.9 kmh 30.03 in1016.9 mb 0.00 in0.0 mm 0.00 in0.0 mm 0.00 in0.0 mm
12:18 AM 71.6°F22.0°C 66.6°F19.2°C 84% 4.5 mph N7.2 kmh N 6.0 mph9.7 kmh 30.03 in1016.9 mb 0.00 in0.0 mm 0.00 in0.0 mm 0.00 in0.0 mm
12:17 AM 71.6°F22.0°C 66.6°F19.2°C 84% 4.5 mph 7.2 kmh 8.1 mph13.0 kmh 30.03 in1016.9 mb 0.00 in0.0 mm 0.00 in0.0 mm 0.00 in0.0 mm
12:16 AM 71.6°F22.0°C 66.6°F19.2°C 84% 4.3 mph N6.9 kmh N 8.1 mph13.0 kmh 30.03 in1016.9 mb 0.00 in0.0 mm 0.00 in0.0 mm 0.00 in0.0 mm
12:15 AM 71.6°F22.0°C 66.6°F19.2°C 84% 4.0 mph N6.4 kmh N 8.9 mph14.3 kmh 30.03 in1016.9 mb 0.00 in0.0 mm 0.00 in0.0 mm 0.00 in0.0 mm
12:14 AM 71.6°F22.0°C 66.6°F19.2°C 84% 3.8 mph N6.1 kmh N 8.9 mph14.3 kmh 30.03 in1016.9 mb 0.00 in0.0 mm 0.00 in0.0 mm 0.00 in0.0 mm
12:13 AM 71.4°F21.9°C 66.4°F19.1°C 84% 3.8 mph N6.1 kmh N 8.1 mph13.0 kmh 30.03 in1016.9 mb 0.00 in0.0 mm 0.00 in0.0 mm 0.00 in0.0 mm
12:12 AM 71.4°F21.9°C 66.4°F19.1°C 84% 3.8 mph N6.1 kmh N 8.1 mph13.0 kmh 30.03 in1016.9 mb 0.00 in0.0 mm 0.00 in0.0 mm 0.00 in0.0 mm
12:11 AM 71.4°F21.9°C 66.4°F19.1°C 84% 3.6 mph N5.8 kmh N 8.1 mph13.0 kmh 30.03 in1016.9 mb 0.00 in0.0 mm 0.00 in0.0 mm 0.00 in0.0 mm
12:10 AM 71.4°F21.9°C 66.4°F19.1°C 84% 3.6 mph 5.8 kmh 6.9 mph11.1 kmh 30.03 in1016.9 mb 0.00 in0.0 mm 0.00 in0.0 mm 0.00 in0.0 mm
12:09 AM 71.4°F21.9°C 66.4°F19.1°C 84% 3.6 mph N5.8 kmh N 6.9 mph11.1 kmh 30.03 in1016.9 mb 0.00 in0.0 mm 0.00 in0.0 mm 0.00 in0.0 mm
12:08 AM 71.4°F21.9°C 66.7°F19.3°C 85% 3.4 mph NNE5.5 kmh NNE 8.1 mph13.0 kmh 30.03 in1016.9 mb 0.00 in0.0 mm 0.00 in0.0 mm 0.00 in0.0 mm
12:07 AM 71.2°F21.8°C 66.6°F19.2°C 85% 3.4 mph N5.5 kmh N 4.9 mph7.9 kmh 30.03 in1016.9 mb 0.00 in0.0 mm 0.00 in0.0 mm 0.00 in0.0 mm
12:06 AM 71.4°F21.9°C 66.7°F19.3°C 85% 3.4 mph NNE5.5 kmh NNE 4.0 mph6.4 kmh 30.03 in1016.9 mb 0.00 in0.0 mm 0.00 in0.0 mm 0.00 in0.0 mm
12:05 AM 71.2°F21.8°C 66.6°F19.2°C 85% 3.4 mph NNE5.5 kmh NNE 4.0 mph6.4 kmh 30.03 in1016.9 mb 0.00 in0.0 mm 0.00 in0.0 mm 0.00 in0.0 mm
12:04 AM 71.2°F21.8°C 66.6°F19.2°C 85% 3.4 mph N5.5 kmh N 4.0 mph6.4 kmh 30.03 in1016.9 mb 0.00 in0.0 mm 0.00 in0.0 mm 0.00 in0.0 mm
12:03 AM 71.2°F21.8°C 66.9°F19.4°C 86% 3.4 mph N5.5 kmh N 6.0 mph9.7 kmh 30.03 in1016.9 mb 0.00 in0.0 mm 0.00 in0.0 mm 0.00 in0.0 mm
12:02 AM 71.2°F21.8°C 66.9°F19.4°C 86% 3.1 mph N5.0 kmh N 6.0 mph9.7 kmh 30.03 in1016.9 mb 0.00 in0.0 mm 0.00 in0.0 mm 0.00 in0.0 mm
12:01 AM 71.2°F21.8°C 66.9°F19.4°C 86% 3.1 mph N5.0 kmh N 6.0 mph9.7 kmh 30.03 in1016.9 mb 0.00 in0.0 mm 0.00 in0.0 mm 0.00 in0.0 mm
12:00 AM 71.2°F21.8°C 66.9°F19.4°C 86% 3.1 mph NNE5.0 kmh NNE 6.9 mph11.1 kmh 30.03 in1016.9 mb 0.00 in0.0 mm 0.00 in0.0 mm 0.00 in0.0 mm